<?xml version="1.0" encoding="UTF-8" standalone="no" ?>
<gpx xmlns="http://www.topografix.com/GPX/1/1" xmlns:xsi="http://www.w3.org/2001/XMLSchema-instance" xsi:schemaLocation="http://www.topografix.com/GPX/1/1 http://www.topografix.com/GPX/1/1/gpx.xsd" version="1.1" creator="VisuGPX - https://www.visugpx.com">
  <metadata>
    <name>Sénépy</name>
    <desc><![CDATA[De Treffort à Les Signaraux]]></desc>
  </metadata>
  <trk>
    <name><![CDATA[2013-04-25 16:21:59]]></name>
    <trkseg>
      <trkpt lat="44.94593" lon="5.71797">
        <ele>720.16</ele>
        <time>2013-04-25T07:01:51Z</time>
      </trkpt>
      <trkpt lat="44.94593" lon="5.71797">
        <ele>719.68</ele>
        <time>2013-04-25T07:01:52Z</time>
      </trkpt>
      <trkpt lat="44.94593" lon="5.71797">
        <ele>719.68</ele>
        <time>2013-04-25T07:02:35Z</time>
      </trkpt>
      <trkpt lat="44.94592" lon="5.718">
        <ele>720.65</ele>
        <time>2013-04-25T07:02:56Z</time>
      </trkpt>
      <trkpt lat="44.94591" lon="5.71801">
        <ele>719.68</ele>
        <time>2013-04-25T07:03:14Z</time>
      </trkpt>
      <trkpt lat="44.94597" lon="5.71799">
        <ele>720.16</ele>
        <time>2013-04-25T07:03:45Z</time>
      </trkpt>
      <trkpt lat="44.94589" lon="5.71797">
        <ele>719.2</ele>
        <time>2013-04-25T07:04:05Z</time>
      </trkpt>
      <trkpt lat="44.94586" lon="5.71797">
        <ele>720.16</ele>
        <time>2013-04-25T07:04:23Z</time>
      </trkpt>
      <trkpt lat="44.9458" lon="5.71801">
        <ele>719.2</ele>
        <time>2013-04-25T07:04:46Z</time>
      </trkpt>
      <trkpt lat="44.94572" lon="5.71808">
        <ele>718.72</ele>
        <time>2013-04-25T07:04:54Z</time>
      </trkpt>
      <trkpt lat="44.94554" lon="5.71822">
        <ele>718.72</ele>
        <time>2013-04-25T07:05:12Z</time>
      </trkpt>
      <trkpt lat="44.94533" lon="5.71817">
        <ele>719.2</ele>
        <time>2013-04-25T07:05:35Z</time>
      </trkpt>
      <trkpt lat="44.94525" lon="5.71794">
        <ele>720.16</ele>
        <time>2013-04-25T07:05:51Z</time>
      </trkpt>
      <trkpt lat="44.94524" lon="5.71782">
        <ele>720.16</ele>
        <time>2013-04-25T07:06:00Z</time>
      </trkpt>
      <trkpt lat="44.94529" lon="5.71763">
        <ele>721.13</ele>
        <time>2013-04-25T07:06:14Z</time>
      </trkpt>
      <trkpt lat="44.94538" lon="5.71753">
        <ele>721.13</ele>
        <time>2013-04-25T07:06:21Z</time>
      </trkpt>
      <trkpt lat="44.9454" lon="5.7175">
        <ele>721.13</ele>
        <time>2013-04-25T07:06:24Z</time>
      </trkpt>
      <trkpt lat="44.94547" lon="5.71736">
        <ele>721.61</ele>
        <time>2013-04-25T07:06:34Z</time>
      </trkpt>
      <trkpt lat="44.94555" lon="5.71722">
        <ele>721.61</ele>
        <time>2013-04-25T07:06:46Z</time>
      </trkpt>
      <trkpt lat="44.94559" lon="5.71714">
        <ele>722.57</ele>
        <time>2013-04-25T07:06:52Z</time>
      </trkpt>
      <trkpt lat="44.9456" lon="5.71708">
        <ele>723.05</ele>
        <time>2013-04-25T07:06:56Z</time>
      </trkpt>
      <trkpt lat="44.94571" lon="5.71691">
        <ele>724.01</ele>
        <time>2013-04-25T07:07:13Z</time>
      </trkpt>
      <trkpt lat="44.94578" lon="5.71679">
        <ele>724.49</ele>
        <time>2013-04-25T07:07:33Z</time>
      </trkpt>
      <trkpt lat="44.94579" lon="5.71676">
        <ele>726.41</ele>
        <time>2013-04-25T07:07:46Z</time>
      </trkpt>
      <trkpt lat="44.94575" lon="5.71668">
        <ele>728.82</ele>
        <time>2013-04-25T07:08:02Z</time>
      </trkpt>
      <trkpt lat="44.94573" lon="5.71674">
        <ele>730.74</ele>
        <time>2013-04-25T07:08:18Z</time>
      </trkpt>
      <trkpt lat="44.9456" lon="5.71677">
        <ele>731.7</ele>
        <time>2013-04-25T07:08:28Z</time>
      </trkpt>
      <trkpt lat="44.94546" lon="5.71683">
        <ele>733.14</ele>
        <time>2013-04-25T07:08:45Z</time>
      </trkpt>
      <trkpt lat="44.94545" lon="5.71684">
        <ele>733.62</ele>
        <time>2013-04-25T07:08:48Z</time>
      </trkpt>
      <trkpt lat="44.94542" lon="5.71684">
        <ele>734.1</ele>
        <time>2013-04-25T07:08:50Z</time>
      </trkpt>
      <trkpt lat="44.94537" lon="5.71686">
        <ele>734.1</ele>
        <time>2013-04-25T07:08:55Z</time>
      </trkpt>
      <trkpt lat="44.94528" lon="5.71686">
        <ele>736.99</ele>
        <time>2013-04-25T07:09:06Z</time>
      </trkpt>
      <trkpt lat="44.94522" lon="5.71691">
        <ele>738.43</ele>
        <time>2013-04-25T07:09:19Z</time>
      </trkpt>
      <trkpt lat="44.94518" lon="5.71695">
        <ele>740.35</ele>
        <time>2013-04-25T07:09:33Z</time>
      </trkpt>
      <trkpt lat="44.94511" lon="5.71703">
        <ele>743.24</ele>
        <time>2013-04-25T07:09:50Z</time>
      </trkpt>
      <trkpt lat="44.9451" lon="5.71703">
        <ele>743.72</ele>
        <time>2013-04-25T07:09:51Z</time>
      </trkpt>
      <trkpt lat="44.94502" lon="5.71704">
        <ele>745.64</ele>
        <time>2013-04-25T07:10:02Z</time>
      </trkpt>
      <trkpt lat="44.94498" lon="5.71705">
        <ele>746.6</ele>
        <time>2013-04-25T07:10:06Z</time>
      </trkpt>
      <trkpt lat="44.94494" lon="5.7171">
        <ele>747.56</ele>
        <time>2013-04-25T07:10:23Z</time>
      </trkpt>
      <trkpt lat="44.9449" lon="5.71712">
        <ele>748.52</ele>
        <time>2013-04-25T07:10:31Z</time>
      </trkpt>
      <trkpt lat="44.94489" lon="5.71712">
        <ele>748.52</ele>
        <time>2013-04-25T07:10:33Z</time>
      </trkpt>
      <trkpt lat="44.94481" lon="5.71716">
        <ele>749.49</ele>
        <time>2013-04-25T07:10:47Z</time>
      </trkpt>
      <trkpt lat="44.9448" lon="5.71716">
        <ele>750.45</ele>
        <time>2013-04-25T07:10:51Z</time>
      </trkpt>
      <trkpt lat="44.94474" lon="5.71722">
        <ele>751.41</ele>
        <time>2013-04-25T07:11:02Z</time>
      </trkpt>
      <trkpt lat="44.9447" lon="5.71725">
        <ele>752.85</ele>
        <time>2013-04-25T07:11:17Z</time>
      </trkpt>
      <trkpt lat="44.9446" lon="5.71737">
        <ele>755.25</ele>
        <time>2013-04-25T07:11:34Z</time>
      </trkpt>
      <trkpt lat="44.94451" lon="5.71748">
        <ele>757.18</ele>
        <time>2013-04-25T07:11:49Z</time>
      </trkpt>
      <trkpt lat="44.94437" lon="5.71755">
        <ele>759.58</ele>
        <time>2013-04-25T07:12:09Z</time>
      </trkpt>
      <trkpt lat="44.94433" lon="5.7175">
        <ele>762.46</ele>
        <time>2013-04-25T07:12:29Z</time>
      </trkpt>
      <trkpt lat="44.94436" lon="5.71733">
        <ele>764.39</ele>
        <time>2013-04-25T07:12:48Z</time>
      </trkpt>
      <trkpt lat="44.94435" lon="5.71719">
        <ele>766.31</ele>
        <time>2013-04-25T07:13:04Z</time>
      </trkpt>
      <trkpt lat="44.94433" lon="5.71697">
        <ele>768.23</ele>
        <time>2013-04-25T07:13:22Z</time>
      </trkpt>
      <trkpt lat="44.94436" lon="5.71685">
        <ele>770.63</ele>
        <time>2013-04-25T07:13:39Z</time>
      </trkpt>
      <trkpt lat="44.94434" lon="5.71679">
        <ele>771.6</ele>
        <time>2013-04-25T07:13:45Z</time>
      </trkpt>
      <trkpt lat="44.94426" lon="5.71665">
        <ele>772.08</ele>
        <time>2013-04-25T07:13:57Z</time>
      </trkpt>
      <trkpt lat="44.94424" lon="5.71655">
        <ele>773.52</ele>
        <time>2013-04-25T07:14:10Z</time>
      </trkpt>
      <trkpt lat="44.94425" lon="5.71641">
        <ele>774.96</ele>
        <time>2013-04-25T07:14:27Z</time>
      </trkpt>
      <trkpt lat="44.94424" lon="5.71632">
        <ele>776.88</ele>
        <time>2013-04-25T07:14:41Z</time>
      </trkpt>
      <trkpt lat="44.94421" lon="5.71618">
        <ele>779.29</ele>
        <time>2013-04-25T07:14:56Z</time>
      </trkpt>
      <trkpt lat="44.94419" lon="5.71608">
        <ele>782.17</ele>
        <time>2013-04-25T07:15:12Z</time>
      </trkpt>
      <trkpt lat="44.94418" lon="5.71608">
        <ele>782.17</ele>
        <time>2013-04-25T07:15:13Z</time>
      </trkpt>
      <trkpt lat="44.94417" lon="5.71598">
        <ele>783.13</ele>
        <time>2013-04-25T07:15:27Z</time>
      </trkpt>
      <trkpt lat="44.94415" lon="5.71587">
        <ele>786.5</ele>
        <time>2013-04-25T07:15:44Z</time>
      </trkpt>
      <trkpt lat="44.94413" lon="5.71582">
        <ele>786.02</ele>
        <time>2013-04-25T07:15:57Z</time>
      </trkpt>
      <trkpt lat="44.94406" lon="5.71581">
        <ele>786.98</ele>
        <time>2013-04-25T07:16:19Z</time>
      </trkpt>
      <trkpt lat="44.94406" lon="5.71582">
        <ele>787.94</ele>
        <time>2013-04-25T07:16:41Z</time>
      </trkpt>
      <trkpt lat="44.94397" lon="5.71588">
        <ele>789.86</ele>
        <time>2013-04-25T07:16:59Z</time>
      </trkpt>
      <trkpt lat="44.94385" lon="5.71599">
        <ele>791.78</ele>
        <time>2013-04-25T07:17:18Z</time>
      </trkpt>
      <trkpt lat="44.94375" lon="5.71602">
        <ele>794.67</ele>
        <time>2013-04-25T07:17:35Z</time>
      </trkpt>
      <trkpt lat="44.94368" lon="5.71601">
        <ele>795.15</ele>
        <time>2013-04-25T07:17:54Z</time>
      </trkpt>
      <trkpt lat="44.94353" lon="5.71603">
        <ele>797.55</ele>
        <time>2013-04-25T07:18:14Z</time>
      </trkpt>
      <trkpt lat="44.94346" lon="5.71606">
        <ele>799.95</ele>
        <time>2013-04-25T07:18:32Z</time>
      </trkpt>
      <trkpt lat="44.94346" lon="5.71598">
        <ele>802.84</ele>
        <time>2013-04-25T07:18:46Z</time>
      </trkpt>
      <trkpt lat="44.94343" lon="5.7159">
        <ele>804.28</ele>
        <time>2013-04-25T07:19:01Z</time>
      </trkpt>
      <trkpt lat="44.94341" lon="5.71579">
        <ele>807.16</ele>
        <time>2013-04-25T07:19:16Z</time>
      </trkpt>
      <trkpt lat="44.94342" lon="5.71567">
        <ele>810.05</ele>
        <time>2013-04-25T07:19:29Z</time>
      </trkpt>
      <trkpt lat="44.94337" lon="5.71551">
        <ele>811.97</ele>
        <time>2013-04-25T07:19:47Z</time>
      </trkpt>
      <trkpt lat="44.94331" lon="5.71537">
        <ele>814.85</ele>
        <time>2013-04-25T07:20:07Z</time>
      </trkpt>
      <trkpt lat="44.94326" lon="5.71522">
        <ele>817.74</ele>
        <time>2013-04-25T07:20:26Z</time>
      </trkpt>
      <trkpt lat="44.94322" lon="5.71505">
        <ele>820.14</ele>
        <time>2013-04-25T07:20:47Z</time>
      </trkpt>
      <trkpt lat="44.94315" lon="5.71487">
        <ele>822.55</ele>
        <time>2013-04-25T07:21:06Z</time>
      </trkpt>
      <trkpt lat="44.94308" lon="5.7148">
        <ele>823.99</ele>
        <time>2013-04-25T07:21:25Z</time>
      </trkpt>
      <trkpt lat="44.943" lon="5.71474">
        <ele>825.91</ele>
        <time>2013-04-25T07:21:41Z</time>
      </trkpt>
      <trkpt lat="44.94291" lon="5.71474">
        <ele>827.35</ele>
        <time>2013-04-25T07:21:51Z</time>
      </trkpt>
      <trkpt lat="44.94278" lon="5.71475">
        <ele>829.27</ele>
        <time>2013-04-25T07:22:08Z</time>
      </trkpt>
      <trkpt lat="44.94267" lon="5.71479">
        <ele>830.72</ele>
        <time>2013-04-25T07:22:20Z</time>
      </trkpt>
      <trkpt lat="44.9426" lon="5.71485">
        <ele>832.64</ele>
        <time>2013-04-25T07:22:36Z</time>
      </trkpt>
      <trkpt lat="44.94251" lon="5.71496">
        <ele>835.52</ele>
        <time>2013-04-25T07:22:55Z</time>
      </trkpt>
      <trkpt lat="44.94242" lon="5.71503">
        <ele>837.93</ele>
        <time>2013-04-25T07:23:11Z</time>
      </trkpt>
      <trkpt lat="44.94233" lon="5.71514">
        <ele>839.37</ele>
        <time>2013-04-25T07:23:28Z</time>
      </trkpt>
      <trkpt lat="44.94229" lon="5.71527">
        <ele>841.29</ele>
        <time>2013-04-25T07:23:43Z</time>
      </trkpt>
      <trkpt lat="44.94224" lon="5.71533">
        <ele>843.69</ele>
        <time>2013-04-25T07:23:59Z</time>
      </trkpt>
      <trkpt lat="44.94215" lon="5.71539">
        <ele>846.1</ele>
        <time>2013-04-25T07:24:14Z</time>
      </trkpt>
      <trkpt lat="44.94208" lon="5.71544">
        <ele>848.98</ele>
        <time>2013-04-25T07:24:30Z</time>
      </trkpt>
      <trkpt lat="44.94196" lon="5.71549">
        <ele>851.38</ele>
        <time>2013-04-25T07:24:49Z</time>
      </trkpt>
      <trkpt lat="44.94189" lon="5.71557">
        <ele>854.27</ele>
        <time>2013-04-25T07:25:04Z</time>
      </trkpt>
      <trkpt lat="44.94184" lon="5.71566">
        <ele>856.19</ele>
        <time>2013-04-25T07:25:18Z</time>
      </trkpt>
      <trkpt lat="44.94176" lon="5.71575">
        <ele>859.08</ele>
        <time>2013-04-25T07:25:36Z</time>
      </trkpt>
      <trkpt lat="44.94168" lon="5.71592">
        <ele>860.52</ele>
        <time>2013-04-25T07:25:58Z</time>
      </trkpt>
      <trkpt lat="44.94172" lon="5.71599">
        <ele>860.52</ele>
        <time>2013-04-25T07:26:48Z</time>
      </trkpt>
      <trkpt lat="44.94167" lon="5.71598">
        <ele>860.52</ele>
        <time>2013-04-25T07:27:36Z</time>
      </trkpt>
      <trkpt lat="44.94168" lon="5.71598">
        <ele>859.56</ele>
        <time>2013-04-25T07:28:22Z</time>
      </trkpt>
      <trkpt lat="44.94167" lon="5.71592">
        <ele>860.04</ele>
        <time>2013-04-25T07:28:59Z</time>
      </trkpt>
      <trkpt lat="44.94174" lon="5.71597">
        <ele>860.04</ele>
        <time>2013-04-25T07:29:40Z</time>
      </trkpt>
      <trkpt lat="44.94181" lon="5.71601">
        <ele>860.04</ele>
        <time>2013-04-25T07:30:22Z</time>
      </trkpt>
      <trkpt lat="44.94183" lon="5.71604">
        <ele>860.04</ele>
        <time>2013-04-25T07:31:21Z</time>
      </trkpt>
      <trkpt lat="44.94168" lon="5.71594">
        <ele>859.08</ele>
        <time>2013-04-25T07:32:18Z</time>
      </trkpt>
      <trkpt lat="44.94166" lon="5.71592">
        <ele>858.59</ele>
        <time>2013-04-25T07:32:50Z</time>
      </trkpt>
      <trkpt lat="44.94165" lon="5.71595">
        <ele>859.08</ele>
        <time>2013-04-25T07:33:21Z</time>
      </trkpt>
      <trkpt lat="44.9416" lon="5.71582">
        <ele>861</ele>
        <time>2013-04-25T07:33:39Z</time>
      </trkpt>
      <trkpt lat="44.94156" lon="5.71574">
        <ele>861</ele>
        <time>2013-04-25T07:34:00Z</time>
      </trkpt>
      <trkpt lat="44.9415" lon="5.71578">
        <ele>862.92</ele>
        <time>2013-04-25T07:34:16Z</time>
      </trkpt>
      <trkpt lat="44.94145" lon="5.7157">
        <ele>865.8</ele>
        <time>2013-04-25T07:34:32Z</time>
      </trkpt>
      <trkpt lat="44.94139" lon="5.7156">
        <ele>867.73</ele>
        <time>2013-04-25T07:34:48Z</time>
      </trkpt>
      <trkpt lat="44.9413" lon="5.71556">
        <ele>871.09</ele>
        <time>2013-04-25T07:35:03Z</time>
      </trkpt>
      <trkpt lat="44.94122" lon="5.7155">
        <ele>873.98</ele>
        <time>2013-04-25T07:35:19Z</time>
      </trkpt>
      <trkpt lat="44.94119" lon="5.71544">
        <ele>876.86</ele>
        <time>2013-04-25T07:35:31Z</time>
      </trkpt>
      <trkpt lat="44.94119" lon="5.71537">
        <ele>877.34</ele>
        <time>2013-04-25T07:35:52Z</time>
      </trkpt>
      <trkpt lat="44.9411" lon="5.71535">
        <ele>879.74</ele>
        <time>2013-04-25T07:36:11Z</time>
      </trkpt>
      <trkpt lat="44.94103" lon="5.71531">
        <ele>882.15</ele>
        <time>2013-04-25T07:36:33Z</time>
      </trkpt>
      <trkpt lat="44.94101" lon="5.71525">
        <ele>884.07</ele>
        <time>2013-04-25T07:36:51Z</time>
      </trkpt>
      <trkpt lat="44.941" lon="5.71525">
        <ele>884.07</ele>
        <time>2013-04-25T07:36:54Z</time>
      </trkpt>
      <trkpt lat="44.94094" lon="5.7152">
        <ele>886.95</ele>
        <time>2013-04-25T07:37:12Z</time>
      </trkpt>
      <trkpt lat="44.94092" lon="5.71516">
        <ele>886.95</ele>
        <time>2013-04-25T07:37:17Z</time>
      </trkpt>
      <trkpt lat="44.94087" lon="5.71506">
        <ele>890.32</ele>
        <time>2013-04-25T07:37:34Z</time>
      </trkpt>
      <trkpt lat="44.94083" lon="5.71494">
        <ele>893.2</ele>
        <time>2013-04-25T07:37:50Z</time>
      </trkpt>
      <trkpt lat="44.94081" lon="5.71486">
        <ele>894.16</ele>
        <time>2013-04-25T07:38:10Z</time>
      </trkpt>
      <trkpt lat="44.94072" lon="5.71473">
        <ele>896.09</ele>
        <time>2013-04-25T07:38:28Z</time>
      </trkpt>
      <trkpt lat="44.94068" lon="5.71463">
        <ele>898.49</ele>
        <time>2013-04-25T07:38:45Z</time>
      </trkpt>
      <trkpt lat="44.94065" lon="5.71453">
        <ele>899.45</ele>
        <time>2013-04-25T07:39:03Z</time>
      </trkpt>
      <trkpt lat="44.94061" lon="5.7144">
        <ele>901.85</ele>
        <time>2013-04-25T07:39:19Z</time>
      </trkpt>
      <trkpt lat="44.94059" lon="5.71437">
        <ele>903.78</ele>
        <time>2013-04-25T07:39:26Z</time>
      </trkpt>
      <trkpt lat="44.94057" lon="5.71425">
        <ele>905.7</ele>
        <time>2013-04-25T07:39:43Z</time>
      </trkpt>
      <trkpt lat="44.94052" lon="5.71412">
        <ele>908.1</ele>
        <time>2013-04-25T07:39:58Z</time>
      </trkpt>
      <trkpt lat="44.94052" lon="5.71397">
        <ele>910.03</ele>
        <time>2013-04-25T07:40:15Z</time>
      </trkpt>
      <trkpt lat="44.94052" lon="5.71384">
        <ele>913.39</ele>
        <time>2013-04-25T07:40:31Z</time>
      </trkpt>
      <trkpt lat="44.94048" lon="5.7137">
        <ele>913.87</ele>
        <time>2013-04-25T07:40:47Z</time>
      </trkpt>
      <trkpt lat="44.94046" lon="5.71359">
        <ele>916.75</ele>
        <time>2013-04-25T07:41:05Z</time>
      </trkpt>
      <trkpt lat="44.94043" lon="5.71345">
        <ele>920.12</ele>
        <time>2013-04-25T07:41:23Z</time>
      </trkpt>
      <trkpt lat="44.94047" lon="5.71332">
        <ele>920.6</ele>
        <time>2013-04-25T07:41:37Z</time>
      </trkpt>
      <trkpt lat="44.94044" lon="5.71324">
        <ele>922.04</ele>
        <time>2013-04-25T07:41:53Z</time>
      </trkpt>
      <trkpt lat="44.94045" lon="5.71312">
        <ele>923.96</ele>
        <time>2013-04-25T07:42:08Z</time>
      </trkpt>
      <trkpt lat="44.94041" lon="5.71306">
        <ele>926.85</ele>
        <time>2013-04-25T07:42:28Z</time>
      </trkpt>
      <trkpt lat="44.94036" lon="5.71314">
        <ele>928.29</ele>
        <time>2013-04-25T07:42:57Z</time>
      </trkpt>
      <trkpt lat="44.9403" lon="5.71317">
        <ele>930.21</ele>
        <time>2013-04-25T07:43:13Z</time>
      </trkpt>
      <trkpt lat="44.94023" lon="5.71316">
        <ele>930.69</ele>
        <time>2013-04-25T07:43:36Z</time>
      </trkpt>
      <trkpt lat="44.94022" lon="5.71304">
        <ele>934.54</ele>
        <time>2013-04-25T07:43:53Z</time>
      </trkpt>
      <trkpt lat="44.94022" lon="5.71288">
        <ele>936.46</ele>
        <time>2013-04-25T07:44:11Z</time>
      </trkpt>
      <trkpt lat="44.94023" lon="5.71279">
        <ele>938.86</ele>
        <time>2013-04-25T07:44:28Z</time>
      </trkpt>
      <trkpt lat="44.94026" lon="5.71265">
        <ele>940.79</ele>
        <time>2013-04-25T07:44:47Z</time>
      </trkpt>
      <trkpt lat="44.94027" lon="5.71256">
        <ele>942.71</ele>
        <time>2013-04-25T07:45:05Z</time>
      </trkpt>
      <trkpt lat="44.94027" lon="5.71245">
        <ele>944.15</ele>
        <time>2013-04-25T07:45:23Z</time>
      </trkpt>
      <trkpt lat="44.94031" lon="5.7124">
        <ele>943.67</ele>
        <time>2013-04-25T07:45:45Z</time>
      </trkpt>
      <trkpt lat="44.94038" lon="5.71246">
        <ele>944.15</ele>
        <time>2013-04-25T07:46:11Z</time>
      </trkpt>
      <trkpt lat="44.94037" lon="5.7124">
        <ele>942.71</ele>
        <time>2013-04-25T07:46:26Z</time>
      </trkpt>
      <trkpt lat="44.94055" lon="5.71222">
        <ele>941.27</ele>
        <time>2013-04-25T07:46:45Z</time>
      </trkpt>
      <trkpt lat="44.9407" lon="5.7121">
        <ele>938.38</ele>
        <time>2013-04-25T07:47:03Z</time>
      </trkpt>
      <trkpt lat="44.94081" lon="5.71199">
        <ele>937.42</ele>
        <time>2013-04-25T07:47:21Z</time>
      </trkpt>
      <trkpt lat="44.94094" lon="5.71194">
        <ele>936.46</ele>
        <time>2013-04-25T07:47:36Z</time>
      </trkpt>
      <trkpt lat="44.94094" lon="5.71193">
        <ele>935.98</ele>
        <time>2013-04-25T07:47:37Z</time>
      </trkpt>
      <trkpt lat="44.94104" lon="5.71176">
        <ele>934.06</ele>
        <time>2013-04-25T07:47:52Z</time>
      </trkpt>
      <trkpt lat="44.94114" lon="5.71166">
        <ele>935.02</ele>
        <time>2013-04-25T07:48:07Z</time>
      </trkpt>
      <trkpt lat="44.94116" lon="5.71149">
        <ele>935.98</ele>
        <time>2013-04-25T07:48:24Z</time>
      </trkpt>
      <trkpt lat="44.94125" lon="5.71136">
        <ele>936.46</ele>
        <time>2013-04-25T07:48:39Z</time>
      </trkpt>
      <trkpt lat="44.94126" lon="5.71135">
        <ele>935.98</ele>
        <time>2013-04-25T07:48:40Z</time>
      </trkpt>
      <trkpt lat="44.94133" lon="5.71125">
        <ele>937.9</ele>
        <time>2013-04-25T07:48:58Z</time>
      </trkpt>
      <trkpt lat="44.94136" lon="5.71115">
        <ele>940.31</ele>
        <time>2013-04-25T07:49:15Z</time>
      </trkpt>
      <trkpt lat="44.94141" lon="5.71103">
        <ele>942.23</ele>
        <time>2013-04-25T07:49:32Z</time>
      </trkpt>
      <trkpt lat="44.94138" lon="5.71094">
        <ele>944.15</ele>
        <time>2013-04-25T07:49:51Z</time>
      </trkpt>
      <trkpt lat="44.94133" lon="5.71076">
        <ele>946.07</ele>
        <time>2013-04-25T07:50:10Z</time>
      </trkpt>
      <trkpt lat="44.94128" lon="5.71067">
        <ele>948.48</ele>
        <time>2013-04-25T07:50:28Z</time>
      </trkpt>
      <trkpt lat="44.94123" lon="5.71066">
        <ele>951.84</ele>
        <time>2013-04-25T07:50:41Z</time>
      </trkpt>
      <trkpt lat="44.9412" lon="5.71059">
        <ele>953.28</ele>
        <time>2013-04-25T07:50:59Z</time>
      </trkpt>
      <trkpt lat="44.94124" lon="5.71038">
        <ele>955.21</ele>
        <time>2013-04-25T07:51:16Z</time>
      </trkpt>
      <trkpt lat="44.9413" lon="5.71029">
        <ele>956.65</ele>
        <time>2013-04-25T07:51:34Z</time>
      </trkpt>
      <trkpt lat="44.94139" lon="5.7102">
        <ele>959.53</ele>
        <time>2013-04-25T07:51:51Z</time>
      </trkpt>
      <trkpt lat="44.94141" lon="5.7101">
        <ele>962.42</ele>
        <time>2013-04-25T07:52:06Z</time>
      </trkpt>
      <trkpt lat="44.9415" lon="5.71004">
        <ele>964.82</ele>
        <time>2013-04-25T07:52:22Z</time>
      </trkpt>
      <trkpt lat="44.94156" lon="5.70996">
        <ele>967.22</ele>
        <time>2013-04-25T07:52:35Z</time>
      </trkpt>
      <trkpt lat="44.9416" lon="5.70986">
        <ele>969.63</ele>
        <time>2013-04-25T07:52:51Z</time>
      </trkpt>
      <trkpt lat="44.94164" lon="5.70977">
        <ele>972.51</ele>
        <time>2013-04-25T07:53:08Z</time>
      </trkpt>
      <trkpt lat="44.94171" lon="5.70973">
        <ele>975.39</ele>
        <time>2013-04-25T07:53:23Z</time>
      </trkpt>
      <trkpt lat="44.94171" lon="5.70972">
        <ele>975.39</ele>
        <time>2013-04-25T07:53:24Z</time>
      </trkpt>
      <trkpt lat="44.9418" lon="5.70964">
        <ele>977.8</ele>
        <time>2013-04-25T07:53:41Z</time>
      </trkpt>
      <trkpt lat="44.94182" lon="5.70956">
        <ele>980.2</ele>
        <time>2013-04-25T07:54:01Z</time>
      </trkpt>
      <trkpt lat="44.94185" lon="5.7095">
        <ele>982.6</ele>
        <time>2013-04-25T07:54:23Z</time>
      </trkpt>
      <trkpt lat="44.94186" lon="5.70943">
        <ele>985.97</ele>
        <time>2013-04-25T07:54:40Z</time>
      </trkpt>
      <trkpt lat="44.94186" lon="5.70938">
        <ele>986.45</ele>
        <time>2013-04-25T07:54:47Z</time>
      </trkpt>
      <trkpt lat="44.94191" lon="5.70928">
        <ele>987.89</ele>
        <time>2013-04-25T07:55:03Z</time>
      </trkpt>
      <trkpt lat="44.94189" lon="5.70921">
        <ele>989.33</ele>
        <time>2013-04-25T07:55:14Z</time>
      </trkpt>
      <trkpt lat="44.94186" lon="5.70914">
        <ele>991.26</ele>
        <time>2013-04-25T07:55:27Z</time>
      </trkpt>
      <trkpt lat="44.94189" lon="5.70906">
        <ele>994.14</ele>
        <time>2013-04-25T07:55:40Z</time>
      </trkpt>
      <trkpt lat="44.94189" lon="5.70905">
        <ele>995.1</ele>
        <time>2013-04-25T07:55:43Z</time>
      </trkpt>
      <trkpt lat="44.94191" lon="5.70901">
        <ele>997.51</ele>
        <time>2013-04-25T07:55:58Z</time>
      </trkpt>
      <trkpt lat="44.94191" lon="5.70897">
        <ele>998.95</ele>
        <time>2013-04-25T07:56:04Z</time>
      </trkpt>
      <trkpt lat="44.9419" lon="5.70889">
        <ele>1001.35</ele>
        <time>2013-04-25T07:56:18Z</time>
      </trkpt>
      <trkpt lat="44.94191" lon="5.7088">
        <ele>1004.23</ele>
        <time>2013-04-25T07:56:34Z</time>
      </trkpt>
      <trkpt lat="44.94198" lon="5.70862">
        <ele>1006.16</ele>
        <time>2013-04-25T07:56:53Z</time>
      </trkpt>
      <trkpt lat="44.942" lon="5.70847">
        <ele>1007.6</ele>
        <time>2013-04-25T07:57:08Z</time>
      </trkpt>
      <trkpt lat="44.94204" lon="5.70838">
        <ele>1009.52</ele>
        <time>2013-04-25T07:57:25Z</time>
      </trkpt>
      <trkpt lat="44.94209" lon="5.70829">
        <ele>1010.48</ele>
        <time>2013-04-25T07:57:46Z</time>
      </trkpt>
      <trkpt lat="44.94212" lon="5.7083">
        <ele>1010.96</ele>
        <time>2013-04-25T07:58:08Z</time>
      </trkpt>
      <trkpt lat="44.94213" lon="5.70829">
        <ele>1011.44</ele>
        <time>2013-04-25T07:58:28Z</time>
      </trkpt>
      <trkpt lat="44.94219" lon="5.70821">
        <ele>1013.37</ele>
        <time>2013-04-25T07:58:51Z</time>
      </trkpt>
      <trkpt lat="44.94225" lon="5.70809">
        <ele>1013.37</ele>
        <time>2013-04-25T07:59:12Z</time>
      </trkpt>
      <trkpt lat="44.94226" lon="5.70803">
        <ele>1014.81</ele>
        <time>2013-04-25T07:59:28Z</time>
      </trkpt>
      <trkpt lat="44.94229" lon="5.70792">
        <ele>1015.77</ele>
        <time>2013-04-25T07:59:44Z</time>
      </trkpt>
      <trkpt lat="44.94233" lon="5.70783">
        <ele>1017.21</ele>
        <time>2013-04-25T07:59:59Z</time>
      </trkpt>
      <trkpt lat="44.94236" lon="5.70777">
        <ele>1015.29</ele>
        <time>2013-04-25T08:00:18Z</time>
      </trkpt>
      <trkpt lat="44.94242" lon="5.70774">
        <ele>1013.37</ele>
        <time>2013-04-25T08:00:37Z</time>
      </trkpt>
      <trkpt lat="44.94249" lon="5.7078">
        <ele>1013.37</ele>
        <time>2013-04-25T08:01:01Z</time>
      </trkpt>
      <trkpt lat="44.94258" lon="5.70779">
        <ele>1013.37</ele>
        <time>2013-04-25T08:01:23Z</time>
      </trkpt>
      <trkpt lat="44.94257" lon="5.70777">
        <ele>1013.37</ele>
        <time>2013-04-25T08:01:53Z</time>
      </trkpt>
      <trkpt lat="44.94256" lon="5.70771">
        <ele>1012.89</ele>
        <time>2013-04-25T08:02:22Z</time>
      </trkpt>
      <trkpt lat="44.94259" lon="5.70772">
        <ele>1011.93</ele>
        <time>2013-04-25T08:02:48Z</time>
      </trkpt>
      <trkpt lat="44.94261" lon="5.70772">
        <ele>1012.89</ele>
        <time>2013-04-25T08:03:10Z</time>
      </trkpt>
      <trkpt lat="44.94268" lon="5.70766">
        <ele>1012.41</ele>
        <time>2013-04-25T08:03:32Z</time>
      </trkpt>
      <trkpt lat="44.9427" lon="5.70758">
        <ele>1013.85</ele>
        <time>2013-04-25T08:03:51Z</time>
      </trkpt>
      <trkpt lat="44.94278" lon="5.70747">
        <ele>1015.29</ele>
        <time>2013-04-25T08:04:13Z</time>
      </trkpt>
      <trkpt lat="44.9428" lon="5.70742">
        <ele>1014.33</ele>
        <time>2013-04-25T08:04:39Z</time>
      </trkpt>
      <trkpt lat="44.94286" lon="5.70738">
        <ele>1013.37</ele>
        <time>2013-04-25T08:05:02Z</time>
      </trkpt>
      <trkpt lat="44.94291" lon="5.70732">
        <ele>1012.41</ele>
        <time>2013-04-25T08:05:31Z</time>
      </trkpt>
      <trkpt lat="44.94295" lon="5.70725">
        <ele>1012.89</ele>
        <time>2013-04-25T08:05:51Z</time>
      </trkpt>
      <trkpt lat="44.94304" lon="5.70714">
        <ele>1013.37</ele>
        <time>2013-04-25T08:06:11Z</time>
      </trkpt>
      <trkpt lat="44.94308" lon="5.70708">
        <ele>1013.37</ele>
        <time>2013-04-25T08:06:36Z</time>
      </trkpt>
      <trkpt lat="44.94313" lon="5.70697">
        <ele>1015.29</ele>
        <time>2013-04-25T08:06:58Z</time>
      </trkpt>
      <trkpt lat="44.94315" lon="5.70687">
        <ele>1016.73</ele>
        <time>2013-04-25T08:07:18Z</time>
      </trkpt>
      <trkpt lat="44.94321" lon="5.70677">
        <ele>1019.62</ele>
        <time>2013-04-25T08:07:38Z</time>
      </trkpt>
      <trkpt lat="44.94316" lon="5.70674">
        <ele>1022.5</ele>
        <time>2013-04-25T08:07:54Z</time>
      </trkpt>
      <trkpt lat="44.94312" lon="5.70671">
        <ele>1024.42</ele>
        <time>2013-04-25T08:08:11Z</time>
      </trkpt>
      <trkpt lat="44.94308" lon="5.70672">
        <ele>1026.34</ele>
        <time>2013-04-25T08:08:26Z</time>
      </trkpt>
      <trkpt lat="44.94307" lon="5.70669">
        <ele>1025.86</ele>
        <time>2013-04-25T08:08:52Z</time>
      </trkpt>
      <trkpt lat="44.94308" lon="5.70668">
        <ele>1028.27</ele>
        <time>2013-04-25T08:09:15Z</time>
      </trkpt>
      <trkpt lat="44.94308" lon="5.70661">
        <ele>1029.23</ele>
        <time>2013-04-25T08:09:34Z</time>
      </trkpt>
      <trkpt lat="44.94308" lon="5.70665">
        <ele>1030.19</ele>
        <time>2013-04-25T08:10:00Z</time>
      </trkpt>
      <trkpt lat="44.94306" lon="5.70669">
        <ele>1029.71</ele>
        <time>2013-04-25T08:10:29Z</time>
      </trkpt>
      <trkpt lat="44.94306" lon="5.70666">
        <ele>1030.19</ele>
        <time>2013-04-25T08:10:49Z</time>
      </trkpt>
      <trkpt lat="44.94305" lon="5.70667">
        <ele>1030.67</ele>
        <time>2013-04-25T08:11:23Z</time>
      </trkpt>
      <trkpt lat="44.94304" lon="5.70667">
        <ele>1030.19</ele>
        <time>2013-04-25T08:11:39Z</time>
      </trkpt>
      <trkpt lat="44.94303" lon="5.70666">
        <ele>1030.19</ele>
        <time>2013-04-25T08:12:13Z</time>
      </trkpt>
      <trkpt lat="44.94301" lon="5.70666">
        <ele>1030.67</ele>
        <time>2013-04-25T08:12:40Z</time>
      </trkpt>
      <trkpt lat="44.94305" lon="5.70664">
        <ele>1030.19</ele>
        <time>2013-04-25T08:13:02Z</time>
      </trkpt>
      <trkpt lat="44.94307" lon="5.70663">
        <ele>1029.71</ele>
        <time>2013-04-25T08:13:26Z</time>
      </trkpt>
      <trkpt lat="44.94305" lon="5.70664">
        <ele>1029.71</ele>
        <time>2013-04-25T08:13:57Z</time>
      </trkpt>
      <trkpt lat="44.94305" lon="5.70661">
        <ele>1029.71</ele>
        <time>2013-04-25T08:14:23Z</time>
      </trkpt>
      <trkpt lat="44.94306" lon="5.70666">
        <ele>1029.23</ele>
        <time>2013-04-25T08:14:53Z</time>
      </trkpt>
      <trkpt lat="44.94306" lon="5.70667">
        <ele>1027.79</ele>
        <time>2013-04-25T08:15:13Z</time>
      </trkpt>
      <trkpt lat="44.94304" lon="5.70668">
        <ele>1027.79</ele>
        <time>2013-04-25T08:15:39Z</time>
      </trkpt>
      <trkpt lat="44.94303" lon="5.70673">
        <ele>1023.94</ele>
        <time>2013-04-25T08:15:53Z</time>
      </trkpt>
      <trkpt lat="44.94303" lon="5.7068">
        <ele>1023.46</ele>
        <time>2013-04-25T08:16:19Z</time>
      </trkpt>
      <trkpt lat="44.94299" lon="5.7068">
        <ele>1026.34</ele>
        <time>2013-04-25T08:16:41Z</time>
      </trkpt>
      <trkpt lat="44.94301" lon="5.70672">
        <ele>1028.27</ele>
        <time>2013-04-25T08:17:03Z</time>
      </trkpt>
      <trkpt lat="44.94295" lon="5.70675">
        <ele>1030.67</ele>
        <time>2013-04-25T08:17:19Z</time>
      </trkpt>
      <trkpt lat="44.94287" lon="5.7068">
        <ele>1031.63</ele>
        <time>2013-04-25T08:17:37Z</time>
      </trkpt>
      <trkpt lat="44.94281" lon="5.70685">
        <ele>1033.55</ele>
        <time>2013-04-25T08:17:57Z</time>
      </trkpt>
      <trkpt lat="44.94268" lon="5.70692">
        <ele>1035.48</ele>
        <time>2013-04-25T08:18:17Z</time>
      </trkpt>
      <trkpt lat="44.94256" lon="5.707">
        <ele>1037.88</ele>
        <time>2013-04-25T08:18:35Z</time>
      </trkpt>
      <trkpt lat="44.94246" lon="5.70706">
        <ele>1039.8</ele>
        <time>2013-04-25T08:18:52Z</time>
      </trkpt>
      <trkpt lat="44.9424" lon="5.70709">
        <ele>1043.17</ele>
        <time>2013-04-25T08:19:08Z</time>
      </trkpt>
      <trkpt lat="44.94232" lon="5.70711">
        <ele>1046.05</ele>
        <time>2013-04-25T08:19:29Z</time>
      </trkpt>
      <trkpt lat="44.94226" lon="5.70711">
        <ele>1049.42</ele>
        <time>2013-04-25T08:19:46Z</time>
      </trkpt>
      <trkpt lat="44.94219" lon="5.70711">
        <ele>1052.78</ele>
        <time>2013-04-25T08:20:04Z</time>
      </trkpt>
      <trkpt lat="44.94212" lon="5.7071">
        <ele>1055.67</ele>
        <time>2013-04-25T08:20:20Z</time>
      </trkpt>
      <trkpt lat="44.94206" lon="5.70712">
        <ele>1058.07</ele>
        <time>2013-04-25T08:20:38Z</time>
      </trkpt>
      <trkpt lat="44.94202" lon="5.70718">
        <ele>1060.47</ele>
        <time>2013-04-25T08:20:55Z</time>
      </trkpt>
      <trkpt lat="44.942" lon="5.70719">
        <ele>1061.43</ele>
        <time>2013-04-25T08:21:01Z</time>
      </trkpt>
      <trkpt lat="44.94193" lon="5.70723">
        <ele>1064.8</ele>
        <time>2013-04-25T08:21:18Z</time>
      </trkpt>
      <trkpt lat="44.94192" lon="5.70723">
        <ele>1064.8</ele>
        <time>2013-04-25T08:21:19Z</time>
      </trkpt>
      <trkpt lat="44.94184" lon="5.70731">
        <ele>1066.72</ele>
        <time>2013-04-25T08:21:36Z</time>
      </trkpt>
      <trkpt lat="44.94176" lon="5.70739">
        <ele>1069.6</ele>
        <time>2013-04-25T08:21:55Z</time>
      </trkpt>
      <trkpt lat="44.94173" lon="5.70734">
        <ele>1072.49</ele>
        <time>2013-04-25T08:22:13Z</time>
      </trkpt>
      <trkpt lat="44.94183" lon="5.70718">
        <ele>1074.41</ele>
        <time>2013-04-25T08:22:32Z</time>
      </trkpt>
      <trkpt lat="44.94184" lon="5.70712">
        <ele>1075.85</ele>
        <time>2013-04-25T08:22:40Z</time>
      </trkpt>
      <trkpt lat="44.94188" lon="5.70701">
        <ele>1078.74</ele>
        <time>2013-04-25T08:22:57Z</time>
      </trkpt>
      <trkpt lat="44.94193" lon="5.70681">
        <ele>1081.14</ele>
        <time>2013-04-25T08:23:18Z</time>
      </trkpt>
      <trkpt lat="44.942" lon="5.70668">
        <ele>1082.58</ele>
        <time>2013-04-25T08:23:36Z</time>
      </trkpt>
      <trkpt lat="44.94207" lon="5.70655">
        <ele>1084.02</ele>
        <time>2013-04-25T08:23:52Z</time>
      </trkpt>
      <trkpt lat="44.9421" lon="5.7065">
        <ele>1084.99</ele>
        <time>2013-04-25T08:23:59Z</time>
      </trkpt>
      <trkpt lat="44.94218" lon="5.70639">
        <ele>1085.95</ele>
        <time>2013-04-25T08:24:15Z</time>
      </trkpt>
      <trkpt lat="44.94228" lon="5.70624">
        <ele>1086.91</ele>
        <time>2013-04-25T08:24:31Z</time>
      </trkpt>
      <trkpt lat="44.94237" lon="5.70609">
        <ele>1088.83</ele>
        <time>2013-04-25T08:24:49Z</time>
      </trkpt>
      <trkpt lat="44.94248" lon="5.70592">
        <ele>1090.75</ele>
        <time>2013-04-25T08:25:08Z</time>
      </trkpt>
      <trkpt lat="44.94256" lon="5.70579">
        <ele>1093.16</ele>
        <time>2013-04-25T08:25:25Z</time>
      </trkpt>
      <trkpt lat="44.94262" lon="5.70567">
        <ele>1095.08</ele>
        <time>2013-04-25T08:25:42Z</time>
      </trkpt>
      <trkpt lat="44.94264" lon="5.7056">
        <ele>1098.44</ele>
        <time>2013-04-25T08:25:54Z</time>
      </trkpt>
      <trkpt lat="44.94266" lon="5.7055">
        <ele>1100.85</ele>
        <time>2013-04-25T08:26:09Z</time>
      </trkpt>
      <trkpt lat="44.94269" lon="5.70539">
        <ele>1103.25</ele>
        <time>2013-04-25T08:26:27Z</time>
      </trkpt>
      <trkpt lat="44.94271" lon="5.70534">
        <ele>1106.13</ele>
        <time>2013-04-25T08:26:39Z</time>
      </trkpt>
      <trkpt lat="44.94273" lon="5.70529">
        <ele>1108.54</ele>
        <time>2013-04-25T08:26:56Z</time>
      </trkpt>
      <trkpt lat="44.94278" lon="5.70519">
        <ele>1111.9</ele>
        <time>2013-04-25T08:27:13Z</time>
      </trkpt>
      <trkpt lat="44.94284" lon="5.70509">
        <ele>1113.34</ele>
        <time>2013-04-25T08:27:28Z</time>
      </trkpt>
      <trkpt lat="44.94289" lon="5.70498">
        <ele>1116.71</ele>
        <time>2013-04-25T08:27:44Z</time>
      </trkpt>
      <trkpt lat="44.94292" lon="5.70489">
        <ele>1118.63</ele>
        <time>2013-04-25T08:27:57Z</time>
      </trkpt>
      <trkpt lat="44.94297" lon="5.70477">
        <ele>1122.48</ele>
        <time>2013-04-25T08:28:15Z</time>
      </trkpt>
      <trkpt lat="44.94304" lon="5.70465">
        <ele>1125.84</ele>
        <time>2013-04-25T08:28:36Z</time>
      </trkpt>
      <trkpt lat="44.94304" lon="5.7046">
        <ele>1126.32</ele>
        <time>2013-04-25T08:28:53Z</time>
      </trkpt>
      <trkpt lat="44.94298" lon="5.70458">
        <ele>1129.69</ele>
        <time>2013-04-25T08:29:10Z</time>
      </trkpt>
      <trkpt lat="44.9429" lon="5.7046">
        <ele>1132.57</ele>
        <time>2013-04-25T08:29:30Z</time>
      </trkpt>
      <trkpt lat="44.94284" lon="5.70462">
        <ele>1134.97</ele>
        <time>2013-04-25T08:29:47Z</time>
      </trkpt>
      <trkpt lat="44.94283" lon="5.70463">
        <ele>1135.94</ele>
        <time>2013-04-25T08:29:49Z</time>
      </trkpt>
      <trkpt lat="44.94275" lon="5.70468">
        <ele>1137.86</ele>
        <time>2013-04-25T08:30:07Z</time>
      </trkpt>
      <trkpt lat="44.94264" lon="5.70475">
        <ele>1141.22</ele>
        <time>2013-04-25T08:30:22Z</time>
      </trkpt>
      <trkpt lat="44.94255" lon="5.70477">
        <ele>1143.14</ele>
        <time>2013-04-25T08:30:39Z</time>
      </trkpt>
      <trkpt lat="44.94247" lon="5.70479">
        <ele>1146.03</ele>
        <time>2013-04-25T08:30:57Z</time>
      </trkpt>
      <trkpt lat="44.94238" lon="5.70483">
        <ele>1148.91</ele>
        <time>2013-04-25T08:31:15Z</time>
      </trkpt>
      <trkpt lat="44.94228" lon="5.7049">
        <ele>1151.32</ele>
        <time>2013-04-25T08:31:35Z</time>
      </trkpt>
      <trkpt lat="44.94225" lon="5.70489">
        <ele>1153.24</ele>
        <time>2013-04-25T08:31:40Z</time>
      </trkpt>
      <trkpt lat="44.94212" lon="5.7049">
        <ele>1155.16</ele>
        <time>2013-04-25T08:32:00Z</time>
      </trkpt>
      <trkpt lat="44.94204" lon="5.70491">
        <ele>1157.56</ele>
        <time>2013-04-25T08:32:16Z</time>
      </trkpt>
      <trkpt lat="44.94194" lon="5.70492">
        <ele>1160.93</ele>
        <time>2013-04-25T08:32:33Z</time>
      </trkpt>
      <trkpt lat="44.94186" lon="5.70495">
        <ele>1162.37</ele>
        <time>2013-04-25T08:32:46Z</time>
      </trkpt>
      <trkpt lat="44.94173" lon="5.70497">
        <ele>1164.77</ele>
        <time>2013-04-25T08:33:05Z</time>
      </trkpt>
      <trkpt lat="44.9417" lon="5.705">
        <ele>1166.22</ele>
        <time>2013-04-25T08:33:09Z</time>
      </trkpt>
      <trkpt lat="44.94158" lon="5.70505">
        <ele>1169.1</ele>
        <time>2013-04-25T08:33:29Z</time>
      </trkpt>
      <trkpt lat="44.94146" lon="5.7051">
        <ele>1171.5</ele>
        <time>2013-04-25T08:33:45Z</time>
      </trkpt>
      <trkpt lat="44.9414" lon="5.70513">
        <ele>1174.87</ele>
        <time>2013-04-25T08:34:00Z</time>
      </trkpt>
      <trkpt lat="44.94132" lon="5.70517">
        <ele>1176.79</ele>
        <time>2013-04-25T08:34:16Z</time>
      </trkpt>
      <trkpt lat="44.94123" lon="5.7052">
        <ele>1180.16</ele>
        <time>2013-04-25T08:34:35Z</time>
      </trkpt>
      <trkpt lat="44.94122" lon="5.70521">
        <ele>1180.64</ele>
        <time>2013-04-25T08:34:37Z</time>
      </trkpt>
      <trkpt lat="44.94113" lon="5.70525">
        <ele>1184</ele>
        <time>2013-04-25T08:34:56Z</time>
      </trkpt>
      <trkpt lat="44.94104" lon="5.70532">
        <ele>1186.88</ele>
        <time>2013-04-25T08:35:13Z</time>
      </trkpt>
      <trkpt lat="44.94094" lon="5.70539">
        <ele>1189.77</ele>
        <time>2013-04-25T08:35:31Z</time>
      </trkpt>
      <trkpt lat="44.94087" lon="5.70547">
        <ele>1191.69</ele>
        <time>2013-04-25T08:35:49Z</time>
      </trkpt>
      <trkpt lat="44.94077" lon="5.70553">
        <ele>1195.06</ele>
        <time>2013-04-25T08:36:06Z</time>
      </trkpt>
      <trkpt lat="44.94067" lon="5.70567">
        <ele>1197.94</ele>
        <time>2013-04-25T08:36:26Z</time>
      </trkpt>
      <trkpt lat="44.9406" lon="5.70575">
        <ele>1201.3</ele>
        <time>2013-04-25T08:36:45Z</time>
      </trkpt>
      <trkpt lat="44.94055" lon="5.70583">
        <ele>1203.71</ele>
        <time>2013-04-25T08:37:01Z</time>
      </trkpt>
      <trkpt lat="44.94047" lon="5.70587">
        <ele>1206.11</ele>
        <time>2013-04-25T08:37:23Z</time>
      </trkpt>
      <trkpt lat="44.94048" lon="5.70581">
        <ele>1209.48</ele>
        <time>2013-04-25T08:37:37Z</time>
      </trkpt>
      <trkpt lat="44.94048" lon="5.70569">
        <ele>1211.4</ele>
        <time>2013-04-25T08:37:54Z</time>
      </trkpt>
      <trkpt lat="44.9405" lon="5.7056">
        <ele>1215.24</ele>
        <time>2013-04-25T08:38:10Z</time>
      </trkpt>
      <trkpt lat="44.9405" lon="5.70549">
        <ele>1218.13</ele>
        <time>2013-04-25T08:38:25Z</time>
      </trkpt>
      <trkpt lat="44.94054" lon="5.70526">
        <ele>1220.53</ele>
        <time>2013-04-25T08:38:45Z</time>
      </trkpt>
      <trkpt lat="44.94057" lon="5.70512">
        <ele>1223.42</ele>
        <time>2013-04-25T08:39:00Z</time>
      </trkpt>
      <trkpt lat="44.94059" lon="5.70496">
        <ele>1226.3</ele>
        <time>2013-04-25T08:39:18Z</time>
      </trkpt>
      <trkpt lat="44.94054" lon="5.70478">
        <ele>1229.18</ele>
        <time>2013-04-25T08:39:37Z</time>
      </trkpt>
      <trkpt lat="44.94046" lon="5.70465">
        <ele>1232.07</ele>
        <time>2013-04-25T08:39:56Z</time>
      </trkpt>
      <trkpt lat="44.9404" lon="5.70459">
        <ele>1233.51</ele>
        <time>2013-04-25T08:40:11Z</time>
      </trkpt>
      <trkpt lat="44.9404" lon="5.70459">
        <ele>1234.47</ele>
        <time>2013-04-25T08:40:28Z</time>
      </trkpt>
      <trkpt lat="44.94035" lon="5.70467">
        <ele>1233.99</ele>
        <time>2013-04-25T08:41:01Z</time>
      </trkpt>
      <trkpt lat="44.94034" lon="5.70467">
        <ele>1234.95</ele>
        <time>2013-04-25T08:41:36Z</time>
      </trkpt>
      <trkpt lat="44.94044" lon="5.70465">
        <ele>1233.99</ele>
        <time>2013-04-25T08:42:11Z</time>
      </trkpt>
      <trkpt lat="44.94041" lon="5.70464">
        <ele>1234.47</ele>
        <time>2013-04-25T08:42:40Z</time>
      </trkpt>
      <trkpt lat="44.94041" lon="5.70463">
        <ele>1234.47</ele>
        <time>2013-04-25T08:43:17Z</time>
      </trkpt>
      <trkpt lat="44.94038" lon="5.70464">
        <ele>1234.95</ele>
        <time>2013-04-25T08:43:52Z</time>
      </trkpt>
      <trkpt lat="44.9404" lon="5.70458">
        <ele>1233.99</ele>
        <time>2013-04-25T08:44:16Z</time>
      </trkpt>
      <trkpt lat="44.94039" lon="5.70459">
        <ele>1234.47</ele>
        <time>2013-04-25T08:44:50Z</time>
      </trkpt>
      <trkpt lat="44.94045" lon="5.70459">
        <ele>1233.51</ele>
        <time>2013-04-25T08:45:11Z</time>
      </trkpt>
      <trkpt lat="44.9405" lon="5.70471">
        <ele>1231.11</ele>
        <time>2013-04-25T08:45:30Z</time>
      </trkpt>
      <trkpt lat="44.94051" lon="5.70472">
        <ele>1229.18</ele>
        <time>2013-04-25T08:45:33Z</time>
      </trkpt>
      <trkpt lat="44.94051" lon="5.70474">
        <ele>1230.62</ele>
        <time>2013-04-25T08:46:04Z</time>
      </trkpt>
      <trkpt lat="44.9405" lon="5.70481">
        <ele>1230.62</ele>
        <time>2013-04-25T08:46:42Z</time>
      </trkpt>
      <trkpt lat="44.94046" lon="5.70469">
        <ele>1231.59</ele>
        <time>2013-04-25T08:47:24Z</time>
      </trkpt>
      <trkpt lat="44.94042" lon="5.70459">
        <ele>1233.51</ele>
        <time>2013-04-25T08:47:41Z</time>
      </trkpt>
      <trkpt lat="44.9404" lon="5.70464">
        <ele>1234.47</ele>
        <time>2013-04-25T08:48:16Z</time>
      </trkpt>
      <trkpt lat="44.94039" lon="5.70461">
        <ele>1234.95</ele>
        <time>2013-04-25T08:48:41Z</time>
      </trkpt>
      <trkpt lat="44.9404" lon="5.70463">
        <ele>1233.99</ele>
        <time>2013-04-25T08:49:05Z</time>
      </trkpt>
      <trkpt lat="44.94037" lon="5.70462">
        <ele>1234.47</ele>
        <time>2013-04-25T08:49:40Z</time>
      </trkpt>
      <trkpt lat="44.94027" lon="5.70467">
        <ele>1237.35</ele>
        <time>2013-04-25T08:49:57Z</time>
      </trkpt>
      <trkpt lat="44.94017" lon="5.7047">
        <ele>1240.72</ele>
        <time>2013-04-25T08:50:16Z</time>
      </trkpt>
      <trkpt lat="44.94008" lon="5.70472">
        <ele>1244.08</ele>
        <time>2013-04-25T08:50:32Z</time>
      </trkpt>
      <trkpt lat="44.94005" lon="5.70471">
        <ele>1245.04</ele>
        <time>2013-04-25T08:50:36Z</time>
      </trkpt>
      <trkpt lat="44.93995" lon="5.70474">
        <ele>1246.97</ele>
        <time>2013-04-25T08:50:52Z</time>
      </trkpt>
      <trkpt lat="44.93985" lon="5.70479">
        <ele>1250.33</ele>
        <time>2013-04-25T08:51:10Z</time>
      </trkpt>
      <trkpt lat="44.93978" lon="5.70481">
        <ele>1253.22</ele>
        <time>2013-04-25T08:51:25Z</time>
      </trkpt>
      <trkpt lat="44.93972" lon="5.70483">
        <ele>1256.1</ele>
        <time>2013-04-25T08:51:43Z</time>
      </trkpt>
      <trkpt lat="44.93969" lon="5.70483">
        <ele>1257.06</ele>
        <time>2013-04-25T08:51:59Z</time>
      </trkpt>
      <trkpt lat="44.93966" lon="5.70483">
        <ele>1259.46</ele>
        <time>2013-04-25T08:52:05Z</time>
      </trkpt>
      <trkpt lat="44.93962" lon="5.70489">
        <ele>1261.87</ele>
        <time>2013-04-25T08:52:20Z</time>
      </trkpt>
      <trkpt lat="44.93956" lon="5.70491">
        <ele>1263.79</ele>
        <time>2013-04-25T08:52:34Z</time>
      </trkpt>
      <trkpt lat="44.93947" lon="5.705">
        <ele>1267.64</ele>
        <time>2013-04-25T08:52:53Z</time>
      </trkpt>
      <trkpt lat="44.93941" lon="5.70504">
        <ele>1270.04</ele>
        <time>2013-04-25T08:53:08Z</time>
      </trkpt>
      <trkpt lat="44.93935" lon="5.70506">
        <ele>1271.96</ele>
        <time>2013-04-25T08:53:22Z</time>
      </trkpt>
      <trkpt lat="44.93925" lon="5.70509">
        <ele>1274.85</ele>
        <time>2013-04-25T08:53:37Z</time>
      </trkpt>
      <trkpt lat="44.9391" lon="5.70515">
        <ele>1278.21</ele>
        <time>2013-04-25T08:53:58Z</time>
      </trkpt>
      <trkpt lat="44.93906" lon="5.70518">
        <ele>1280.13</ele>
        <time>2013-04-25T08:54:13Z</time>
      </trkpt>
      <trkpt lat="44.93901" lon="5.70522">
        <ele>1283.02</ele>
        <time>2013-04-25T08:54:29Z</time>
      </trkpt>
      <trkpt lat="44.93896" lon="5.70527">
        <ele>1286.38</ele>
        <time>2013-04-25T08:54:46Z</time>
      </trkpt>
      <trkpt lat="44.93893" lon="5.70534">
        <ele>1288.78</ele>
        <time>2013-04-25T08:54:59Z</time>
      </trkpt>
      <trkpt lat="44.93888" lon="5.70538">
        <ele>1289.75</ele>
        <time>2013-04-25T08:55:15Z</time>
      </trkpt>
      <trkpt lat="44.93877" lon="5.70548">
        <ele>1291.19</ele>
        <time>2013-04-25T08:55:32Z</time>
      </trkpt>
      <trkpt lat="44.9387" lon="5.70555">
        <ele>1291.67</ele>
        <time>2013-04-25T08:55:52Z</time>
      </trkpt>
      <trkpt lat="44.93853" lon="5.70558">
        <ele>1293.11</ele>
        <time>2013-04-25T08:56:14Z</time>
      </trkpt>
      <trkpt lat="44.93853" lon="5.70553">
        <ele>1295.03</ele>
        <time>2013-04-25T08:56:29Z</time>
      </trkpt>
      <trkpt lat="44.93842" lon="5.70558">
        <ele>1294.55</ele>
        <time>2013-04-25T08:56:45Z</time>
      </trkpt>
      <trkpt lat="44.93833" lon="5.70554">
        <ele>1295.99</ele>
        <time>2013-04-25T08:56:59Z</time>
      </trkpt>
      <trkpt lat="44.93829" lon="5.70554">
        <ele>1296.48</ele>
        <time>2013-04-25T08:57:10Z</time>
      </trkpt>
      <trkpt lat="44.93818" lon="5.70554">
        <ele>1297.92</ele>
        <time>2013-04-25T08:57:27Z</time>
      </trkpt>
      <trkpt lat="44.93813" lon="5.70562">
        <ele>1299.36</ele>
        <time>2013-04-25T08:57:43Z</time>
      </trkpt>
      <trkpt lat="44.93806" lon="5.70564">
        <ele>1301.28</ele>
        <time>2013-04-25T08:58:05Z</time>
      </trkpt>
      <trkpt lat="44.93794" lon="5.70568">
        <ele>1303.69</ele>
        <time>2013-04-25T08:58:24Z</time>
      </trkpt>
      <trkpt lat="44.93792" lon="5.70575">
        <ele>1306.09</ele>
        <time>2013-04-25T08:58:40Z</time>
      </trkpt>
      <trkpt lat="44.93786" lon="5.70573">
        <ele>1305.13</ele>
        <time>2013-04-25T08:59:03Z</time>
      </trkpt>
      <trkpt lat="44.9379" lon="5.70592">
        <ele>1306.09</ele>
        <time>2013-04-25T08:59:25Z</time>
      </trkpt>
      <trkpt lat="44.93789" lon="5.70602">
        <ele>1308.97</ele>
        <time>2013-04-25T08:59:44Z</time>
      </trkpt>
      <trkpt lat="44.93788" lon="5.70603">
        <ele>1308.97</ele>
        <time>2013-04-25T08:59:48Z</time>
      </trkpt>
      <trkpt lat="44.93776" lon="5.70607">
        <ele>1310.41</ele>
        <time>2013-04-25T09:00:04Z</time>
      </trkpt>
      <trkpt lat="44.93765" lon="5.70613">
        <ele>1312.82</ele>
        <time>2013-04-25T09:00:25Z</time>
      </trkpt>
      <trkpt lat="44.93756" lon="5.70615">
        <ele>1313.3</ele>
        <time>2013-04-25T09:00:51Z</time>
      </trkpt>
      <trkpt lat="44.93753" lon="5.70614">
        <ele>1313.3</ele>
        <time>2013-04-25T09:01:17Z</time>
      </trkpt>
      <trkpt lat="44.93747" lon="5.70616">
        <ele>1314.26</ele>
        <time>2013-04-25T09:01:40Z</time>
      </trkpt>
      <trkpt lat="44.93743" lon="5.70619">
        <ele>1316.18</ele>
        <time>2013-04-25T09:01:50Z</time>
      </trkpt>
      <trkpt lat="44.93735" lon="5.70617">
        <ele>1318.1</ele>
        <time>2013-04-25T09:02:07Z</time>
      </trkpt>
      <trkpt lat="44.93731" lon="5.70625">
        <ele>1318.59</ele>
        <time>2013-04-25T09:02:22Z</time>
      </trkpt>
      <trkpt lat="44.93723" lon="5.70637">
        <ele>1321.47</ele>
        <time>2013-04-25T09:02:43Z</time>
      </trkpt>
      <trkpt lat="44.93716" lon="5.70646">
        <ele>1324.35</ele>
        <time>2013-04-25T09:03:02Z</time>
      </trkpt>
      <trkpt lat="44.93702" lon="5.70652">
        <ele>1326.28</ele>
        <time>2013-04-25T09:03:23Z</time>
      </trkpt>
      <trkpt lat="44.93695" lon="5.70654">
        <ele>1326.76</ele>
        <time>2013-04-25T09:03:33Z</time>
      </trkpt>
      <trkpt lat="44.93683" lon="5.7066">
        <ele>1326.76</ele>
        <time>2013-04-25T09:03:50Z</time>
      </trkpt>
      <trkpt lat="44.93673" lon="5.70662">
        <ele>1327.24</ele>
        <time>2013-04-25T09:04:01Z</time>
      </trkpt>
      <trkpt lat="44.93658" lon="5.70666">
        <ele>1326.28</ele>
        <time>2013-04-25T09:04:18Z</time>
      </trkpt>
      <trkpt lat="44.93652" lon="5.70666">
        <ele>1326.76</ele>
        <time>2013-04-25T09:04:35Z</time>
      </trkpt>
      <trkpt lat="44.93661" lon="5.70656">
        <ele>1324.83</ele>
        <time>2013-04-25T09:04:58Z</time>
      </trkpt>
      <trkpt lat="44.93672" lon="5.70641">
        <ele>1321.95</ele>
        <time>2013-04-25T09:05:17Z</time>
      </trkpt>
      <trkpt lat="44.93685" lon="5.70627">
        <ele>1318.59</ele>
        <time>2013-04-25T09:05:34Z</time>
      </trkpt>
      <trkpt lat="44.93698" lon="5.70608">
        <ele>1316.18</ele>
        <time>2013-04-25T09:05:53Z</time>
      </trkpt>
      <trkpt lat="44.93701" lon="5.7061">
        <ele>1316.18</ele>
        <time>2013-04-25T09:06:24Z</time>
      </trkpt>
      <trkpt lat="44.93703" lon="5.70606">
        <ele>1315.22</ele>
        <time>2013-04-25T09:06:51Z</time>
      </trkpt>
      <trkpt lat="44.93702" lon="5.70598">
        <ele>1314.74</ele>
        <time>2013-04-25T09:07:16Z</time>
      </trkpt>
      <trkpt lat="44.93701" lon="5.70595">
        <ele>1314.74</ele>
        <time>2013-04-25T09:07:19Z</time>
      </trkpt>
      <trkpt lat="44.93696" lon="5.70587">
        <ele>1313.78</ele>
        <time>2013-04-25T09:07:27Z</time>
      </trkpt>
      <trkpt lat="44.93681" lon="5.70579">
        <ele>1310.9</ele>
        <time>2013-04-25T09:07:48Z</time>
      </trkpt>
      <trkpt lat="44.9367" lon="5.70568">
        <ele>1308.97</ele>
        <time>2013-04-25T09:08:07Z</time>
      </trkpt>
      <trkpt lat="44.9367" lon="5.70564">
        <ele>1309.45</ele>
        <time>2013-04-25T09:08:25Z</time>
      </trkpt>
      <trkpt lat="44.93674" lon="5.70562">
        <ele>1308.97</ele>
        <time>2013-04-25T09:09:00Z</time>
      </trkpt>
      <trkpt lat="44.9367" lon="5.70559">
        <ele>1309.45</ele>
        <time>2013-04-25T09:09:38Z</time>
      </trkpt>
      <trkpt lat="44.93671" lon="5.70564">
        <ele>1308.97</ele>
        <time>2013-04-25T09:10:16Z</time>
      </trkpt>
      <trkpt lat="44.93669" lon="5.70558">
        <ele>1308.49</ele>
        <time>2013-04-25T09:10:57Z</time>
      </trkpt>
      <trkpt lat="44.9367" lon="5.70557">
        <ele>1308.01</ele>
        <time>2013-04-25T09:11:15Z</time>
      </trkpt>
      <trkpt lat="44.9367" lon="5.70556">
        <ele>1308.49</ele>
        <time>2013-04-25T09:11:42Z</time>
      </trkpt>
      <trkpt lat="44.93669" lon="5.70552">
        <ele>1308.49</ele>
        <time>2013-04-25T09:11:45Z</time>
      </trkpt>
      <trkpt lat="44.93667" lon="5.7055">
        <ele>1308.01</ele>
        <time>2013-04-25T09:11:48Z</time>
      </trkpt>
      <trkpt lat="44.93661" lon="5.70533">
        <ele>1307.53</ele>
        <time>2013-04-25T09:12:00Z</time>
      </trkpt>
      <trkpt lat="44.93643" lon="5.70511">
        <ele>1306.09</ele>
        <time>2013-04-25T09:12:19Z</time>
      </trkpt>
      <trkpt lat="44.93635" lon="5.70507">
        <ele>1305.13</ele>
        <time>2013-04-25T09:12:25Z</time>
      </trkpt>
      <trkpt lat="44.93624" lon="5.70499">
        <ele>1304.65</ele>
        <time>2013-04-25T09:12:35Z</time>
      </trkpt>
      <trkpt lat="44.93616" lon="5.70495">
        <ele>1303.69</ele>
        <time>2013-04-25T09:12:42Z</time>
      </trkpt>
      <trkpt lat="44.9361" lon="5.70493">
        <ele>1303.2</ele>
        <time>2013-04-25T09:12:47Z</time>
      </trkpt>
      <trkpt lat="44.93598" lon="5.70485">
        <ele>1301.76</ele>
        <time>2013-04-25T09:12:57Z</time>
      </trkpt>
      <trkpt lat="44.93586" lon="5.70477">
        <ele>1300.8</ele>
        <time>2013-04-25T09:13:08Z</time>
      </trkpt>
      <trkpt lat="44.93575" lon="5.70469">
        <ele>1299.36</ele>
        <time>2013-04-25T09:13:18Z</time>
      </trkpt>
      <trkpt lat="44.93562" lon="5.70461">
        <ele>1298.88</ele>
        <time>2013-04-25T09:13:28Z</time>
      </trkpt>
      <trkpt lat="44.93555" lon="5.70453">
        <ele>1298.4</ele>
        <time>2013-04-25T09:13:36Z</time>
      </trkpt>
      <trkpt lat="44.93528" lon="5.70438">
        <ele>1296.48</ele>
        <time>2013-04-25T09:13:57Z</time>
      </trkpt>
      <trkpt lat="44.9351" lon="5.70427">
        <ele>1295.51</ele>
        <time>2013-04-25T09:14:12Z</time>
      </trkpt>
      <trkpt lat="44.93508" lon="5.70427">
        <ele>1295.03</ele>
        <time>2013-04-25T09:14:14Z</time>
      </trkpt>
      <trkpt lat="44.93507" lon="5.70426">
        <ele>1294.55</ele>
        <time>2013-04-25T09:14:15Z</time>
      </trkpt>
      <trkpt lat="44.93481" lon="5.7041">
        <ele>1292.63</ele>
        <time>2013-04-25T09:14:37Z</time>
      </trkpt>
      <trkpt lat="44.93479" lon="5.70408">
        <ele>1292.15</ele>
        <time>2013-04-25T09:14:40Z</time>
      </trkpt>
      <trkpt lat="44.9347" lon="5.70402">
        <ele>1291.67</ele>
        <time>2013-04-25T09:14:47Z</time>
      </trkpt>
      <trkpt lat="44.9346" lon="5.70397">
        <ele>1291.19</ele>
        <time>2013-04-25T09:14:54Z</time>
      </trkpt>
      <trkpt lat="44.93458" lon="5.70395">
        <ele>1290.23</ele>
        <time>2013-04-25T09:14:56Z</time>
      </trkpt>
      <trkpt lat="44.93436" lon="5.70387">
        <ele>1289.27</ele>
        <time>2013-04-25T09:15:13Z</time>
      </trkpt>
      <trkpt lat="44.93425" lon="5.7038">
        <ele>1288.3</ele>
        <time>2013-04-25T09:15:22Z</time>
      </trkpt>
      <trkpt lat="44.93423" lon="5.7038">
        <ele>1288.3</ele>
        <time>2013-04-25T09:15:24Z</time>
      </trkpt>
      <trkpt lat="44.93417" lon="5.70377">
        <ele>1288.3</ele>
        <time>2013-04-25T09:15:30Z</time>
      </trkpt>
      <trkpt lat="44.93413" lon="5.70374">
        <ele>1287.82</ele>
        <time>2013-04-25T09:15:34Z</time>
      </trkpt>
      <trkpt lat="44.93391" lon="5.70366">
        <ele>1285.9</ele>
        <time>2013-04-25T09:15:51Z</time>
      </trkpt>
      <trkpt lat="44.93386" lon="5.70365">
        <ele>1285.9</ele>
        <time>2013-04-25T09:15:55Z</time>
      </trkpt>
      <trkpt lat="44.93368" lon="5.70356">
        <ele>1284.46</ele>
        <time>2013-04-25T09:16:07Z</time>
      </trkpt>
      <trkpt lat="44.93357" lon="5.70353">
        <ele>1284.46</ele>
        <time>2013-04-25T09:16:15Z</time>
      </trkpt>
      <trkpt lat="44.93355" lon="5.70352">
        <ele>1283.5</ele>
        <time>2013-04-25T09:16:17Z</time>
      </trkpt>
      <trkpt lat="44.93333" lon="5.70349">
        <ele>1283.02</ele>
        <time>2013-04-25T09:16:34Z</time>
      </trkpt>
      <trkpt lat="44.93314" lon="5.70344">
        <ele>1282.54</ele>
        <time>2013-04-25T09:16:53Z</time>
      </trkpt>
      <trkpt lat="44.9331" lon="5.70349">
        <ele>1284.94</ele>
        <time>2013-04-25T09:17:10Z</time>
      </trkpt>
      <trkpt lat="44.93299" lon="5.70355">
        <ele>1287.82</ele>
        <time>2013-04-25T09:17:30Z</time>
      </trkpt>
      <trkpt lat="44.9329" lon="5.70359">
        <ele>1291.19</ele>
        <time>2013-04-25T09:17:43Z</time>
      </trkpt>
      <trkpt lat="44.93282" lon="5.70368">
        <ele>1294.07</ele>
        <time>2013-04-25T09:18:01Z</time>
      </trkpt>
      <trkpt lat="44.93269" lon="5.70371">
        <ele>1296.48</ele>
        <time>2013-04-25T09:18:19Z</time>
      </trkpt>
      <trkpt lat="44.93267" lon="5.70372">
        <ele>1297.44</ele>
        <time>2013-04-25T09:18:22Z</time>
      </trkpt>
      <trkpt lat="44.93256" lon="5.70376">
        <ele>1299.84</ele>
        <time>2013-04-25T09:18:41Z</time>
      </trkpt>
      <trkpt lat="44.93243" lon="5.70382">
        <ele>1302.72</ele>
        <time>2013-04-25T09:19:00Z</time>
      </trkpt>
      <trkpt lat="44.93233" lon="5.70378">
        <ele>1306.09</ele>
        <time>2013-04-25T09:19:15Z</time>
      </trkpt>
      <trkpt lat="44.93222" lon="5.70385">
        <ele>1308.49</ele>
        <time>2013-04-25T09:19:34Z</time>
      </trkpt>
      <trkpt lat="44.93216" lon="5.70395">
        <ele>1311.86</ele>
        <time>2013-04-25T09:19:52Z</time>
      </trkpt>
      <trkpt lat="44.93212" lon="5.70411">
        <ele>1314.74</ele>
        <time>2013-04-25T09:20:09Z</time>
      </trkpt>
      <trkpt lat="44.93207" lon="5.70426">
        <ele>1317.62</ele>
        <time>2013-04-25T09:20:27Z</time>
      </trkpt>
      <trkpt lat="44.93203" lon="5.70445">
        <ele>1320.51</ele>
        <time>2013-04-25T09:20:45Z</time>
      </trkpt>
      <trkpt lat="44.932" lon="5.70466">
        <ele>1322.43</ele>
        <time>2013-04-25T09:21:04Z</time>
      </trkpt>
      <trkpt lat="44.93195" lon="5.70485">
        <ele>1325.31</ele>
        <time>2013-04-25T09:21:23Z</time>
      </trkpt>
      <trkpt lat="44.93191" lon="5.70504">
        <ele>1327.24</ele>
        <time>2013-04-25T09:21:41Z</time>
      </trkpt>
      <trkpt lat="44.93188" lon="5.7051">
        <ele>1327.24</ele>
        <time>2013-04-25T09:21:46Z</time>
      </trkpt>
      <trkpt lat="44.93187" lon="5.70517">
        <ele>1328.68</ele>
        <time>2013-04-25T09:21:52Z</time>
      </trkpt>
      <trkpt lat="44.93183" lon="5.70533">
        <ele>1331.56</ele>
        <time>2013-04-25T09:22:10Z</time>
      </trkpt>
      <trkpt lat="44.93176" lon="5.70548">
        <ele>1333.97</ele>
        <time>2013-04-25T09:22:30Z</time>
      </trkpt>
      <trkpt lat="44.93166" lon="5.70561">
        <ele>1336.37</ele>
        <time>2013-04-25T09:22:50Z</time>
      </trkpt>
      <trkpt lat="44.93166" lon="5.70564">
        <ele>1337.33</ele>
        <time>2013-04-25T09:22:53Z</time>
      </trkpt>
      <trkpt lat="44.93161" lon="5.70575">
        <ele>1340.22</ele>
        <time>2013-04-25T09:23:11Z</time>
      </trkpt>
      <trkpt lat="44.93156" lon="5.70587">
        <ele>1342.62</ele>
        <time>2013-04-25T09:23:25Z</time>
      </trkpt>
      <trkpt lat="44.9315" lon="5.70594">
        <ele>1345.5</ele>
        <time>2013-04-25T09:23:39Z</time>
      </trkpt>
      <trkpt lat="44.93144" lon="5.70605">
        <ele>1348.39</ele>
        <time>2013-04-25T09:23:58Z</time>
      </trkpt>
      <trkpt lat="44.93137" lon="5.70615">
        <ele>1351.27</ele>
        <time>2013-04-25T09:24:14Z</time>
      </trkpt>
      <trkpt lat="44.93129" lon="5.70626">
        <ele>1354.63</ele>
        <time>2013-04-25T09:24:31Z</time>
      </trkpt>
      <trkpt lat="44.93121" lon="5.70634">
        <ele>1358</ele>
        <time>2013-04-25T09:24:49Z</time>
      </trkpt>
      <trkpt lat="44.93113" lon="5.70639">
        <ele>1360.88</ele>
        <time>2013-04-25T09:25:05Z</time>
      </trkpt>
      <trkpt lat="44.93105" lon="5.70648">
        <ele>1363.77</ele>
        <time>2013-04-25T09:25:23Z</time>
      </trkpt>
      <trkpt lat="44.93097" lon="5.70656">
        <ele>1366.17</ele>
        <time>2013-04-25T09:25:39Z</time>
      </trkpt>
      <trkpt lat="44.93089" lon="5.70664">
        <ele>1369.54</ele>
        <time>2013-04-25T09:25:54Z</time>
      </trkpt>
      <trkpt lat="44.93086" lon="5.70675">
        <ele>1371.94</ele>
        <time>2013-04-25T09:26:11Z</time>
      </trkpt>
      <trkpt lat="44.93078" lon="5.70686">
        <ele>1375.3</ele>
        <time>2013-04-25T09:26:30Z</time>
      </trkpt>
      <trkpt lat="44.93071" lon="5.70693">
        <ele>1378.19</ele>
        <time>2013-04-25T09:26:48Z</time>
      </trkpt>
      <trkpt lat="44.93068" lon="5.70697">
        <ele>1379.15</ele>
        <time>2013-04-25T09:26:54Z</time>
      </trkpt>
      <trkpt lat="44.93059" lon="5.70705">
        <ele>1381.07</ele>
        <time>2013-04-25T09:27:11Z</time>
      </trkpt>
      <trkpt lat="44.93047" lon="5.7071">
        <ele>1384.44</ele>
        <time>2013-04-25T09:27:29Z</time>
      </trkpt>
      <trkpt lat="44.93034" lon="5.70715">
        <ele>1384.92</ele>
        <time>2013-04-25T09:27:46Z</time>
      </trkpt>
      <trkpt lat="44.93023" lon="5.70718">
        <ele>1386.84</ele>
        <time>2013-04-25T09:28:03Z</time>
      </trkpt>
      <trkpt lat="44.93012" lon="5.70722">
        <ele>1388.76</ele>
        <time>2013-04-25T09:28:20Z</time>
      </trkpt>
      <trkpt lat="44.92999" lon="5.70731">
        <ele>1389.24</ele>
        <time>2013-04-25T09:28:37Z</time>
      </trkpt>
      <trkpt lat="44.92983" lon="5.70737">
        <ele>1391.17</ele>
        <time>2013-04-25T09:28:56Z</time>
      </trkpt>
      <trkpt lat="44.92968" lon="5.70744">
        <ele>1393.09</ele>
        <time>2013-04-25T09:29:14Z</time>
      </trkpt>
      <trkpt lat="44.92959" lon="5.70739">
        <ele>1394.05</ele>
        <time>2013-04-25T09:29:37Z</time>
      </trkpt>
      <trkpt lat="44.9295" lon="5.70748">
        <ele>1396.45</ele>
        <time>2013-04-25T09:29:56Z</time>
      </trkpt>
      <trkpt lat="44.92936" lon="5.70751">
        <ele>1398.86</ele>
        <time>2013-04-25T09:30:14Z</time>
      </trkpt>
      <trkpt lat="44.92926" lon="5.70758">
        <ele>1401.74</ele>
        <time>2013-04-25T09:30:31Z</time>
      </trkpt>
      <trkpt lat="44.92915" lon="5.70762">
        <ele>1404.62</ele>
        <time>2013-04-25T09:30:49Z</time>
      </trkpt>
      <trkpt lat="44.92904" lon="5.70763">
        <ele>1407.51</ele>
        <time>2013-04-25T09:31:08Z</time>
      </trkpt>
      <trkpt lat="44.92893" lon="5.70768">
        <ele>1410.39</ele>
        <time>2013-04-25T09:31:24Z</time>
      </trkpt>
      <trkpt lat="44.92882" lon="5.70769">
        <ele>1413.28</ele>
        <time>2013-04-25T09:31:43Z</time>
      </trkpt>
      <trkpt lat="44.92869" lon="5.70769">
        <ele>1415.68</ele>
        <time>2013-04-25T09:32:01Z</time>
      </trkpt>
      <trkpt lat="44.92857" lon="5.70768">
        <ele>1418.08</ele>
        <time>2013-04-25T09:32:20Z</time>
      </trkpt>
      <trkpt lat="44.92846" lon="5.70768">
        <ele>1420.49</ele>
        <time>2013-04-25T09:32:35Z</time>
      </trkpt>
      <trkpt lat="44.92833" lon="5.70771">
        <ele>1423.37</ele>
        <time>2013-04-25T09:32:54Z</time>
      </trkpt>
      <trkpt lat="44.92821" lon="5.70771">
        <ele>1425.77</ele>
        <time>2013-04-25T09:33:12Z</time>
      </trkpt>
      <trkpt lat="44.92813" lon="5.70774">
        <ele>1427.7</ele>
        <time>2013-04-25T09:33:23Z</time>
      </trkpt>
      <trkpt lat="44.92802" lon="5.70769">
        <ele>1430.1</ele>
        <time>2013-04-25T09:33:40Z</time>
      </trkpt>
      <trkpt lat="44.92789" lon="5.70773">
        <ele>1432.98</ele>
        <time>2013-04-25T09:34:00Z</time>
      </trkpt>
      <trkpt lat="44.92775" lon="5.70777">
        <ele>1435.39</ele>
        <time>2013-04-25T09:34:19Z</time>
      </trkpt>
      <trkpt lat="44.92763" lon="5.70783">
        <ele>1437.79</ele>
        <time>2013-04-25T09:34:39Z</time>
      </trkpt>
      <trkpt lat="44.92757" lon="5.70789">
        <ele>1441.15</ele>
        <time>2013-04-25T09:34:54Z</time>
      </trkpt>
      <trkpt lat="44.92756" lon="5.70792">
        <ele>1442.6</ele>
        <time>2013-04-25T09:34:59Z</time>
      </trkpt>
      <trkpt lat="44.92746" lon="5.708">
        <ele>1445</ele>
        <time>2013-04-25T09:35:16Z</time>
      </trkpt>
      <trkpt lat="44.92741" lon="5.70809">
        <ele>1448.36</ele>
        <time>2013-04-25T09:35:33Z</time>
      </trkpt>
      <trkpt lat="44.92734" lon="5.70812">
        <ele>1451.25</ele>
        <time>2013-04-25T09:35:52Z</time>
      </trkpt>
      <trkpt lat="44.92724" lon="5.70816">
        <ele>1455.09</ele>
        <time>2013-04-25T09:36:11Z</time>
      </trkpt>
      <trkpt lat="44.92716" lon="5.70825">
        <ele>1457.98</ele>
        <time>2013-04-25T09:36:30Z</time>
      </trkpt>
      <trkpt lat="44.92705" lon="5.70827">
        <ele>1461.34</ele>
        <time>2013-04-25T09:36:50Z</time>
      </trkpt>
      <trkpt lat="44.927" lon="5.70835">
        <ele>1464.23</ele>
        <time>2013-04-25T09:37:10Z</time>
      </trkpt>
      <trkpt lat="44.92689" lon="5.70838">
        <ele>1467.59</ele>
        <time>2013-04-25T09:37:26Z</time>
      </trkpt>
      <trkpt lat="44.92678" lon="5.70844">
        <ele>1469.99</ele>
        <time>2013-04-25T09:37:45Z</time>
      </trkpt>
      <trkpt lat="44.92676" lon="5.70845">
        <ele>1470.95</ele>
        <time>2013-04-25T09:37:47Z</time>
      </trkpt>
      <trkpt lat="44.92666" lon="5.70842">
        <ele>1473.84</ele>
        <time>2013-04-25T09:38:05Z</time>
      </trkpt>
      <trkpt lat="44.92654" lon="5.70844">
        <ele>1476.72</ele>
        <time>2013-04-25T09:38:21Z</time>
      </trkpt>
      <trkpt lat="44.92644" lon="5.70842">
        <ele>1479.13</ele>
        <time>2013-04-25T09:38:37Z</time>
      </trkpt>
      <trkpt lat="44.92633" lon="5.70842">
        <ele>1482.01</ele>
        <time>2013-04-25T09:38:53Z</time>
      </trkpt>
      <trkpt lat="44.92632" lon="5.70842">
        <ele>1482.97</ele>
        <time>2013-04-25T09:38:58Z</time>
      </trkpt>
      <trkpt lat="44.92624" lon="5.70845">
        <ele>1486.82</ele>
        <time>2013-04-25T09:39:18Z</time>
      </trkpt>
      <trkpt lat="44.92617" lon="5.70846">
        <ele>1489.7</ele>
        <time>2013-04-25T09:39:30Z</time>
      </trkpt>
      <trkpt lat="44.92606" lon="5.70848">
        <ele>1492.58</ele>
        <time>2013-04-25T09:39:47Z</time>
      </trkpt>
      <trkpt lat="44.92601" lon="5.70852">
        <ele>1494.99</ele>
        <time>2013-04-25T09:40:04Z</time>
      </trkpt>
      <trkpt lat="44.92594" lon="5.70863">
        <ele>1498.35</ele>
        <time>2013-04-25T09:40:21Z</time>
      </trkpt>
      <trkpt lat="44.92583" lon="5.70871">
        <ele>1501.24</ele>
        <time>2013-04-25T09:40:38Z</time>
      </trkpt>
      <trkpt lat="44.92572" lon="5.70882">
        <ele>1504.12</ele>
        <time>2013-04-25T09:40:58Z</time>
      </trkpt>
      <trkpt lat="44.92561" lon="5.70888">
        <ele>1504.6</ele>
        <time>2013-04-25T09:41:19Z</time>
      </trkpt>
      <trkpt lat="44.92559" lon="5.70887">
        <ele>1504.6</ele>
        <time>2013-04-25T09:41:38Z</time>
      </trkpt>
      <trkpt lat="44.92557" lon="5.70892">
        <ele>1505.56</ele>
        <time>2013-04-25T09:42:03Z</time>
      </trkpt>
      <trkpt lat="44.92556" lon="5.70888">
        <ele>1505.56</ele>
        <time>2013-04-25T09:42:30Z</time>
      </trkpt>
      <trkpt lat="44.92554" lon="5.70887">
        <ele>1505.08</ele>
        <time>2013-04-25T09:43:05Z</time>
      </trkpt>
      <trkpt lat="44.92555" lon="5.70887">
        <ele>1504.12</ele>
        <time>2013-04-25T09:43:43Z</time>
      </trkpt>
      <trkpt lat="44.92555" lon="5.70888">
        <ele>1505.08</ele>
        <time>2013-04-25T09:44:14Z</time>
      </trkpt>
      <trkpt lat="44.92556" lon="5.70888">
        <ele>1505.56</ele>
        <time>2013-04-25T09:44:47Z</time>
      </trkpt>
      <trkpt lat="44.92557" lon="5.70892">
        <ele>1505.56</ele>
        <time>2013-04-25T09:45:27Z</time>
      </trkpt>
      <trkpt lat="44.92555" lon="5.70893">
        <ele>1505.08</ele>
        <time>2013-04-25T09:45:56Z</time>
      </trkpt>
      <trkpt lat="44.92556" lon="5.70891">
        <ele>1505.56</ele>
        <time>2013-04-25T09:46:21Z</time>
      </trkpt>
      <trkpt lat="44.92551" lon="5.70894">
        <ele>1506.52</ele>
        <time>2013-04-25T09:46:42Z</time>
      </trkpt>
      <trkpt lat="44.92541" lon="5.70902">
        <ele>1508.45</ele>
        <time>2013-04-25T09:47:00Z</time>
      </trkpt>
      <trkpt lat="44.92526" lon="5.70904">
        <ele>1511.33</ele>
        <time>2013-04-25T09:47:19Z</time>
      </trkpt>
      <trkpt lat="44.92508" lon="5.70907">
        <ele>1511.33</ele>
        <time>2013-04-25T09:47:39Z</time>
      </trkpt>
      <trkpt lat="44.92496" lon="5.70911">
        <ele>1513.25</ele>
        <time>2013-04-25T09:47:56Z</time>
      </trkpt>
      <trkpt lat="44.92485" lon="5.70921">
        <ele>1514.69</ele>
        <time>2013-04-25T09:48:15Z</time>
      </trkpt>
      <trkpt lat="44.92474" lon="5.70928">
        <ele>1517.58</ele>
        <time>2013-04-25T09:48:31Z</time>
      </trkpt>
      <trkpt lat="44.92467" lon="5.70933">
        <ele>1519.02</ele>
        <time>2013-04-25T09:48:48Z</time>
      </trkpt>
      <trkpt lat="44.92456" lon="5.70939">
        <ele>1520.94</ele>
        <time>2013-04-25T09:49:05Z</time>
      </trkpt>
      <trkpt lat="44.92438" lon="5.70949">
        <ele>1522.87</ele>
        <time>2013-04-25T09:49:26Z</time>
      </trkpt>
      <trkpt lat="44.92423" lon="5.70953">
        <ele>1525.27</ele>
        <time>2013-04-25T09:49:44Z</time>
      </trkpt>
      <trkpt lat="44.92411" lon="5.70955">
        <ele>1527.19</ele>
        <time>2013-04-25T09:50:01Z</time>
      </trkpt>
      <trkpt lat="44.92408" lon="5.70952">
        <ele>1528.15</ele>
        <time>2013-04-25T09:50:06Z</time>
      </trkpt>
      <trkpt lat="44.92396" lon="5.70951">
        <ele>1529.11</ele>
        <time>2013-04-25T09:50:23Z</time>
      </trkpt>
      <trkpt lat="44.92382" lon="5.7095">
        <ele>1531.52</ele>
        <time>2013-04-25T09:50:41Z</time>
      </trkpt>
      <trkpt lat="44.92376" lon="5.70948">
        <ele>1532</ele>
        <time>2013-04-25T09:50:56Z</time>
      </trkpt>
      <trkpt lat="44.92373" lon="5.70946">
        <ele>1532</ele>
        <time>2013-04-25T09:51:00Z</time>
      </trkpt>
      <trkpt lat="44.92357" lon="5.70941">
        <ele>1533.92</ele>
        <time>2013-04-25T09:51:17Z</time>
      </trkpt>
      <trkpt lat="44.92345" lon="5.70933">
        <ele>1535.36</ele>
        <time>2013-04-25T09:51:34Z</time>
      </trkpt>
      <trkpt lat="44.92329" lon="5.70929">
        <ele>1537.77</ele>
        <time>2013-04-25T09:51:51Z</time>
      </trkpt>
      <trkpt lat="44.92331" lon="5.70945">
        <ele>1539.21</ele>
        <time>2013-04-25T09:52:08Z</time>
      </trkpt>
      <trkpt lat="44.92333" lon="5.70959">
        <ele>1541.13</ele>
        <time>2013-04-25T09:52:24Z</time>
      </trkpt>
      <trkpt lat="44.92321" lon="5.70973">
        <ele>1543.05</ele>
        <time>2013-04-25T09:52:44Z</time>
      </trkpt>
      <trkpt lat="44.92309" lon="5.70985">
        <ele>1545.46</ele>
        <time>2013-04-25T09:53:02Z</time>
      </trkpt>
      <trkpt lat="44.92304" lon="5.70993">
        <ele>1545.94</ele>
        <time>2013-04-25T09:53:17Z</time>
      </trkpt>
      <trkpt lat="44.923" lon="5.70998">
        <ele>1546.42</ele>
        <time>2013-04-25T09:53:42Z</time>
      </trkpt>
      <trkpt lat="44.92297" lon="5.70996">
        <ele>1546.9</ele>
        <time>2013-04-25T09:54:03Z</time>
      </trkpt>
      <trkpt lat="44.92297" lon="5.70994">
        <ele>1546.9</ele>
        <time>2013-04-25T09:54:36Z</time>
      </trkpt>
      <trkpt lat="44.92296" lon="5.70997">
        <ele>1547.38</ele>
        <time>2013-04-25T09:55:02Z</time>
      </trkpt>
      <trkpt lat="44.92294" lon="5.70997">
        <ele>1546.9</ele>
        <time>2013-04-25T09:55:27Z</time>
      </trkpt>
      <trkpt lat="44.92291" lon="5.70998">
        <ele>1547.86</ele>
        <time>2013-04-25T09:55:50Z</time>
      </trkpt>
      <trkpt lat="44.9229" lon="5.70999">
        <ele>1547.86</ele>
        <time>2013-04-25T09:55:51Z</time>
      </trkpt>
      <trkpt lat="44.92274" lon="5.71009">
        <ele>1550.26</ele>
        <time>2013-04-25T09:56:12Z</time>
      </trkpt>
      <trkpt lat="44.92256" lon="5.71013">
        <ele>1551.22</ele>
        <time>2013-04-25T09:56:31Z</time>
      </trkpt>
      <trkpt lat="44.9224" lon="5.71016">
        <ele>1552.67</ele>
        <time>2013-04-25T09:56:50Z</time>
      </trkpt>
      <trkpt lat="44.92229" lon="5.71018">
        <ele>1554.59</ele>
        <time>2013-04-25T09:57:10Z</time>
      </trkpt>
      <trkpt lat="44.92213" lon="5.71016">
        <ele>1556.99</ele>
        <time>2013-04-25T09:57:28Z</time>
      </trkpt>
      <trkpt lat="44.92201" lon="5.71015">
        <ele>1558.43</ele>
        <time>2013-04-25T09:57:45Z</time>
      </trkpt>
      <trkpt lat="44.92188" lon="5.71018">
        <ele>1560.36</ele>
        <time>2013-04-25T09:58:01Z</time>
      </trkpt>
      <trkpt lat="44.92174" lon="5.71024">
        <ele>1561.8</ele>
        <time>2013-04-25T09:58:21Z</time>
      </trkpt>
      <trkpt lat="44.92159" lon="5.71024">
        <ele>1564.2</ele>
        <time>2013-04-25T09:58:38Z</time>
      </trkpt>
      <trkpt lat="44.92156" lon="5.71025">
        <ele>1565.16</ele>
        <time>2013-04-25T09:58:40Z</time>
      </trkpt>
      <trkpt lat="44.92139" lon="5.71034">
        <ele>1566.61</ele>
        <time>2013-04-25T09:58:57Z</time>
      </trkpt>
      <trkpt lat="44.92124" lon="5.71033">
        <ele>1568.53</ele>
        <time>2013-04-25T09:59:14Z</time>
      </trkpt>
      <trkpt lat="44.9211" lon="5.71041">
        <ele>1570.45</ele>
        <time>2013-04-25T09:59:33Z</time>
      </trkpt>
      <trkpt lat="44.92098" lon="5.71045">
        <ele>1571.41</ele>
        <time>2013-04-25T09:59:51Z</time>
      </trkpt>
      <trkpt lat="44.92088" lon="5.71048">
        <ele>1572.37</ele>
        <time>2013-04-25T10:00:08Z</time>
      </trkpt>
      <trkpt lat="44.92072" lon="5.71046">
        <ele>1575.26</ele>
        <time>2013-04-25T10:00:27Z</time>
      </trkpt>
      <trkpt lat="44.92062" lon="5.71045">
        <ele>1576.22</ele>
        <time>2013-04-25T10:00:42Z</time>
      </trkpt>
      <trkpt lat="44.9205" lon="5.71044">
        <ele>1578.14</ele>
        <time>2013-04-25T10:01:00Z</time>
      </trkpt>
      <trkpt lat="44.92038" lon="5.71042">
        <ele>1579.58</ele>
        <time>2013-04-25T10:01:16Z</time>
      </trkpt>
      <trkpt lat="44.92029" lon="5.71043">
        <ele>1581.51</ele>
        <time>2013-04-25T10:01:28Z</time>
      </trkpt>
      <trkpt lat="44.92016" lon="5.71043">
        <ele>1583.43</ele>
        <time>2013-04-25T10:01:45Z</time>
      </trkpt>
      <trkpt lat="44.92002" lon="5.71047">
        <ele>1584.87</ele>
        <time>2013-04-25T10:02:01Z</time>
      </trkpt>
      <trkpt lat="44.91993" lon="5.71051">
        <ele>1585.83</ele>
        <time>2013-04-25T10:02:09Z</time>
      </trkpt>
      <trkpt lat="44.91989" lon="5.71051">
        <ele>1585.83</ele>
        <time>2013-04-25T10:02:11Z</time>
      </trkpt>
      <trkpt lat="44.9197" lon="5.71061">
        <ele>1587.75</ele>
        <time>2013-04-25T10:02:28Z</time>
      </trkpt>
      <trkpt lat="44.91962" lon="5.71072">
        <ele>1588.72</ele>
        <time>2013-04-25T10:02:41Z</time>
      </trkpt>
      <trkpt lat="44.91948" lon="5.71087">
        <ele>1589.68</ele>
        <time>2013-04-25T10:02:59Z</time>
      </trkpt>
      <trkpt lat="44.91939" lon="5.711">
        <ele>1590.64</ele>
        <time>2013-04-25T10:03:11Z</time>
      </trkpt>
      <trkpt lat="44.91929" lon="5.71118">
        <ele>1593.04</ele>
        <time>2013-04-25T10:03:29Z</time>
      </trkpt>
      <trkpt lat="44.9192" lon="5.71132">
        <ele>1594</ele>
        <time>2013-04-25T10:03:44Z</time>
      </trkpt>
      <trkpt lat="44.91922" lon="5.71149">
        <ele>1596.41</ele>
        <time>2013-04-25T10:04:01Z</time>
      </trkpt>
      <trkpt lat="44.91919" lon="5.7116">
        <ele>1597.85</ele>
        <time>2013-04-25T10:04:19Z</time>
      </trkpt>
      <trkpt lat="44.91914" lon="5.71163">
        <ele>1598.33</ele>
        <time>2013-04-25T10:04:39Z</time>
      </trkpt>
      <trkpt lat="44.91913" lon="5.71164">
        <ele>1598.81</ele>
        <time>2013-04-25T10:05:02Z</time>
      </trkpt>
      <trkpt lat="44.91913" lon="5.71163">
        <ele>1598.33</ele>
        <time>2013-04-25T10:05:27Z</time>
      </trkpt>
      <trkpt lat="44.91915" lon="5.71165">
        <ele>1598.33</ele>
        <time>2013-04-25T10:05:54Z</time>
      </trkpt>
      <trkpt lat="44.91919" lon="5.71163">
        <ele>1597.85</ele>
        <time>2013-04-25T10:06:14Z</time>
      </trkpt>
      <trkpt lat="44.91916" lon="5.71163">
        <ele>1598.33</ele>
        <time>2013-04-25T10:06:43Z</time>
      </trkpt>
      <trkpt lat="44.91914" lon="5.71164">
        <ele>1597.85</ele>
        <time>2013-04-25T10:06:48Z</time>
      </trkpt>
      <trkpt lat="44.91905" lon="5.71169">
        <ele>1599.29</ele>
        <time>2013-04-25T10:06:58Z</time>
      </trkpt>
      <trkpt lat="44.91894" lon="5.71181">
        <ele>1602.17</ele>
        <time>2013-04-25T10:07:15Z</time>
      </trkpt>
      <trkpt lat="44.91883" lon="5.71194">
        <ele>1604.58</ele>
        <time>2013-04-25T10:07:34Z</time>
      </trkpt>
      <trkpt lat="44.9187" lon="5.71203">
        <ele>1607.46</ele>
        <time>2013-04-25T10:07:53Z</time>
      </trkpt>
      <trkpt lat="44.9186" lon="5.71216">
        <ele>1610.83</ele>
        <time>2013-04-25T10:08:13Z</time>
      </trkpt>
      <trkpt lat="44.91852" lon="5.71223">
        <ele>1613.23</ele>
        <time>2013-04-25T10:08:28Z</time>
      </trkpt>
      <trkpt lat="44.9184" lon="5.7123">
        <ele>1615.15</ele>
        <time>2013-04-25T10:08:47Z</time>
      </trkpt>
      <trkpt lat="44.91829" lon="5.71234">
        <ele>1617.56</ele>
        <time>2013-04-25T10:09:04Z</time>
      </trkpt>
      <trkpt lat="44.91817" lon="5.71243">
        <ele>1620.44</ele>
        <time>2013-04-25T10:09:23Z</time>
      </trkpt>
      <trkpt lat="44.91811" lon="5.71243">
        <ele>1620.92</ele>
        <time>2013-04-25T10:09:28Z</time>
      </trkpt>
      <trkpt lat="44.91805" lon="5.71246">
        <ele>1622.36</ele>
        <time>2013-04-25T10:09:36Z</time>
      </trkpt>
      <trkpt lat="44.91793" lon="5.7125">
        <ele>1625.73</ele>
        <time>2013-04-25T10:09:53Z</time>
      </trkpt>
      <trkpt lat="44.91792" lon="5.7125">
        <ele>1625.73</ele>
        <time>2013-04-25T10:09:54Z</time>
      </trkpt>
      <trkpt lat="44.91789" lon="5.71252">
        <ele>1626.69</ele>
        <time>2013-04-25T10:10:00Z</time>
      </trkpt>
      <trkpt lat="44.91781" lon="5.71254">
        <ele>1628.61</ele>
        <time>2013-04-25T10:10:13Z</time>
      </trkpt>
      <trkpt lat="44.91777" lon="5.71256">
        <ele>1630.53</ele>
        <time>2013-04-25T10:10:19Z</time>
      </trkpt>
      <trkpt lat="44.91771" lon="5.71256">
        <ele>1631.49</ele>
        <time>2013-04-25T10:10:32Z</time>
      </trkpt>
      <trkpt lat="44.91758" lon="5.71258">
        <ele>1634.86</ele>
        <time>2013-04-25T10:10:51Z</time>
      </trkpt>
      <trkpt lat="44.91746" lon="5.7126">
        <ele>1637.26</ele>
        <time>2013-04-25T10:11:10Z</time>
      </trkpt>
      <trkpt lat="44.91745" lon="5.71261">
        <ele>1637.74</ele>
        <time>2013-04-25T10:11:12Z</time>
      </trkpt>
      <trkpt lat="44.91737" lon="5.71265">
        <ele>1639.67</ele>
        <time>2013-04-25T10:11:25Z</time>
      </trkpt>
      <trkpt lat="44.91725" lon="5.71269">
        <ele>1642.55</ele>
        <time>2013-04-25T10:11:43Z</time>
      </trkpt>
      <trkpt lat="44.91711" lon="5.71276">
        <ele>1645.43</ele>
        <time>2013-04-25T10:12:02Z</time>
      </trkpt>
      <trkpt lat="44.91695" lon="5.71284">
        <ele>1648.32</ele>
        <time>2013-04-25T10:12:23Z</time>
      </trkpt>
      <trkpt lat="44.91681" lon="5.71291">
        <ele>1650.72</ele>
        <time>2013-04-25T10:12:42Z</time>
      </trkpt>
      <trkpt lat="44.91667" lon="5.71302">
        <ele>1653.6</ele>
        <time>2013-04-25T10:13:02Z</time>
      </trkpt>
      <trkpt lat="44.91655" lon="5.71311">
        <ele>1656.01</ele>
        <time>2013-04-25T10:13:18Z</time>
      </trkpt>
      <trkpt lat="44.91643" lon="5.7132">
        <ele>1658.89</ele>
        <time>2013-04-25T10:13:35Z</time>
      </trkpt>
      <trkpt lat="44.91629" lon="5.71332">
        <ele>1660.33</ele>
        <time>2013-04-25T10:13:57Z</time>
      </trkpt>
      <trkpt lat="44.91618" lon="5.71341">
        <ele>1663.22</ele>
        <time>2013-04-25T10:14:14Z</time>
      </trkpt>
      <trkpt lat="44.91607" lon="5.71356">
        <ele>1665.62</ele>
        <time>2013-04-25T10:14:36Z</time>
      </trkpt>
      <trkpt lat="44.91598" lon="5.71365">
        <ele>1668.02</ele>
        <time>2013-04-25T10:14:54Z</time>
      </trkpt>
      <trkpt lat="44.91595" lon="5.71373">
        <ele>1669.47</ele>
        <time>2013-04-25T10:15:10Z</time>
      </trkpt>
      <trkpt lat="44.9159" lon="5.71375">
        <ele>1670.91</ele>
        <time>2013-04-25T10:15:27Z</time>
      </trkpt>
      <trkpt lat="44.91582" lon="5.71384">
        <ele>1673.31</ele>
        <time>2013-04-25T10:15:44Z</time>
      </trkpt>
      <trkpt lat="44.91574" lon="5.7139">
        <ele>1676.68</ele>
        <time>2013-04-25T10:15:59Z</time>
      </trkpt>
      <trkpt lat="44.91563" lon="5.71394">
        <ele>1679.08</ele>
        <time>2013-04-25T10:16:15Z</time>
      </trkpt>
      <trkpt lat="44.9155" lon="5.71397">
        <ele>1680.52</ele>
        <time>2013-04-25T10:16:31Z</time>
      </trkpt>
      <trkpt lat="44.91534" lon="5.714">
        <ele>1682.44</ele>
        <time>2013-04-25T10:16:49Z</time>
      </trkpt>
      <trkpt lat="44.91521" lon="5.71409">
        <ele>1684.37</ele>
        <time>2013-04-25T10:17:07Z</time>
      </trkpt>
      <trkpt lat="44.91511" lon="5.71417">
        <ele>1687.73</ele>
        <time>2013-04-25T10:17:24Z</time>
      </trkpt>
      <trkpt lat="44.915" lon="5.71423">
        <ele>1689.65</ele>
        <time>2013-04-25T10:17:41Z</time>
      </trkpt>
      <trkpt lat="44.91486" lon="5.71429">
        <ele>1692.54</ele>
        <time>2013-04-25T10:17:59Z</time>
      </trkpt>
      <trkpt lat="44.91474" lon="5.71437">
        <ele>1694.94</ele>
        <time>2013-04-25T10:18:19Z</time>
      </trkpt>
      <trkpt lat="44.91467" lon="5.71445">
        <ele>1696.86</ele>
        <time>2013-04-25T10:18:38Z</time>
      </trkpt>
      <trkpt lat="44.91468" lon="5.71446">
        <ele>1696.86</ele>
        <time>2013-04-25T10:19:10Z</time>
      </trkpt>
      <trkpt lat="44.91464" lon="5.71451">
        <ele>1698.31</ele>
        <time>2013-04-25T10:19:41Z</time>
      </trkpt>
      <trkpt lat="44.91455" lon="5.71467">
        <ele>1701.67</ele>
        <time>2013-04-25T10:20:01Z</time>
      </trkpt>
      <trkpt lat="44.91442" lon="5.71479">
        <ele>1703.11</ele>
        <time>2013-04-25T10:20:20Z</time>
      </trkpt>
      <trkpt lat="44.91441" lon="5.71479">
        <ele>1704.07</ele>
        <time>2013-04-25T10:20:21Z</time>
      </trkpt>
      <trkpt lat="44.91427" lon="5.71495">
        <ele>1706.96</ele>
        <time>2013-04-25T10:20:43Z</time>
      </trkpt>
      <trkpt lat="44.91426" lon="5.71497">
        <ele>1706.96</ele>
        <time>2013-04-25T10:20:45Z</time>
      </trkpt>
      <trkpt lat="44.91418" lon="5.71509">
        <ele>1708.88</ele>
        <time>2013-04-25T10:21:04Z</time>
      </trkpt>
      <trkpt lat="44.91418" lon="5.71509">
        <ele>1708.88</ele>
        <time>2013-04-25T10:21:33Z</time>
      </trkpt>
      <trkpt lat="44.91416" lon="5.71508">
        <ele>1708.88</ele>
        <time>2013-04-25T10:21:44Z</time>
      </trkpt>
      <trkpt lat="44.91404" lon="5.7152">
        <ele>1710.32</ele>
        <time>2013-04-25T10:22:02Z</time>
      </trkpt>
      <trkpt lat="44.91392" lon="5.71532">
        <ele>1711.76</ele>
        <time>2013-04-25T10:22:18Z</time>
      </trkpt>
      <trkpt lat="44.91379" lon="5.71551">
        <ele>1714.65</ele>
        <time>2013-04-25T10:22:40Z</time>
      </trkpt>
      <trkpt lat="44.91368" lon="5.71565">
        <ele>1716.57</ele>
        <time>2013-04-25T10:22:57Z</time>
      </trkpt>
      <trkpt lat="44.91353" lon="5.71575">
        <ele>1718.49</ele>
        <time>2013-04-25T10:23:16Z</time>
      </trkpt>
      <trkpt lat="44.91336" lon="5.71584">
        <ele>1720.9</ele>
        <time>2013-04-25T10:23:36Z</time>
      </trkpt>
      <trkpt lat="44.91325" lon="5.71587">
        <ele>1721.38</ele>
        <time>2013-04-25T10:23:47Z</time>
      </trkpt>
      <trkpt lat="44.91308" lon="5.71597">
        <ele>1724.26</ele>
        <time>2013-04-25T10:24:06Z</time>
      </trkpt>
      <trkpt lat="44.91299" lon="5.71601">
        <ele>1725.22</ele>
        <time>2013-04-25T10:24:15Z</time>
      </trkpt>
      <trkpt lat="44.91281" lon="5.71611">
        <ele>1725.7</ele>
        <time>2013-04-25T10:24:34Z</time>
      </trkpt>
      <trkpt lat="44.91262" lon="5.71625">
        <ele>1725.22</ele>
        <time>2013-04-25T10:24:55Z</time>
      </trkpt>
      <trkpt lat="44.91244" lon="5.71639">
        <ele>1725.7</ele>
        <time>2013-04-25T10:25:15Z</time>
      </trkpt>
      <trkpt lat="44.91225" lon="5.71654">
        <ele>1727.15</ele>
        <time>2013-04-25T10:25:35Z</time>
      </trkpt>
      <trkpt lat="44.91207" lon="5.71672">
        <ele>1726.67</ele>
        <time>2013-04-25T10:25:56Z</time>
      </trkpt>
      <trkpt lat="44.91192" lon="5.71687">
        <ele>1728.11</ele>
        <time>2013-04-25T10:26:15Z</time>
      </trkpt>
      <trkpt lat="44.9118" lon="5.71699">
        <ele>1730.51</ele>
        <time>2013-04-25T10:26:31Z</time>
      </trkpt>
      <trkpt lat="44.91167" lon="5.7171">
        <ele>1732.43</ele>
        <time>2013-04-25T10:26:48Z</time>
      </trkpt>
      <trkpt lat="44.91151" lon="5.71724">
        <ele>1735.32</ele>
        <time>2013-04-25T10:27:08Z</time>
      </trkpt>
      <trkpt lat="44.91136" lon="5.71737">
        <ele>1736.76</ele>
        <time>2013-04-25T10:27:26Z</time>
      </trkpt>
      <trkpt lat="44.91126" lon="5.71746">
        <ele>1739.64</ele>
        <time>2013-04-25T10:27:41Z</time>
      </trkpt>
      <trkpt lat="44.91116" lon="5.71755">
        <ele>1742.05</ele>
        <time>2013-04-25T10:27:57Z</time>
      </trkpt>
      <trkpt lat="44.91104" lon="5.71765">
        <ele>1744.93</ele>
        <time>2013-04-25T10:28:14Z</time>
      </trkpt>
      <trkpt lat="44.91091" lon="5.71774">
        <ele>1746.85</ele>
        <time>2013-04-25T10:28:31Z</time>
      </trkpt>
      <trkpt lat="44.91077" lon="5.71784">
        <ele>1749.74</ele>
        <time>2013-04-25T10:28:50Z</time>
      </trkpt>
      <trkpt lat="44.91065" lon="5.71794">
        <ele>1751.66</ele>
        <time>2013-04-25T10:29:07Z</time>
      </trkpt>
      <trkpt lat="44.91059" lon="5.71797">
        <ele>1751.66</ele>
        <time>2013-04-25T10:29:14Z</time>
      </trkpt>
      <trkpt lat="44.9105" lon="5.71804">
        <ele>1753.1</ele>
        <time>2013-04-25T10:29:30Z</time>
      </trkpt>
      <trkpt lat="44.91049" lon="5.71805">
        <ele>1753.1</ele>
        <time>2013-04-25T10:30:04Z</time>
      </trkpt>
      <trkpt lat="44.91048" lon="5.71805">
        <ele>1753.58</ele>
        <time>2013-04-25T10:30:37Z</time>
      </trkpt>
      <trkpt lat="44.91039" lon="5.71814">
        <ele>1754.06</ele>
        <time>2013-04-25T10:30:55Z</time>
      </trkpt>
      <trkpt lat="44.91023" lon="5.7183">
        <ele>1753.58</ele>
        <time>2013-04-25T10:31:12Z</time>
      </trkpt>
      <trkpt lat="44.91015" lon="5.71853">
        <ele>1753.1</ele>
        <time>2013-04-25T10:31:29Z</time>
      </trkpt>
      <trkpt lat="44.91011" lon="5.71859">
        <ele>1752.62</ele>
        <time>2013-04-25T10:31:34Z</time>
      </trkpt>
      <trkpt lat="44.90997" lon="5.71881">
        <ele>1751.66</ele>
        <time>2013-04-25T10:31:52Z</time>
      </trkpt>
      <trkpt lat="44.9098" lon="5.71902">
        <ele>1751.18</ele>
        <time>2013-04-25T10:32:12Z</time>
      </trkpt>
      <trkpt lat="44.90969" lon="5.71914">
        <ele>1750.22</ele>
        <time>2013-04-25T10:32:27Z</time>
      </trkpt>
      <trkpt lat="44.90967" lon="5.7192">
        <ele>1750.22</ele>
        <time>2013-04-25T10:32:31Z</time>
      </trkpt>
      <trkpt lat="44.9095" lon="5.71948">
        <ele>1749.74</ele>
        <time>2013-04-25T10:32:52Z</time>
      </trkpt>
      <trkpt lat="44.9094" lon="5.71968">
        <ele>1751.18</ele>
        <time>2013-04-25T10:33:09Z</time>
      </trkpt>
      <trkpt lat="44.90928" lon="5.71989">
        <ele>1752.14</ele>
        <time>2013-04-25T10:33:28Z</time>
      </trkpt>
      <trkpt lat="44.90919" lon="5.72004">
        <ele>1754.06</ele>
        <time>2013-04-25T10:33:43Z</time>
      </trkpt>
      <trkpt lat="44.90911" lon="5.72017">
        <ele>1755.99</ele>
        <time>2013-04-25T10:33:58Z</time>
      </trkpt>
      <trkpt lat="44.90904" lon="5.72034">
        <ele>1757.91</ele>
        <time>2013-04-25T10:34:15Z</time>
      </trkpt>
      <trkpt lat="44.90898" lon="5.72047">
        <ele>1760.31</ele>
        <time>2013-04-25T10:34:29Z</time>
      </trkpt>
      <trkpt lat="44.9089" lon="5.72062">
        <ele>1761.75</ele>
        <time>2013-04-25T10:34:45Z</time>
      </trkpt>
      <trkpt lat="44.90884" lon="5.72072">
        <ele>1762.71</ele>
        <time>2013-04-25T10:34:55Z</time>
      </trkpt>
      <trkpt lat="44.90869" lon="5.72093">
        <ele>1762.71</ele>
        <time>2013-04-25T10:35:15Z</time>
      </trkpt>
      <trkpt lat="44.90868" lon="5.72095">
        <ele>1762.71</ele>
        <time>2013-04-25T10:35:17Z</time>
      </trkpt>
      <trkpt lat="44.9086" lon="5.72105">
        <ele>1762.71</ele>
        <time>2013-04-25T10:35:28Z</time>
      </trkpt>
      <trkpt lat="44.90844" lon="5.72115">
        <ele>1764.64</ele>
        <time>2013-04-25T10:35:47Z</time>
      </trkpt>
      <trkpt lat="44.90827" lon="5.72125">
        <ele>1766.08</ele>
        <time>2013-04-25T10:36:07Z</time>
      </trkpt>
      <trkpt lat="44.90822" lon="5.72127">
        <ele>1767.52</ele>
        <time>2013-04-25T10:36:27Z</time>
      </trkpt>
      <trkpt lat="44.90822" lon="5.72127">
        <ele>1766.56</ele>
        <time>2013-04-25T10:37:03Z</time>
      </trkpt>
      <trkpt lat="44.90823" lon="5.72127">
        <ele>1766.08</ele>
        <time>2013-04-25T10:37:41Z</time>
      </trkpt>
      <trkpt lat="44.90824" lon="5.72129">
        <ele>1766.08</ele>
        <time>2013-04-25T10:37:43Z</time>
      </trkpt>
      <trkpt lat="44.90824" lon="5.72156">
        <ele>1764.64</ele>
        <time>2013-04-25T10:38:04Z</time>
      </trkpt>
      <trkpt lat="44.90825" lon="5.7216">
        <ele>1764.64</ele>
        <time>2013-04-25T10:38:23Z</time>
      </trkpt>
      <trkpt lat="44.90824" lon="5.72161">
        <ele>1765.6</ele>
        <time>2013-04-25T10:38:54Z</time>
      </trkpt>
      <trkpt lat="44.90823" lon="5.7216">
        <ele>1764.16</ele>
        <time>2013-04-25T10:39:17Z</time>
      </trkpt>
      <trkpt lat="44.90824" lon="5.72162">
        <ele>1763.68</ele>
        <time>2013-04-25T10:39:55Z</time>
      </trkpt>
      <trkpt lat="44.90824" lon="5.72161">
        <ele>1764.16</ele>
        <time>2013-04-25T10:40:39Z</time>
      </trkpt>
      <trkpt lat="44.90825" lon="5.72162">
        <ele>1763.68</ele>
        <time>2013-04-25T10:41:28Z</time>
      </trkpt>
      <trkpt lat="44.90826" lon="5.7216">
        <ele>1763.68</ele>
        <time>2013-04-25T10:42:20Z</time>
      </trkpt>
      <trkpt lat="44.90825" lon="5.72163">
        <ele>1763.68</ele>
        <time>2013-04-25T10:42:57Z</time>
      </trkpt>
      <trkpt lat="44.90826" lon="5.72163">
        <ele>1764.16</ele>
        <time>2013-04-25T10:43:44Z</time>
      </trkpt>
      <trkpt lat="44.90826" lon="5.72163">
        <ele>1763.68</ele>
        <time>2013-04-25T10:44:22Z</time>
      </trkpt>
      <trkpt lat="44.90827" lon="5.72163">
        <ele>1763.68</ele>
        <time>2013-04-25T10:45:09Z</time>
      </trkpt>
      <trkpt lat="44.90828" lon="5.72162">
        <ele>1763.68</ele>
        <time>2013-04-25T10:45:53Z</time>
      </trkpt>
      <trkpt lat="44.90825" lon="5.72162">
        <ele>1764.16</ele>
        <time>2013-04-25T10:46:50Z</time>
      </trkpt>
      <trkpt lat="44.90826" lon="5.72163">
        <ele>1763.68</ele>
        <time>2013-04-25T10:47:32Z</time>
      </trkpt>
      <trkpt lat="44.90824" lon="5.72164">
        <ele>1763.68</ele>
        <time>2013-04-25T10:48:24Z</time>
      </trkpt>
      <trkpt lat="44.90824" lon="5.72162">
        <ele>1763.68</ele>
        <time>2013-04-25T10:49:14Z</time>
      </trkpt>
      <trkpt lat="44.90825" lon="5.72163">
        <ele>1763.2</ele>
        <time>2013-04-25T10:50:04Z</time>
      </trkpt>
      <trkpt lat="44.90824" lon="5.72163">
        <ele>1763.68</ele>
        <time>2013-04-25T10:50:54Z</time>
      </trkpt>
      <trkpt lat="44.90823" lon="5.72163">
        <ele>1763.2</ele>
        <time>2013-04-25T10:51:50Z</time>
      </trkpt>
      <trkpt lat="44.90824" lon="5.72162">
        <ele>1763.68</ele>
        <time>2013-04-25T10:52:44Z</time>
      </trkpt>
      <trkpt lat="44.90824" lon="5.72163">
        <ele>1763.2</ele>
        <time>2013-04-25T10:53:41Z</time>
      </trkpt>
      <trkpt lat="44.90826" lon="5.72162">
        <ele>1763.68</ele>
        <time>2013-04-25T10:54:27Z</time>
      </trkpt>
      <trkpt lat="44.90825" lon="5.72163">
        <ele>1763.68</ele>
        <time>2013-04-25T10:55:24Z</time>
      </trkpt>
      <trkpt lat="44.90825" lon="5.72161">
        <ele>1763.2</ele>
        <time>2013-04-25T10:56:19Z</time>
      </trkpt>
      <trkpt lat="44.90826" lon="5.7216">
        <ele>1763.2</ele>
        <time>2013-04-25T10:57:15Z</time>
      </trkpt>
      <trkpt lat="44.90824" lon="5.7216">
        <ele>1763.2</ele>
        <time>2013-04-25T10:58:13Z</time>
      </trkpt>
      <trkpt lat="44.90824" lon="5.7216">
        <ele>1763.2</ele>
        <time>2013-04-25T10:59:07Z</time>
      </trkpt>
      <trkpt lat="44.90824" lon="5.72159">
        <ele>1763.2</ele>
        <time>2013-04-25T11:00:12Z</time>
      </trkpt>
      <trkpt lat="44.90824" lon="5.72159">
        <ele>1763.68</ele>
        <time>2013-04-25T11:01:06Z</time>
      </trkpt>
      <trkpt lat="44.90823" lon="5.72159">
        <ele>1763.2</ele>
        <time>2013-04-25T11:02:14Z</time>
      </trkpt>
      <trkpt lat="44.90823" lon="5.72159">
        <ele>1764.16</ele>
        <time>2013-04-25T11:03:09Z</time>
      </trkpt>
      <trkpt lat="44.90823" lon="5.72158">
        <ele>1764.16</ele>
        <time>2013-04-25T11:04:06Z</time>
      </trkpt>
      <trkpt lat="44.90822" lon="5.72159">
        <ele>1764.16</ele>
        <time>2013-04-25T11:04:52Z</time>
      </trkpt>
      <trkpt lat="44.90822" lon="5.72159">
        <ele>1764.64</ele>
        <time>2013-04-25T11:05:37Z</time>
      </trkpt>
      <trkpt lat="44.90823" lon="5.7216">
        <ele>1764.64</ele>
        <time>2013-04-25T11:06:22Z</time>
      </trkpt>
      <trkpt lat="44.90823" lon="5.7216">
        <ele>1765.12</ele>
        <time>2013-04-25T11:07:11Z</time>
      </trkpt>
      <trkpt lat="44.90824" lon="5.72163">
        <ele>1764.64</ele>
        <time>2013-04-25T11:07:53Z</time>
      </trkpt>
      <trkpt lat="44.90824" lon="5.72163">
        <ele>1765.12</ele>
        <time>2013-04-25T11:08:30Z</time>
      </trkpt>
      <trkpt lat="44.90825" lon="5.72163">
        <ele>1765.6</ele>
        <time>2013-04-25T11:09:15Z</time>
      </trkpt>
      <trkpt lat="44.90825" lon="5.72163">
        <ele>1766.08</ele>
        <time>2013-04-25T11:10:04Z</time>
      </trkpt>
      <trkpt lat="44.90826" lon="5.72162">
        <ele>1765.12</ele>
        <time>2013-04-25T11:10:44Z</time>
      </trkpt>
      <trkpt lat="44.90824" lon="5.72161">
        <ele>1765.12</ele>
        <time>2013-04-25T11:11:27Z</time>
      </trkpt>
      <trkpt lat="44.90824" lon="5.72163">
        <ele>1765.6</ele>
        <time>2013-04-25T11:12:07Z</time>
      </trkpt>
      <trkpt lat="44.90823" lon="5.72163">
        <ele>1765.12</ele>
        <time>2013-04-25T11:12:52Z</time>
      </trkpt>
      <trkpt lat="44.90822" lon="5.72161">
        <ele>1765.12</ele>
        <time>2013-04-25T11:13:32Z</time>
      </trkpt>
      <trkpt lat="44.90823" lon="5.72161">
        <ele>1765.6</ele>
        <time>2013-04-25T11:14:13Z</time>
      </trkpt>
      <trkpt lat="44.90823" lon="5.72162">
        <ele>1765.12</ele>
        <time>2013-04-25T11:15:06Z</time>
      </trkpt>
      <trkpt lat="44.90822" lon="5.7216">
        <ele>1766.08</ele>
        <time>2013-04-25T11:15:53Z</time>
      </trkpt>
      <trkpt lat="44.90823" lon="5.7216">
        <ele>1766.56</ele>
        <time>2013-04-25T11:16:40Z</time>
      </trkpt>
      <trkpt lat="44.90824" lon="5.72161">
        <ele>1766.08</ele>
        <time>2013-04-25T11:17:27Z</time>
      </trkpt>
      <trkpt lat="44.90824" lon="5.7216">
        <ele>1766.08</ele>
        <time>2013-04-25T11:18:37Z</time>
      </trkpt>
      <trkpt lat="44.90824" lon="5.7216">
        <ele>1765.6</ele>
        <time>2013-04-25T11:19:25Z</time>
      </trkpt>
      <trkpt lat="44.90824" lon="5.7216">
        <ele>1766.56</ele>
        <time>2013-04-25T11:20:31Z</time>
      </trkpt>
      <trkpt lat="44.90824" lon="5.7216">
        <ele>1765.6</ele>
        <time>2013-04-25T11:21:24Z</time>
      </trkpt>
      <trkpt lat="44.90824" lon="5.7216">
        <ele>1765.6</ele>
        <time>2013-04-25T11:22:23Z</time>
      </trkpt>
      <trkpt lat="44.90824" lon="5.7216">
        <ele>1765.12</ele>
        <time>2013-04-25T11:23:17Z</time>
      </trkpt>
      <trkpt lat="44.90824" lon="5.72159">
        <ele>1765.12</ele>
        <time>2013-04-25T11:24:09Z</time>
      </trkpt>
      <trkpt lat="44.90824" lon="5.7216">
        <ele>1765.6</ele>
        <time>2013-04-25T11:25:20Z</time>
      </trkpt>
      <trkpt lat="44.90824" lon="5.72159">
        <ele>1765.6</ele>
        <time>2013-04-25T11:26:17Z</time>
      </trkpt>
      <trkpt lat="44.90824" lon="5.72159">
        <ele>1765.6</ele>
        <time>2013-04-25T11:27:17Z</time>
      </trkpt>
      <trkpt lat="44.90824" lon="5.7216">
        <ele>1766.08</ele>
        <time>2013-04-25T11:28:01Z</time>
      </trkpt>
      <trkpt lat="44.90824" lon="5.7216">
        <ele>1765.12</ele>
        <time>2013-04-25T11:28:47Z</time>
      </trkpt>
      <trkpt lat="44.90824" lon="5.72159">
        <ele>1765.12</ele>
        <time>2013-04-25T11:30:01Z</time>
      </trkpt>
      <trkpt lat="44.90824" lon="5.7216">
        <ele>1765.6</ele>
        <time>2013-04-25T11:30:45Z</time>
      </trkpt>
      <trkpt lat="44.90824" lon="5.72158">
        <ele>1765.12</ele>
        <time>2013-04-25T11:31:38Z</time>
      </trkpt>
      <trkpt lat="44.90824" lon="5.72159">
        <ele>1765.6</ele>
        <time>2013-04-25T11:32:21Z</time>
      </trkpt>
      <trkpt lat="44.90824" lon="5.7216">
        <ele>1765.6</ele>
        <time>2013-04-25T11:33:14Z</time>
      </trkpt>
      <trkpt lat="44.90825" lon="5.72157">
        <ele>1765.12</ele>
        <time>2013-04-25T11:34:04Z</time>
      </trkpt>
      <trkpt lat="44.90824" lon="5.72156">
        <ele>1766.08</ele>
        <time>2013-04-25T11:34:54Z</time>
      </trkpt>
      <trkpt lat="44.90824" lon="5.72158">
        <ele>1765.6</ele>
        <time>2013-04-25T11:35:44Z</time>
      </trkpt>
      <trkpt lat="44.90824" lon="5.72158">
        <ele>1765.12</ele>
        <time>2013-04-25T11:36:23Z</time>
      </trkpt>
      <trkpt lat="44.90824" lon="5.72157">
        <ele>1766.08</ele>
        <time>2013-04-25T11:37:06Z</time>
      </trkpt>
      <trkpt lat="44.90824" lon="5.72157">
        <ele>1764.64</ele>
        <time>2013-04-25T11:37:55Z</time>
      </trkpt>
      <trkpt lat="44.90824" lon="5.72159">
        <ele>1764.64</ele>
        <time>2013-04-25T11:38:35Z</time>
      </trkpt>
      <trkpt lat="44.90824" lon="5.72157">
        <ele>1765.12</ele>
        <time>2013-04-25T11:39:28Z</time>
      </trkpt>
      <trkpt lat="44.90824" lon="5.72158">
        <ele>1764.16</ele>
        <time>2013-04-25T11:40:25Z</time>
      </trkpt>
      <trkpt lat="44.90824" lon="5.72158">
        <ele>1764.16</ele>
        <time>2013-04-25T11:41:19Z</time>
      </trkpt>
      <trkpt lat="44.90824" lon="5.72159">
        <ele>1764.64</ele>
        <time>2013-04-25T11:42:17Z</time>
      </trkpt>
      <trkpt lat="44.90824" lon="5.72159">
        <ele>1764.64</ele>
        <time>2013-04-25T11:43:03Z</time>
      </trkpt>
      <trkpt lat="44.90824" lon="5.72159">
        <ele>1765.12</ele>
        <time>2013-04-25T11:44:02Z</time>
      </trkpt>
      <trkpt lat="44.90824" lon="5.7216">
        <ele>1764.64</ele>
        <time>2013-04-25T11:44:44Z</time>
      </trkpt>
      <trkpt lat="44.90824" lon="5.7216">
        <ele>1764.64</ele>
        <time>2013-04-25T11:45:46Z</time>
      </trkpt>
      <trkpt lat="44.90824" lon="5.7216">
        <ele>1764.64</ele>
        <time>2013-04-25T11:46:38Z</time>
      </trkpt>
      <trkpt lat="44.90824" lon="5.7216">
        <ele>1764.64</ele>
        <time>2013-04-25T11:47:20Z</time>
      </trkpt>
      <trkpt lat="44.90823" lon="5.7216">
        <ele>1764.16</ele>
        <time>2013-04-25T11:48:15Z</time>
      </trkpt>
      <trkpt lat="44.90824" lon="5.7216">
        <ele>1765.12</ele>
        <time>2013-04-25T11:49:06Z</time>
      </trkpt>
      <trkpt lat="44.90823" lon="5.7216">
        <ele>1764.64</ele>
        <time>2013-04-25T11:49:53Z</time>
      </trkpt>
      <trkpt lat="44.90823" lon="5.7216">
        <ele>1764.64</ele>
        <time>2013-04-25T11:50:31Z</time>
      </trkpt>
      <trkpt lat="44.90823" lon="5.72162">
        <ele>1765.6</ele>
        <time>2013-04-25T11:50:57Z</time>
      </trkpt>
      <trkpt lat="44.90823" lon="5.72161">
        <ele>1766.56</ele>
        <time>2013-04-25T11:50:59Z</time>
      </trkpt>
      <trkpt lat="44.90822" lon="5.72163">
        <ele>1768</ele>
        <time>2013-04-25T11:51:24Z</time>
      </trkpt>
      <trkpt lat="44.90822" lon="5.7216">
        <ele>1766.08</ele>
        <time>2013-04-25T11:51:44Z</time>
      </trkpt>
      <trkpt lat="44.90822" lon="5.72159">
        <ele>1764.64</ele>
        <time>2013-04-25T11:52:13Z</time>
      </trkpt>
      <trkpt lat="44.90821" lon="5.7216">
        <ele>1764.16</ele>
        <time>2013-04-25T11:53:04Z</time>
      </trkpt>
      <trkpt lat="44.90821" lon="5.7216">
        <ele>1765.12</ele>
        <time>2013-04-25T11:53:33Z</time>
      </trkpt>
      <trkpt lat="44.90822" lon="5.7216">
        <ele>1764.64</ele>
        <time>2013-04-25T11:54:03Z</time>
      </trkpt>
      <trkpt lat="44.90822" lon="5.7216">
        <ele>1765.6</ele>
        <time>2013-04-25T11:54:34Z</time>
      </trkpt>
      <trkpt lat="44.90821" lon="5.72158">
        <ele>1765.6</ele>
        <time>2013-04-25T11:54:58Z</time>
      </trkpt>
      <trkpt lat="44.90823" lon="5.72159">
        <ele>1765.12</ele>
        <time>2013-04-25T11:55:36Z</time>
      </trkpt>
      <trkpt lat="44.90821" lon="5.72159">
        <ele>1765.12</ele>
        <time>2013-04-25T11:55:59Z</time>
      </trkpt>
      <trkpt lat="44.90817" lon="5.72154">
        <ele>1765.6</ele>
        <time>2013-04-25T11:56:16Z</time>
      </trkpt>
      <trkpt lat="44.9081" lon="5.72148">
        <ele>1765.6</ele>
        <time>2013-04-25T11:56:26Z</time>
      </trkpt>
      <trkpt lat="44.90797" lon="5.72139">
        <ele>1765.6</ele>
        <time>2013-04-25T11:56:44Z</time>
      </trkpt>
      <trkpt lat="44.90787" lon="5.72138">
        <ele>1765.6</ele>
        <time>2013-04-25T11:56:59Z</time>
      </trkpt>
      <trkpt lat="44.90775" lon="5.72143">
        <ele>1764.64</ele>
        <time>2013-04-25T11:57:17Z</time>
      </trkpt>
      <trkpt lat="44.90763" lon="5.72161">
        <ele>1761.75</ele>
        <time>2013-04-25T11:57:39Z</time>
      </trkpt>
      <trkpt lat="44.90751" lon="5.72174">
        <ele>1758.39</ele>
        <time>2013-04-25T11:57:57Z</time>
      </trkpt>
      <trkpt lat="44.90742" lon="5.7219">
        <ele>1756.47</ele>
        <time>2013-04-25T11:58:16Z</time>
      </trkpt>
      <trkpt lat="44.9074" lon="5.72196">
        <ele>1756.95</ele>
        <time>2013-04-25T11:58:21Z</time>
      </trkpt>
      <trkpt lat="44.90738" lon="5.72218">
        <ele>1755.99</ele>
        <time>2013-04-25T11:58:42Z</time>
      </trkpt>
      <trkpt lat="44.90741" lon="5.72227">
        <ele>1753.58</ele>
        <time>2013-04-25T11:58:53Z</time>
      </trkpt>
      <trkpt lat="44.90745" lon="5.7224">
        <ele>1750.22</ele>
        <time>2013-04-25T11:59:06Z</time>
      </trkpt>
      <trkpt lat="44.90749" lon="5.72254">
        <ele>1746.85</ele>
        <time>2013-04-25T11:59:18Z</time>
      </trkpt>
      <trkpt lat="44.90752" lon="5.72262">
        <ele>1744.45</ele>
        <time>2013-04-25T11:59:26Z</time>
      </trkpt>
      <trkpt lat="44.90757" lon="5.72275">
        <ele>1741.57</ele>
        <time>2013-04-25T11:59:39Z</time>
      </trkpt>
      <trkpt lat="44.90761" lon="5.72284">
        <ele>1739.16</ele>
        <time>2013-04-25T11:59:48Z</time>
      </trkpt>
      <trkpt lat="44.90763" lon="5.72293">
        <ele>1736.28</ele>
        <time>2013-04-25T11:59:57Z</time>
      </trkpt>
      <trkpt lat="44.90765" lon="5.72303">
        <ele>1733.39</ele>
        <time>2013-04-25T12:00:06Z</time>
      </trkpt>
      <trkpt lat="44.90766" lon="5.72307">
        <ele>1732.91</ele>
        <time>2013-04-25T12:00:20Z</time>
      </trkpt>
      <trkpt lat="44.90767" lon="5.72318">
        <ele>1729.55</ele>
        <time>2013-04-25T12:00:45Z</time>
      </trkpt>
      <trkpt lat="44.90768" lon="5.7233">
        <ele>1726.67</ele>
        <time>2013-04-25T12:00:57Z</time>
      </trkpt>
      <trkpt lat="44.90769" lon="5.72342">
        <ele>1722.82</ele>
        <time>2013-04-25T12:01:09Z</time>
      </trkpt>
      <trkpt lat="44.9077" lon="5.72349">
        <ele>1719.94</ele>
        <time>2013-04-25T12:01:17Z</time>
      </trkpt>
      <trkpt lat="44.90774" lon="5.72358">
        <ele>1717.05</ele>
        <time>2013-04-25T12:01:26Z</time>
      </trkpt>
      <trkpt lat="44.90776" lon="5.72368">
        <ele>1713.69</ele>
        <time>2013-04-25T12:01:36Z</time>
      </trkpt>
      <trkpt lat="44.90779" lon="5.72369">
        <ele>1713.69</ele>
        <time>2013-04-25T12:01:41Z</time>
      </trkpt>
      <trkpt lat="44.90789" lon="5.72376">
        <ele>1710.8</ele>
        <time>2013-04-25T12:01:58Z</time>
      </trkpt>
      <trkpt lat="44.90794" lon="5.72385">
        <ele>1707.92</ele>
        <time>2013-04-25T12:02:09Z</time>
      </trkpt>
      <trkpt lat="44.90798" lon="5.72391">
        <ele>1704.55</ele>
        <time>2013-04-25T12:02:19Z</time>
      </trkpt>
      <trkpt lat="44.90804" lon="5.724">
        <ele>1701.19</ele>
        <time>2013-04-25T12:02:29Z</time>
      </trkpt>
      <trkpt lat="44.90804" lon="5.724">
        <ele>1700.23</ele>
        <time>2013-04-25T12:02:30Z</time>
      </trkpt>
      <trkpt lat="44.90808" lon="5.72405">
        <ele>1698.31</ele>
        <time>2013-04-25T12:02:38Z</time>
      </trkpt>
      <trkpt lat="44.90816" lon="5.72413">
        <ele>1694.94</ele>
        <time>2013-04-25T12:02:51Z</time>
      </trkpt>
      <trkpt lat="44.90816" lon="5.72413">
        <ele>1694.46</ele>
        <time>2013-04-25T12:02:52Z</time>
      </trkpt>
      <trkpt lat="44.9082" lon="5.72414">
        <ele>1692.54</ele>
        <time>2013-04-25T12:03:02Z</time>
      </trkpt>
      <trkpt lat="44.90828" lon="5.72421">
        <ele>1689.17</ele>
        <time>2013-04-25T12:03:15Z</time>
      </trkpt>
      <trkpt lat="44.90832" lon="5.7243">
        <ele>1686.29</ele>
        <time>2013-04-25T12:03:25Z</time>
      </trkpt>
      <trkpt lat="44.90838" lon="5.72435">
        <ele>1682.93</ele>
        <time>2013-04-25T12:03:35Z</time>
      </trkpt>
      <trkpt lat="44.90838" lon="5.72435">
        <ele>1682.93</ele>
        <time>2013-04-25T12:03:36Z</time>
      </trkpt>
      <trkpt lat="44.90843" lon="5.72441">
        <ele>1680.04</ele>
        <time>2013-04-25T12:03:47Z</time>
      </trkpt>
      <trkpt lat="44.90843" lon="5.72443">
        <ele>1679.08</ele>
        <time>2013-04-25T12:04:06Z</time>
      </trkpt>
      <trkpt lat="44.90852" lon="5.72449">
        <ele>1677.64</ele>
        <time>2013-04-25T12:04:22Z</time>
      </trkpt>
      <trkpt lat="44.90854" lon="5.7245">
        <ele>1677.16</ele>
        <time>2013-04-25T12:04:24Z</time>
      </trkpt>
      <trkpt lat="44.90862" lon="5.72453">
        <ele>1673.79</ele>
        <time>2013-04-25T12:04:39Z</time>
      </trkpt>
      <trkpt lat="44.90867" lon="5.72455">
        <ele>1670.43</ele>
        <time>2013-04-25T12:04:51Z</time>
      </trkpt>
      <trkpt lat="44.90875" lon="5.72464">
        <ele>1667.54</ele>
        <time>2013-04-25T12:05:06Z</time>
      </trkpt>
      <trkpt lat="44.9088" lon="5.72467">
        <ele>1665.62</ele>
        <time>2013-04-25T12:05:16Z</time>
      </trkpt>
      <trkpt lat="44.90886" lon="5.72472">
        <ele>1663.22</ele>
        <time>2013-04-25T12:05:27Z</time>
      </trkpt>
      <trkpt lat="44.90888" lon="5.72472">
        <ele>1662.26</ele>
        <time>2013-04-25T12:05:30Z</time>
      </trkpt>
      <trkpt lat="44.90899" lon="5.72479">
        <ele>1658.41</ele>
        <time>2013-04-25T12:05:44Z</time>
      </trkpt>
      <trkpt lat="44.90906" lon="5.72486">
        <ele>1655.05</ele>
        <time>2013-04-25T12:05:57Z</time>
      </trkpt>
      <trkpt lat="44.90912" lon="5.72492">
        <ele>1652.16</ele>
        <time>2013-04-25T12:06:10Z</time>
      </trkpt>
      <trkpt lat="44.90918" lon="5.72497">
        <ele>1649.28</ele>
        <time>2013-04-25T12:06:28Z</time>
      </trkpt>
      <trkpt lat="44.90918" lon="5.72498">
        <ele>1648.8</ele>
        <time>2013-04-25T12:06:29Z</time>
      </trkpt>
      <trkpt lat="44.90919" lon="5.72501">
        <ele>1647.36</ele>
        <time>2013-04-25T12:06:35Z</time>
      </trkpt>
      <trkpt lat="44.9092" lon="5.72502">
        <ele>1645.91</ele>
        <time>2013-04-25T12:06:36Z</time>
      </trkpt>
      <trkpt lat="44.90919" lon="5.72507">
        <ele>1644.47</ele>
        <time>2013-04-25T12:06:40Z</time>
      </trkpt>
      <trkpt lat="44.90927" lon="5.7251">
        <ele>1642.07</ele>
        <time>2013-04-25T12:06:52Z</time>
      </trkpt>
      <trkpt lat="44.90931" lon="5.72509">
        <ele>1641.11</ele>
        <time>2013-04-25T12:06:59Z</time>
      </trkpt>
      <trkpt lat="44.90933" lon="5.7251">
        <ele>1640.63</ele>
        <time>2013-04-25T12:07:01Z</time>
      </trkpt>
      <trkpt lat="44.90946" lon="5.72509">
        <ele>1636.78</ele>
        <time>2013-04-25T12:07:21Z</time>
      </trkpt>
      <trkpt lat="44.9096" lon="5.72516">
        <ele>1633.9</ele>
        <time>2013-04-25T12:07:38Z</time>
      </trkpt>
      <trkpt lat="44.9097" lon="5.72527">
        <ele>1630.53</ele>
        <time>2013-04-25T12:07:51Z</time>
      </trkpt>
      <trkpt lat="44.9098" lon="5.72538">
        <ele>1627.17</ele>
        <time>2013-04-25T12:08:06Z</time>
      </trkpt>
      <trkpt lat="44.90983" lon="5.72541">
        <ele>1626.21</ele>
        <time>2013-04-25T12:08:12Z</time>
      </trkpt>
      <trkpt lat="44.90992" lon="5.72553">
        <ele>1622.84</ele>
        <time>2013-04-25T12:08:26Z</time>
      </trkpt>
      <trkpt lat="44.90993" lon="5.72553">
        <ele>1622.84</ele>
        <time>2013-04-25T12:08:27Z</time>
      </trkpt>
      <trkpt lat="44.91001" lon="5.72565">
        <ele>1621.88</ele>
        <time>2013-04-25T12:08:43Z</time>
      </trkpt>
      <trkpt lat="44.91001" lon="5.72567">
        <ele>1620.44</ele>
        <time>2013-04-25T12:09:03Z</time>
      </trkpt>
      <trkpt lat="44.91005" lon="5.72566">
        <ele>1620.44</ele>
        <time>2013-04-25T12:09:25Z</time>
      </trkpt>
      <trkpt lat="44.91008" lon="5.72563">
        <ele>1620.44</ele>
        <time>2013-04-25T12:09:29Z</time>
      </trkpt>
      <trkpt lat="44.91012" lon="5.72566">
        <ele>1619.96</ele>
        <time>2013-04-25T12:09:33Z</time>
      </trkpt>
      <trkpt lat="44.91025" lon="5.72577">
        <ele>1620.44</ele>
        <time>2013-04-25T12:09:51Z</time>
      </trkpt>
      <trkpt lat="44.91026" lon="5.72576">
        <ele>1620.92</ele>
        <time>2013-04-25T12:10:22Z</time>
      </trkpt>
      <trkpt lat="44.91025" lon="5.72576">
        <ele>1620.44</ele>
        <time>2013-04-25T12:11:01Z</time>
      </trkpt>
      <trkpt lat="44.91028" lon="5.72578">
        <ele>1620.44</ele>
        <time>2013-04-25T12:11:22Z</time>
      </trkpt>
      <trkpt lat="44.91025" lon="5.72579">
        <ele>1619.96</ele>
        <time>2013-04-25T12:11:38Z</time>
      </trkpt>
      <trkpt lat="44.91022" lon="5.7258">
        <ele>1620.44</ele>
        <time>2013-04-25T12:11:59Z</time>
      </trkpt>
      <trkpt lat="44.91022" lon="5.7258">
        <ele>1620.44</ele>
        <time>2013-04-25T12:12:20Z</time>
      </trkpt>
      <trkpt lat="44.91021" lon="5.7258">
        <ele>1619.96</ele>
        <time>2013-04-25T12:12:49Z</time>
      </trkpt>
      <trkpt lat="44.91016" lon="5.72587">
        <ele>1616.59</ele>
        <time>2013-04-25T12:13:05Z</time>
      </trkpt>
      <trkpt lat="44.91015" lon="5.72587">
        <ele>1616.59</ele>
        <time>2013-04-25T12:13:06Z</time>
      </trkpt>
      <trkpt lat="44.91012" lon="5.72588">
        <ele>1614.67</ele>
        <time>2013-04-25T12:13:13Z</time>
      </trkpt>
      <trkpt lat="44.91012" lon="5.72591">
        <ele>1614.19</ele>
        <time>2013-04-25T12:13:15Z</time>
      </trkpt>
      <trkpt lat="44.91013" lon="5.72596">
        <ele>1613.71</ele>
        <time>2013-04-25T12:13:19Z</time>
      </trkpt>
      <trkpt lat="44.9102" lon="5.72607">
        <ele>1610.35</ele>
        <time>2013-04-25T12:13:31Z</time>
      </trkpt>
      <trkpt lat="44.91023" lon="5.72622">
        <ele>1607.94</ele>
        <time>2013-04-25T12:13:43Z</time>
      </trkpt>
      <trkpt lat="44.91023" lon="5.72636">
        <ele>1607.94</ele>
        <time>2013-04-25T12:13:54Z</time>
      </trkpt>
      <trkpt lat="44.91029" lon="5.72656">
        <ele>1605.06</ele>
        <time>2013-04-25T12:14:09Z</time>
      </trkpt>
      <trkpt lat="44.91031" lon="5.72668">
        <ele>1601.69</ele>
        <time>2013-04-25T12:14:25Z</time>
      </trkpt>
      <trkpt lat="44.91032" lon="5.72672">
        <ele>1599.77</ele>
        <time>2013-04-25T12:14:39Z</time>
      </trkpt>
      <trkpt lat="44.91033" lon="5.72674">
        <ele>1598.33</ele>
        <time>2013-04-25T12:14:43Z</time>
      </trkpt>
      <trkpt lat="44.91034" lon="5.72675">
        <ele>1596.41</ele>
        <time>2013-04-25T12:14:48Z</time>
      </trkpt>
      <trkpt lat="44.91039" lon="5.72678">
        <ele>1593.52</ele>
        <time>2013-04-25T12:14:56Z</time>
      </trkpt>
      <trkpt lat="44.91043" lon="5.72681">
        <ele>1590.16</ele>
        <time>2013-04-25T12:15:07Z</time>
      </trkpt>
      <trkpt lat="44.91044" lon="5.72682">
        <ele>1589.68</ele>
        <time>2013-04-25T12:15:09Z</time>
      </trkpt>
      <trkpt lat="44.91047" lon="5.72683">
        <ele>1587.75</ele>
        <time>2013-04-25T12:15:13Z</time>
      </trkpt>
      <trkpt lat="44.91052" lon="5.72687">
        <ele>1584.39</ele>
        <time>2013-04-25T12:15:25Z</time>
      </trkpt>
      <trkpt lat="44.91059" lon="5.72688">
        <ele>1581.03</ele>
        <time>2013-04-25T12:15:36Z</time>
      </trkpt>
      <trkpt lat="44.91059" lon="5.72698">
        <ele>1578.14</ele>
        <time>2013-04-25T12:15:49Z</time>
      </trkpt>
      <trkpt lat="44.91059" lon="5.72701">
        <ele>1577.18</ele>
        <time>2013-04-25T12:15:51Z</time>
      </trkpt>
      <trkpt lat="44.91056" lon="5.72709">
        <ele>1573.33</ele>
        <time>2013-04-25T12:16:04Z</time>
      </trkpt>
      <trkpt lat="44.91055" lon="5.72718">
        <ele>1570.45</ele>
        <time>2013-04-25T12:16:14Z</time>
      </trkpt>
      <trkpt lat="44.91053" lon="5.72719">
        <ele>1569.49</ele>
        <time>2013-04-25T12:16:17Z</time>
      </trkpt>
      <trkpt lat="44.9105" lon="5.72726">
        <ele>1568.05</ele>
        <time>2013-04-25T12:16:23Z</time>
      </trkpt>
      <trkpt lat="44.9105" lon="5.72727">
        <ele>1567.57</ele>
        <time>2013-04-25T12:16:40Z</time>
      </trkpt>
      <trkpt lat="44.91051" lon="5.72732">
        <ele>1566.61</ele>
        <time>2013-04-25T12:17:05Z</time>
      </trkpt>
      <trkpt lat="44.9105" lon="5.72742">
        <ele>1563.72</ele>
        <time>2013-04-25T12:17:22Z</time>
      </trkpt>
      <trkpt lat="44.91051" lon="5.72756">
        <ele>1560.36</ele>
        <time>2013-04-25T12:17:41Z</time>
      </trkpt>
      <trkpt lat="44.91055" lon="5.72766">
        <ele>1557.47</ele>
        <time>2013-04-25T12:17:54Z</time>
      </trkpt>
      <trkpt lat="44.91057" lon="5.72769">
        <ele>1556.51</ele>
        <time>2013-04-25T12:17:58Z</time>
      </trkpt>
      <trkpt lat="44.91066" lon="5.72782">
        <ele>1552.67</ele>
        <time>2013-04-25T12:18:12Z</time>
      </trkpt>
      <trkpt lat="44.9108" lon="5.72797">
        <ele>1551.22</ele>
        <time>2013-04-25T12:18:29Z</time>
      </trkpt>
      <trkpt lat="44.91087" lon="5.72802">
        <ele>1549.3</ele>
        <time>2013-04-25T12:18:38Z</time>
      </trkpt>
      <trkpt lat="44.911" lon="5.72811">
        <ele>1545.94</ele>
        <time>2013-04-25T12:18:53Z</time>
      </trkpt>
      <trkpt lat="44.91101" lon="5.72812">
        <ele>1545.94</ele>
        <time>2013-04-25T12:18:55Z</time>
      </trkpt>
      <trkpt lat="44.91103" lon="5.72814">
        <ele>1545.46</ele>
        <time>2013-04-25T12:18:57Z</time>
      </trkpt>
      <trkpt lat="44.91116" lon="5.72825">
        <ele>1542.57</ele>
        <time>2013-04-25T12:19:12Z</time>
      </trkpt>
      <trkpt lat="44.91119" lon="5.72826">
        <ele>1542.57</ele>
        <time>2013-04-25T12:19:16Z</time>
      </trkpt>
      <trkpt lat="44.91131" lon="5.72837">
        <ele>1540.17</ele>
        <time>2013-04-25T12:19:33Z</time>
      </trkpt>
      <trkpt lat="44.91133" lon="5.72841">
        <ele>1539.69</ele>
        <time>2013-04-25T12:19:37Z</time>
      </trkpt>
      <trkpt lat="44.91136" lon="5.72845">
        <ele>1539.69</ele>
        <time>2013-04-25T12:19:41Z</time>
      </trkpt>
      <trkpt lat="44.91148" lon="5.72859">
        <ele>1536.8</ele>
        <time>2013-04-25T12:19:57Z</time>
      </trkpt>
      <trkpt lat="44.91161" lon="5.72874">
        <ele>1535.36</ele>
        <time>2013-04-25T12:20:13Z</time>
      </trkpt>
      <trkpt lat="44.91169" lon="5.72887">
        <ele>1536.32</ele>
        <time>2013-04-25T12:20:27Z</time>
      </trkpt>
      <trkpt lat="44.91168" lon="5.72901">
        <ele>1537.77</ele>
        <time>2013-04-25T12:20:41Z</time>
      </trkpt>
      <trkpt lat="44.91165" lon="5.72915">
        <ele>1539.69</ele>
        <time>2013-04-25T12:20:56Z</time>
      </trkpt>
      <trkpt lat="44.91164" lon="5.72926">
        <ele>1541.13</ele>
        <time>2013-04-25T12:21:08Z</time>
      </trkpt>
      <trkpt lat="44.91161" lon="5.72942">
        <ele>1543.53</ele>
        <time>2013-04-25T12:21:26Z</time>
      </trkpt>
      <trkpt lat="44.91156" lon="5.72956">
        <ele>1545.94</ele>
        <time>2013-04-25T12:21:45Z</time>
      </trkpt>
      <trkpt lat="44.91152" lon="5.7297">
        <ele>1547.86</ele>
        <time>2013-04-25T12:22:02Z</time>
      </trkpt>
      <trkpt lat="44.91149" lon="5.72988">
        <ele>1550.74</ele>
        <time>2013-04-25T12:22:22Z</time>
      </trkpt>
      <trkpt lat="44.91151" lon="5.73012">
        <ele>1552.19</ele>
        <time>2013-04-25T12:22:44Z</time>
      </trkpt>
      <trkpt lat="44.91151" lon="5.73013">
        <ele>1551.71</ele>
        <time>2013-04-25T12:22:45Z</time>
      </trkpt>
      <trkpt lat="44.91154" lon="5.73038">
        <ele>1553.15</ele>
        <time>2013-04-25T12:23:06Z</time>
      </trkpt>
      <trkpt lat="44.91157" lon="5.7306">
        <ele>1553.63</ele>
        <time>2013-04-25T12:23:25Z</time>
      </trkpt>
      <trkpt lat="44.91163" lon="5.73081">
        <ele>1550.74</ele>
        <time>2013-04-25T12:23:43Z</time>
      </trkpt>
      <trkpt lat="44.91166" lon="5.73103">
        <ele>1550.26</ele>
        <time>2013-04-25T12:24:00Z</time>
      </trkpt>
      <trkpt lat="44.91167" lon="5.7311">
        <ele>1550.26</ele>
        <time>2013-04-25T12:24:05Z</time>
      </trkpt>
      <trkpt lat="44.91167" lon="5.73114">
        <ele>1550.26</ele>
        <time>2013-04-25T12:24:08Z</time>
      </trkpt>
      <trkpt lat="44.91172" lon="5.73139">
        <ele>1551.71</ele>
        <time>2013-04-25T12:24:28Z</time>
      </trkpt>
      <trkpt lat="44.91173" lon="5.73143">
        <ele>1552.19</ele>
        <time>2013-04-25T12:24:32Z</time>
      </trkpt>
      <trkpt lat="44.91175" lon="5.73151">
        <ele>1553.15</ele>
        <time>2013-04-25T12:24:39Z</time>
      </trkpt>
      <trkpt lat="44.91179" lon="5.73169">
        <ele>1555.55</ele>
        <time>2013-04-25T12:24:57Z</time>
      </trkpt>
      <trkpt lat="44.9118" lon="5.73172">
        <ele>1556.03</ele>
        <time>2013-04-25T12:24:59Z</time>
      </trkpt>
      <trkpt lat="44.91181" lon="5.73181">
        <ele>1556.99</ele>
        <time>2013-04-25T12:25:07Z</time>
      </trkpt>
      <trkpt lat="44.91183" lon="5.73198">
        <ele>1558.92</ele>
        <time>2013-04-25T12:25:25Z</time>
      </trkpt>
      <trkpt lat="44.91184" lon="5.73216">
        <ele>1561.32</ele>
        <time>2013-04-25T12:25:42Z</time>
      </trkpt>
      <trkpt lat="44.91188" lon="5.73235">
        <ele>1562.28</ele>
        <time>2013-04-25T12:25:57Z</time>
      </trkpt>
      <trkpt lat="44.91193" lon="5.73253">
        <ele>1563.72</ele>
        <time>2013-04-25T12:26:15Z</time>
      </trkpt>
      <trkpt lat="44.91195" lon="5.73267">
        <ele>1566.61</ele>
        <time>2013-04-25T12:26:31Z</time>
      </trkpt>
      <trkpt lat="44.91195" lon="5.7327">
        <ele>1567.09</ele>
        <time>2013-04-25T12:26:34Z</time>
      </trkpt>
      <trkpt lat="44.91196" lon="5.73286">
        <ele>1569.01</ele>
        <time>2013-04-25T12:26:49Z</time>
      </trkpt>
      <trkpt lat="44.91195" lon="5.73291">
        <ele>1569.97</ele>
        <time>2013-04-25T12:26:53Z</time>
      </trkpt>
      <trkpt lat="44.91191" lon="5.73311">
        <ele>1571.89</ele>
        <time>2013-04-25T12:27:11Z</time>
      </trkpt>
      <trkpt lat="44.9119" lon="5.73323">
        <ele>1572.85</ele>
        <time>2013-04-25T12:27:22Z</time>
      </trkpt>
      <trkpt lat="44.91189" lon="5.73326">
        <ele>1573.33</ele>
        <time>2013-04-25T12:27:25Z</time>
      </trkpt>
      <trkpt lat="44.91191" lon="5.73344">
        <ele>1575.26</ele>
        <time>2013-04-25T12:27:43Z</time>
      </trkpt>
      <trkpt lat="44.9119" lon="5.73355">
        <ele>1578.62</ele>
        <time>2013-04-25T12:27:56Z</time>
      </trkpt>
      <trkpt lat="44.9119" lon="5.73375">
        <ele>1581.99</ele>
        <time>2013-04-25T12:28:17Z</time>
      </trkpt>
      <trkpt lat="44.91191" lon="5.73381">
        <ele>1582.47</ele>
        <time>2013-04-25T12:28:24Z</time>
      </trkpt>
      <trkpt lat="44.91195" lon="5.73393">
        <ele>1585.83</ele>
        <time>2013-04-25T12:28:42Z</time>
      </trkpt>
      <trkpt lat="44.91201" lon="5.73407">
        <ele>1584.39</ele>
        <time>2013-04-25T12:29:02Z</time>
      </trkpt>
      <trkpt lat="44.91217" lon="5.73422">
        <ele>1583.43</ele>
        <time>2013-04-25T12:29:23Z</time>
      </trkpt>
      <trkpt lat="44.9123" lon="5.73431">
        <ele>1584.39</ele>
        <time>2013-04-25T12:29:37Z</time>
      </trkpt>
      <trkpt lat="44.91249" lon="5.73439">
        <ele>1586.79</ele>
        <time>2013-04-25T12:30:00Z</time>
      </trkpt>
      <trkpt lat="44.91264" lon="5.73451">
        <ele>1587.27</ele>
        <time>2013-04-25T12:30:16Z</time>
      </trkpt>
      <trkpt lat="44.91266" lon="5.73455">
        <ele>1587.75</ele>
        <time>2013-04-25T12:30:19Z</time>
      </trkpt>
      <trkpt lat="44.9127" lon="5.73461">
        <ele>1586.31</ele>
        <time>2013-04-25T12:30:25Z</time>
      </trkpt>
      <trkpt lat="44.91282" lon="5.73478">
        <ele>1588.24</ele>
        <time>2013-04-25T12:30:44Z</time>
      </trkpt>
      <trkpt lat="44.9129" lon="5.73491">
        <ele>1589.2</ele>
        <time>2013-04-25T12:30:57Z</time>
      </trkpt>
      <trkpt lat="44.91296" lon="5.73504">
        <ele>1590.64</ele>
        <time>2013-04-25T12:31:17Z</time>
      </trkpt>
      <trkpt lat="44.913" lon="5.73513">
        <ele>1590.64</ele>
        <time>2013-04-25T12:31:26Z</time>
      </trkpt>
      <trkpt lat="44.91308" lon="5.73534">
        <ele>1593.04</ele>
        <time>2013-04-25T12:31:47Z</time>
      </trkpt>
      <trkpt lat="44.91316" lon="5.73552">
        <ele>1594.96</ele>
        <time>2013-04-25T12:32:05Z</time>
      </trkpt>
      <trkpt lat="44.9132" lon="5.73555">
        <ele>1594.48</ele>
        <time>2013-04-25T12:32:10Z</time>
      </trkpt>
      <trkpt lat="44.91331" lon="5.73566">
        <ele>1596.89</ele>
        <time>2013-04-25T12:32:27Z</time>
      </trkpt>
      <trkpt lat="44.91344" lon="5.73579">
        <ele>1598.33</ele>
        <time>2013-04-25T12:32:47Z</time>
      </trkpt>
      <trkpt lat="44.91359" lon="5.73586">
        <ele>1598.81</ele>
        <time>2013-04-25T12:33:09Z</time>
      </trkpt>
      <trkpt lat="44.91359" lon="5.73585">
        <ele>1598.81</ele>
        <time>2013-04-25T12:33:38Z</time>
      </trkpt>
      <trkpt lat="44.91359" lon="5.73586">
        <ele>1598.81</ele>
        <time>2013-04-25T12:34:08Z</time>
      </trkpt>
      <trkpt lat="44.91359" lon="5.73585">
        <ele>1598.81</ele>
        <time>2013-04-25T12:34:45Z</time>
      </trkpt>
      <trkpt lat="44.9136" lon="5.73585">
        <ele>1599.77</ele>
        <time>2013-04-25T12:35:23Z</time>
      </trkpt>
      <trkpt lat="44.91359" lon="5.73585">
        <ele>1599.29</ele>
        <time>2013-04-25T12:36:05Z</time>
      </trkpt>
      <trkpt lat="44.91359" lon="5.73585">
        <ele>1598.81</ele>
        <time>2013-04-25T12:36:48Z</time>
      </trkpt>
      <trkpt lat="44.91364" lon="5.7359">
        <ele>1598.33</ele>
        <time>2013-04-25T12:37:06Z</time>
      </trkpt>
      <trkpt lat="44.91388" lon="5.73607">
        <ele>1595.45</ele>
        <time>2013-04-25T12:37:30Z</time>
      </trkpt>
      <trkpt lat="44.91401" lon="5.73622">
        <ele>1593.52</ele>
        <time>2013-04-25T12:37:50Z</time>
      </trkpt>
      <trkpt lat="44.91411" lon="5.73633">
        <ele>1590.64</ele>
        <time>2013-04-25T12:38:03Z</time>
      </trkpt>
      <trkpt lat="44.9142" lon="5.73644">
        <ele>1590.16</ele>
        <time>2013-04-25T12:38:14Z</time>
      </trkpt>
      <trkpt lat="44.91434" lon="5.73656">
        <ele>1586.31</ele>
        <time>2013-04-25T12:38:29Z</time>
      </trkpt>
      <trkpt lat="44.91437" lon="5.7366">
        <ele>1585.83</ele>
        <time>2013-04-25T12:38:33Z</time>
      </trkpt>
      <trkpt lat="44.91458" lon="5.73675">
        <ele>1584.87</ele>
        <time>2013-04-25T12:38:54Z</time>
      </trkpt>
      <trkpt lat="44.91468" lon="5.73683">
        <ele>1584.87</ele>
        <time>2013-04-25T12:39:04Z</time>
      </trkpt>
      <trkpt lat="44.9147" lon="5.73684">
        <ele>1583.91</ele>
        <time>2013-04-25T12:39:06Z</time>
      </trkpt>
      <trkpt lat="44.91483" lon="5.73695">
        <ele>1584.39</ele>
        <time>2013-04-25T12:39:20Z</time>
      </trkpt>
      <trkpt lat="44.91484" lon="5.73696">
        <ele>1582.95</ele>
        <time>2013-04-25T12:39:22Z</time>
      </trkpt>
      <trkpt lat="44.91488" lon="5.737">
        <ele>1582.47</ele>
        <time>2013-04-25T12:39:26Z</time>
      </trkpt>
      <trkpt lat="44.91508" lon="5.73717">
        <ele>1582.47</ele>
        <time>2013-04-25T12:39:49Z</time>
      </trkpt>
      <trkpt lat="44.91525" lon="5.73726">
        <ele>1580.54</ele>
        <time>2013-04-25T12:40:08Z</time>
      </trkpt>
      <trkpt lat="44.91528" lon="5.73729">
        <ele>1579.58</ele>
        <time>2013-04-25T12:40:12Z</time>
      </trkpt>
      <trkpt lat="44.91547" lon="5.7374">
        <ele>1578.62</ele>
        <time>2013-04-25T12:40:34Z</time>
      </trkpt>
      <trkpt lat="44.91547" lon="5.73741">
        <ele>1578.14</ele>
        <time>2013-04-25T12:40:35Z</time>
      </trkpt>
      <trkpt lat="44.91552" lon="5.73744">
        <ele>1578.62</ele>
        <time>2013-04-25T12:40:40Z</time>
      </trkpt>
      <trkpt lat="44.91557" lon="5.73749">
        <ele>1577.66</ele>
        <time>2013-04-25T12:40:46Z</time>
      </trkpt>
      <trkpt lat="44.91575" lon="5.73772">
        <ele>1579.1</ele>
        <time>2013-04-25T12:41:09Z</time>
      </trkpt>
      <trkpt lat="44.91591" lon="5.73788">
        <ele>1577.18</ele>
        <time>2013-04-25T12:41:27Z</time>
      </trkpt>
      <trkpt lat="44.91605" lon="5.73799">
        <ele>1579.1</ele>
        <time>2013-04-25T12:41:45Z</time>
      </trkpt>
      <trkpt lat="44.91619" lon="5.73816">
        <ele>1580.54</ele>
        <time>2013-04-25T12:42:05Z</time>
      </trkpt>
      <trkpt lat="44.91621" lon="5.73819">
        <ele>1581.03</ele>
        <time>2013-04-25T12:42:08Z</time>
      </trkpt>
      <trkpt lat="44.91636" lon="5.73835">
        <ele>1580.06</ele>
        <time>2013-04-25T12:42:28Z</time>
      </trkpt>
      <trkpt lat="44.91642" lon="5.73841">
        <ele>1580.06</ele>
        <time>2013-04-25T12:42:38Z</time>
      </trkpt>
      <trkpt lat="44.91659" lon="5.73863">
        <ele>1580.54</ele>
        <time>2013-04-25T12:43:00Z</time>
      </trkpt>
      <trkpt lat="44.91665" lon="5.7387">
        <ele>1581.03</ele>
        <time>2013-04-25T12:43:08Z</time>
      </trkpt>
      <trkpt lat="44.91681" lon="5.73886">
        <ele>1581.51</ele>
        <time>2013-04-25T12:43:27Z</time>
      </trkpt>
      <trkpt lat="44.91704" lon="5.73901">
        <ele>1581.03</ele>
        <time>2013-04-25T12:43:51Z</time>
      </trkpt>
      <trkpt lat="44.91724" lon="5.73913">
        <ele>1578.62</ele>
        <time>2013-04-25T12:44:13Z</time>
      </trkpt>
      <trkpt lat="44.91735" lon="5.73917">
        <ele>1577.66</ele>
        <time>2013-04-25T12:44:25Z</time>
      </trkpt>
      <trkpt lat="44.91755" lon="5.7393">
        <ele>1575.74</ele>
        <time>2013-04-25T12:44:45Z</time>
      </trkpt>
      <trkpt lat="44.91778" lon="5.73943">
        <ele>1573.82</ele>
        <time>2013-04-25T12:45:09Z</time>
      </trkpt>
      <trkpt lat="44.91798" lon="5.73957">
        <ele>1572.85</ele>
        <time>2013-04-25T12:45:34Z</time>
      </trkpt>
      <trkpt lat="44.91808" lon="5.73961">
        <ele>1571.89</ele>
        <time>2013-04-25T12:45:46Z</time>
      </trkpt>
      <trkpt lat="44.91831" lon="5.7397">
        <ele>1569.49</ele>
        <time>2013-04-25T12:46:11Z</time>
      </trkpt>
      <trkpt lat="44.91839" lon="5.73973">
        <ele>1570.93</ele>
        <time>2013-04-25T12:46:20Z</time>
      </trkpt>
      <trkpt lat="44.91865" lon="5.73975">
        <ele>1569.49</ele>
        <time>2013-04-25T12:46:44Z</time>
      </trkpt>
      <trkpt lat="44.91887" lon="5.73981">
        <ele>1568.05</ele>
        <time>2013-04-25T12:47:06Z</time>
      </trkpt>
      <trkpt lat="44.919" lon="5.7399">
        <ele>1567.57</ele>
        <time>2013-04-25T12:47:24Z</time>
      </trkpt>
      <trkpt lat="44.91901" lon="5.73991">
        <ele>1567.09</ele>
        <time>2013-04-25T12:47:26Z</time>
      </trkpt>
      <trkpt lat="44.91906" lon="5.73996">
        <ele>1566.61</ele>
        <time>2013-04-25T12:47:34Z</time>
      </trkpt>
      <trkpt lat="44.91922" lon="5.74013">
        <ele>1564.2</ele>
        <time>2013-04-25T12:47:55Z</time>
      </trkpt>
      <trkpt lat="44.91932" lon="5.74026">
        <ele>1563.24</ele>
        <time>2013-04-25T12:48:13Z</time>
      </trkpt>
      <trkpt lat="44.91945" lon="5.74044">
        <ele>1563.24</ele>
        <time>2013-04-25T12:48:32Z</time>
      </trkpt>
      <trkpt lat="44.91948" lon="5.74056">
        <ele>1562.76</ele>
        <time>2013-04-25T12:48:42Z</time>
      </trkpt>
      <trkpt lat="44.91953" lon="5.74076">
        <ele>1560.36</ele>
        <time>2013-04-25T12:48:58Z</time>
      </trkpt>
      <trkpt lat="44.91959" lon="5.7409">
        <ele>1558.92</ele>
        <time>2013-04-25T12:49:16Z</time>
      </trkpt>
      <trkpt lat="44.91964" lon="5.74103">
        <ele>1558.43</ele>
        <time>2013-04-25T12:49:33Z</time>
      </trkpt>
      <trkpt lat="44.91969" lon="5.74109">
        <ele>1558.43</ele>
        <time>2013-04-25T12:49:52Z</time>
      </trkpt>
      <trkpt lat="44.91972" lon="5.74119">
        <ele>1557.47</ele>
        <time>2013-04-25T12:50:11Z</time>
      </trkpt>
      <trkpt lat="44.91973" lon="5.74125">
        <ele>1557.47</ele>
        <time>2013-04-25T12:50:15Z</time>
      </trkpt>
      <trkpt lat="44.91973" lon="5.74128">
        <ele>1557.95</ele>
        <time>2013-04-25T12:50:17Z</time>
      </trkpt>
      <trkpt lat="44.91978" lon="5.74155">
        <ele>1556.03</ele>
        <time>2013-04-25T12:50:40Z</time>
      </trkpt>
      <trkpt lat="44.9198" lon="5.74163">
        <ele>1555.55</ele>
        <time>2013-04-25T12:50:46Z</time>
      </trkpt>
      <trkpt lat="44.91987" lon="5.74186">
        <ele>1552.67</ele>
        <time>2013-04-25T12:51:05Z</time>
      </trkpt>
      <trkpt lat="44.91993" lon="5.74195">
        <ele>1551.71</ele>
        <time>2013-04-25T12:51:17Z</time>
      </trkpt>
      <trkpt lat="44.92002" lon="5.74203">
        <ele>1550.26</ele>
        <time>2013-04-25T12:51:37Z</time>
      </trkpt>
      <trkpt lat="44.92018" lon="5.74216">
        <ele>1548.34</ele>
        <time>2013-04-25T12:51:59Z</time>
      </trkpt>
      <trkpt lat="44.92018" lon="5.74218">
        <ele>1546.9</ele>
        <time>2013-04-25T12:52:21Z</time>
      </trkpt>
      <trkpt lat="44.92021" lon="5.74228">
        <ele>1544.01</ele>
        <time>2013-04-25T12:52:47Z</time>
      </trkpt>
      <trkpt lat="44.92027" lon="5.74235">
        <ele>1541.13</ele>
        <time>2013-04-25T12:52:57Z</time>
      </trkpt>
      <trkpt lat="44.92034" lon="5.74249">
        <ele>1537.77</ele>
        <time>2013-04-25T12:53:11Z</time>
      </trkpt>
      <trkpt lat="44.9204" lon="5.74258">
        <ele>1534.4</ele>
        <time>2013-04-25T12:53:21Z</time>
      </trkpt>
      <trkpt lat="44.92043" lon="5.74265">
        <ele>1531.04</ele>
        <time>2013-04-25T12:53:31Z</time>
      </trkpt>
      <trkpt lat="44.92043" lon="5.74268">
        <ele>1530.08</ele>
        <time>2013-04-25T12:53:34Z</time>
      </trkpt>
      <trkpt lat="44.92047" lon="5.74274">
        <ele>1527.67</ele>
        <time>2013-04-25T12:53:42Z</time>
      </trkpt>
      <trkpt lat="44.92051" lon="5.74281">
        <ele>1524.79</ele>
        <time>2013-04-25T12:53:51Z</time>
      </trkpt>
      <trkpt lat="44.92051" lon="5.74283">
        <ele>1523.35</ele>
        <time>2013-04-25T12:53:54Z</time>
      </trkpt>
      <trkpt lat="44.92054" lon="5.7429">
        <ele>1520.94</ele>
        <time>2013-04-25T12:54:01Z</time>
      </trkpt>
      <trkpt lat="44.92058" lon="5.74302">
        <ele>1517.58</ele>
        <time>2013-04-25T12:54:14Z</time>
      </trkpt>
      <trkpt lat="44.92073" lon="5.74311">
        <ele>1516.14</ele>
        <time>2013-04-25T12:54:30Z</time>
      </trkpt>
      <trkpt lat="44.92098" lon="5.74324">
        <ele>1515.66</ele>
        <time>2013-04-25T12:54:55Z</time>
      </trkpt>
      <trkpt lat="44.92112" lon="5.74337">
        <ele>1515.66</ele>
        <time>2013-04-25T12:55:10Z</time>
      </trkpt>
      <trkpt lat="44.9213" lon="5.74354">
        <ele>1515.18</ele>
        <time>2013-04-25T12:55:31Z</time>
      </trkpt>
      <trkpt lat="44.92136" lon="5.74357">
        <ele>1514.21</ele>
        <time>2013-04-25T12:55:37Z</time>
      </trkpt>
      <trkpt lat="44.92148" lon="5.74367">
        <ele>1511.81</ele>
        <time>2013-04-25T12:55:55Z</time>
      </trkpt>
      <trkpt lat="44.92151" lon="5.74368">
        <ele>1510.85</ele>
        <time>2013-04-25T12:55:58Z</time>
      </trkpt>
      <trkpt lat="44.92157" lon="5.74371">
        <ele>1509.89</ele>
        <time>2013-04-25T12:56:06Z</time>
      </trkpt>
      <trkpt lat="44.92172" lon="5.74374">
        <ele>1507.48</ele>
        <time>2013-04-25T12:56:20Z</time>
      </trkpt>
      <trkpt lat="44.92175" lon="5.74373">
        <ele>1507</ele>
        <time>2013-04-25T12:56:22Z</time>
      </trkpt>
      <trkpt lat="44.92178" lon="5.74374">
        <ele>1506.52</ele>
        <time>2013-04-25T12:56:25Z</time>
      </trkpt>
      <trkpt lat="44.92188" lon="5.74369">
        <ele>1503.16</ele>
        <time>2013-04-25T12:56:37Z</time>
      </trkpt>
      <trkpt lat="44.92202" lon="5.7436">
        <ele>1499.79</ele>
        <time>2013-04-25T12:56:53Z</time>
      </trkpt>
      <trkpt lat="44.92217" lon="5.74358">
        <ele>1496.43</ele>
        <time>2013-04-25T12:57:09Z</time>
      </trkpt>
      <trkpt lat="44.92221" lon="5.74366">
        <ele>1496.91</ele>
        <time>2013-04-25T12:57:16Z</time>
      </trkpt>
      <trkpt lat="44.92225" lon="5.74376">
        <ele>1494.03</ele>
        <time>2013-04-25T12:57:25Z</time>
      </trkpt>
      <trkpt lat="44.92225" lon="5.74383">
        <ele>1492.58</ele>
        <time>2013-04-25T12:57:31Z</time>
      </trkpt>
      <trkpt lat="44.92227" lon="5.74391">
        <ele>1489.7</ele>
        <time>2013-04-25T12:57:39Z</time>
      </trkpt>
      <trkpt lat="44.92226" lon="5.744">
        <ele>1486.82</ele>
        <time>2013-04-25T12:57:51Z</time>
      </trkpt>
      <trkpt lat="44.92227" lon="5.74399">
        <ele>1485.85</ele>
        <time>2013-04-25T12:57:55Z</time>
      </trkpt>
      <trkpt lat="44.92228" lon="5.74397">
        <ele>1486.34</ele>
        <time>2013-04-25T12:57:57Z</time>
      </trkpt>
      <trkpt lat="44.92236" lon="5.7439">
        <ele>1486.34</ele>
        <time>2013-04-25T12:58:13Z</time>
      </trkpt>
      <trkpt lat="44.92246" lon="5.74387">
        <ele>1484.41</ele>
        <time>2013-04-25T12:58:30Z</time>
      </trkpt>
      <trkpt lat="44.92247" lon="5.74387">
        <ele>1483.45</ele>
        <time>2013-04-25T12:58:33Z</time>
      </trkpt>
      <trkpt lat="44.92253" lon="5.74397">
        <ele>1481.05</ele>
        <time>2013-04-25T12:58:49Z</time>
      </trkpt>
      <trkpt lat="44.92248" lon="5.74403">
        <ele>1478.65</ele>
        <time>2013-04-25T12:59:09Z</time>
      </trkpt>
      <trkpt lat="44.92251" lon="5.74408">
        <ele>1475.76</ele>
        <time>2013-04-25T12:59:27Z</time>
      </trkpt>
      <trkpt lat="44.92251" lon="5.74412">
        <ele>1472.88</ele>
        <time>2013-04-25T12:59:37Z</time>
      </trkpt>
      <trkpt lat="44.92262" lon="5.74407">
        <ele>1469.99</ele>
        <time>2013-04-25T12:59:54Z</time>
      </trkpt>
      <trkpt lat="44.9227" lon="5.74412">
        <ele>1467.11</ele>
        <time>2013-04-25T13:00:09Z</time>
      </trkpt>
      <trkpt lat="44.92271" lon="5.74413">
        <ele>1465.67</ele>
        <time>2013-04-25T13:00:12Z</time>
      </trkpt>
      <trkpt lat="44.92275" lon="5.74417">
        <ele>1463.74</ele>
        <time>2013-04-25T13:00:30Z</time>
      </trkpt>
      <trkpt lat="44.92278" lon="5.74426">
        <ele>1461.34</ele>
        <time>2013-04-25T13:00:48Z</time>
      </trkpt>
      <trkpt lat="44.92281" lon="5.74434">
        <ele>1458.46</ele>
        <time>2013-04-25T13:00:58Z</time>
      </trkpt>
      <trkpt lat="44.92284" lon="5.74442">
        <ele>1455.57</ele>
        <time>2013-04-25T13:01:08Z</time>
      </trkpt>
      <trkpt lat="44.92286" lon="5.74449">
        <ele>1455.09</ele>
        <time>2013-04-25T13:01:15Z</time>
      </trkpt>
      <trkpt lat="44.92296" lon="5.74467">
        <ele>1455.57</ele>
        <time>2013-04-25T13:01:34Z</time>
      </trkpt>
      <trkpt lat="44.923" lon="5.74476">
        <ele>1456.05</ele>
        <time>2013-04-25T13:01:55Z</time>
      </trkpt>
      <trkpt lat="44.92299" lon="5.74474">
        <ele>1455.09</ele>
        <time>2013-04-25T13:02:28Z</time>
      </trkpt>
      <trkpt lat="44.92303" lon="5.74472">
        <ele>1455.57</ele>
        <time>2013-04-25T13:03:03Z</time>
      </trkpt>
      <trkpt lat="44.92302" lon="5.74474">
        <ele>1455.09</ele>
        <time>2013-04-25T13:03:30Z</time>
      </trkpt>
      <trkpt lat="44.92301" lon="5.74477">
        <ele>1454.61</ele>
        <time>2013-04-25T13:04:07Z</time>
      </trkpt>
      <trkpt lat="44.92305" lon="5.7448">
        <ele>1455.09</ele>
        <time>2013-04-25T13:04:14Z</time>
      </trkpt>
      <trkpt lat="44.92321" lon="5.74493">
        <ele>1453.17</ele>
        <time>2013-04-25T13:04:31Z</time>
      </trkpt>
      <trkpt lat="44.9233" lon="5.74504">
        <ele>1451.73</ele>
        <time>2013-04-25T13:04:41Z</time>
      </trkpt>
      <trkpt lat="44.92348" lon="5.74524">
        <ele>1450.29</ele>
        <time>2013-04-25T13:05:00Z</time>
      </trkpt>
      <trkpt lat="44.92351" lon="5.74529">
        <ele>1449.81</ele>
        <time>2013-04-25T13:05:04Z</time>
      </trkpt>
      <trkpt lat="44.92369" lon="5.74552">
        <ele>1448.36</ele>
        <time>2013-04-25T13:05:25Z</time>
      </trkpt>
      <trkpt lat="44.92374" lon="5.74558">
        <ele>1447.4</ele>
        <time>2013-04-25T13:05:32Z</time>
      </trkpt>
      <trkpt lat="44.9239" lon="5.74573">
        <ele>1445.48</ele>
        <time>2013-04-25T13:05:51Z</time>
      </trkpt>
      <trkpt lat="44.92408" lon="5.74587">
        <ele>1444.04</ele>
        <time>2013-04-25T13:06:10Z</time>
      </trkpt>
      <trkpt lat="44.92413" lon="5.74593">
        <ele>1443.08</ele>
        <time>2013-04-25T13:06:17Z</time>
      </trkpt>
      <trkpt lat="44.92429" lon="5.74609">
        <ele>1441.63</ele>
        <time>2013-04-25T13:06:35Z</time>
      </trkpt>
      <trkpt lat="44.92445" lon="5.74625">
        <ele>1439.23</ele>
        <time>2013-04-25T13:06:54Z</time>
      </trkpt>
      <trkpt lat="44.92466" lon="5.74645">
        <ele>1436.83</ele>
        <time>2013-04-25T13:07:16Z</time>
      </trkpt>
      <trkpt lat="44.92483" lon="5.74659">
        <ele>1434.42</ele>
        <time>2013-04-25T13:07:37Z</time>
      </trkpt>
      <trkpt lat="44.92491" lon="5.74665">
        <ele>1431.06</ele>
        <time>2013-04-25T13:07:50Z</time>
      </trkpt>
      <trkpt lat="44.92502" lon="5.74678">
        <ele>1428.18</ele>
        <time>2013-04-25T13:08:05Z</time>
      </trkpt>
      <trkpt lat="44.92507" lon="5.74683">
        <ele>1427.21</ele>
        <time>2013-04-25T13:08:09Z</time>
      </trkpt>
      <trkpt lat="44.9251" lon="5.74687">
        <ele>1427.21</ele>
        <time>2013-04-25T13:08:13Z</time>
      </trkpt>
      <trkpt lat="44.92524" lon="5.74704">
        <ele>1424.81</ele>
        <time>2013-04-25T13:08:31Z</time>
      </trkpt>
      <trkpt lat="44.9254" lon="5.7473">
        <ele>1423.37</ele>
        <time>2013-04-25T13:08:53Z</time>
      </trkpt>
      <trkpt lat="44.92548" lon="5.74754">
        <ele>1420.97</ele>
        <time>2013-04-25T13:09:11Z</time>
      </trkpt>
      <trkpt lat="44.92551" lon="5.74761">
        <ele>1420</ele>
        <time>2013-04-25T13:09:17Z</time>
      </trkpt>
      <trkpt lat="44.92561" lon="5.74774">
        <ele>1417.12</ele>
        <time>2013-04-25T13:09:31Z</time>
      </trkpt>
      <trkpt lat="44.92561" lon="5.74778">
        <ele>1416.64</ele>
        <time>2013-04-25T13:09:34Z</time>
      </trkpt>
      <trkpt lat="44.92569" lon="5.74801">
        <ele>1413.28</ele>
        <time>2013-04-25T13:09:51Z</time>
      </trkpt>
      <trkpt lat="44.92571" lon="5.74804">
        <ele>1413.28</ele>
        <time>2013-04-25T13:09:53Z</time>
      </trkpt>
      <trkpt lat="44.92576" lon="5.74829">
        <ele>1410.39</ele>
        <time>2013-04-25T13:10:11Z</time>
      </trkpt>
      <trkpt lat="44.92579" lon="5.74848">
        <ele>1409.91</ele>
        <time>2013-04-25T13:10:24Z</time>
      </trkpt>
      <trkpt lat="44.92581" lon="5.7487">
        <ele>1410.39</ele>
        <time>2013-04-25T13:10:40Z</time>
      </trkpt>
      <trkpt lat="44.92585" lon="5.74895">
        <ele>1410.87</ele>
        <time>2013-04-25T13:10:59Z</time>
      </trkpt>
      <trkpt lat="44.92586" lon="5.7491">
        <ele>1408.95</ele>
        <time>2013-04-25T13:11:10Z</time>
      </trkpt>
      <trkpt lat="44.92596" lon="5.74927">
        <ele>1406.55</ele>
        <time>2013-04-25T13:11:26Z</time>
      </trkpt>
      <trkpt lat="44.92599" lon="5.74934">
        <ele>1406.07</ele>
        <time>2013-04-25T13:11:32Z</time>
      </trkpt>
      <trkpt lat="44.92611" lon="5.74955">
        <ele>1402.7</ele>
        <time>2013-04-25T13:11:50Z</time>
      </trkpt>
      <trkpt lat="44.92621" lon="5.74963">
        <ele>1399.82</ele>
        <time>2013-04-25T13:12:04Z</time>
      </trkpt>
      <trkpt lat="44.92632" lon="5.7497">
        <ele>1395.49</ele>
        <time>2013-04-25T13:12:18Z</time>
      </trkpt>
      <trkpt lat="44.92652" lon="5.74994">
        <ele>1392.61</ele>
        <time>2013-04-25T13:12:40Z</time>
      </trkpt>
      <trkpt lat="44.92666" lon="5.75011">
        <ele>1390.68</ele>
        <time>2013-04-25T13:12:57Z</time>
      </trkpt>
      <trkpt lat="44.92678" lon="5.75026">
        <ele>1388.28</ele>
        <time>2013-04-25T13:13:14Z</time>
      </trkpt>
      <trkpt lat="44.92688" lon="5.75031">
        <ele>1388.76</ele>
        <time>2013-04-25T13:13:31Z</time>
      </trkpt>
      <trkpt lat="44.92694" lon="5.75034">
        <ele>1388.76</ele>
        <time>2013-04-25T13:13:40Z</time>
      </trkpt>
      <trkpt lat="44.92699" lon="5.7504">
        <ele>1388.76</ele>
        <time>2013-04-25T13:13:47Z</time>
      </trkpt>
      <trkpt lat="44.92711" lon="5.75042">
        <ele>1388.28</ele>
        <time>2013-04-25T13:14:00Z</time>
      </trkpt>
      <trkpt lat="44.92728" lon="5.75051">
        <ele>1386.36</ele>
        <time>2013-04-25T13:14:19Z</time>
      </trkpt>
      <trkpt lat="44.9274" lon="5.75059">
        <ele>1385.4</ele>
        <time>2013-04-25T13:14:31Z</time>
      </trkpt>
      <trkpt lat="44.92755" lon="5.75064">
        <ele>1384.44</ele>
        <time>2013-04-25T13:14:50Z</time>
      </trkpt>
      <trkpt lat="44.92759" lon="5.75068">
        <ele>1383.47</ele>
        <time>2013-04-25T13:14:55Z</time>
      </trkpt>
      <trkpt lat="44.92769" lon="5.75081">
        <ele>1380.11</ele>
        <time>2013-04-25T13:15:10Z</time>
      </trkpt>
      <trkpt lat="44.92784" lon="5.75094">
        <ele>1378.19</ele>
        <time>2013-04-25T13:15:28Z</time>
      </trkpt>
      <trkpt lat="44.92786" lon="5.75097">
        <ele>1377.23</ele>
        <time>2013-04-25T13:15:31Z</time>
      </trkpt>
      <trkpt lat="44.92788" lon="5.75109">
        <ele>1374.82</ele>
        <time>2013-04-25T13:15:46Z</time>
      </trkpt>
      <trkpt lat="44.92786" lon="5.75113">
        <ele>1373.86</ele>
        <time>2013-04-25T13:16:05Z</time>
      </trkpt>
      <trkpt lat="44.92786" lon="5.75114">
        <ele>1373.38</ele>
        <time>2013-04-25T13:16:32Z</time>
      </trkpt>
      <trkpt lat="44.92787" lon="5.75113">
        <ele>1373.86</ele>
        <time>2013-04-25T13:16:54Z</time>
      </trkpt>
      <trkpt lat="44.92783" lon="5.75111">
        <ele>1372.9</ele>
        <time>2013-04-25T13:17:24Z</time>
      </trkpt>
      <trkpt lat="44.92785" lon="5.75113">
        <ele>1373.38</ele>
        <time>2013-04-25T13:17:57Z</time>
      </trkpt>
      <trkpt lat="44.92784" lon="5.75113">
        <ele>1372.9</ele>
        <time>2013-04-25T13:18:31Z</time>
      </trkpt>
      <trkpt lat="44.92785" lon="5.75113">
        <ele>1372.9</ele>
        <time>2013-04-25T13:19:12Z</time>
      </trkpt>
      <trkpt lat="44.92786" lon="5.75113">
        <ele>1372.9</ele>
        <time>2013-04-25T13:19:46Z</time>
      </trkpt>
      <trkpt lat="44.92785" lon="5.75111">
        <ele>1372.9</ele>
        <time>2013-04-25T13:20:36Z</time>
      </trkpt>
      <trkpt lat="44.92787" lon="5.75114">
        <ele>1372.42</ele>
        <time>2013-04-25T13:21:07Z</time>
      </trkpt>
      <trkpt lat="44.92787" lon="5.75117">
        <ele>1372.42</ele>
        <time>2013-04-25T13:21:28Z</time>
      </trkpt>
      <trkpt lat="44.92797" lon="5.75123">
        <ele>1372.42</ele>
        <time>2013-04-25T13:21:41Z</time>
      </trkpt>
      <trkpt lat="44.92803" lon="5.75128">
        <ele>1372.42</ele>
        <time>2013-04-25T13:21:47Z</time>
      </trkpt>
      <trkpt lat="44.92807" lon="5.75132">
        <ele>1372.42</ele>
        <time>2013-04-25T13:21:52Z</time>
      </trkpt>
      <trkpt lat="44.9282" lon="5.75137">
        <ele>1371.46</ele>
        <time>2013-04-25T13:22:05Z</time>
      </trkpt>
      <trkpt lat="44.92842" lon="5.75126">
        <ele>1371.46</ele>
        <time>2013-04-25T13:22:28Z</time>
      </trkpt>
      <trkpt lat="44.92858" lon="5.75113">
        <ele>1373.38</ele>
        <time>2013-04-25T13:22:47Z</time>
      </trkpt>
      <trkpt lat="44.92873" lon="5.75107">
        <ele>1375.78</ele>
        <time>2013-04-25T13:23:04Z</time>
      </trkpt>
      <trkpt lat="44.92887" lon="5.75101">
        <ele>1377.23</ele>
        <time>2013-04-25T13:23:21Z</time>
      </trkpt>
      <trkpt lat="44.92897" lon="5.75096">
        <ele>1379.15</ele>
        <time>2013-04-25T13:23:34Z</time>
      </trkpt>
      <trkpt lat="44.92908" lon="5.7509">
        <ele>1381.07</ele>
        <time>2013-04-25T13:23:48Z</time>
      </trkpt>
      <trkpt lat="44.92919" lon="5.75083">
        <ele>1381.55</ele>
        <time>2013-04-25T13:24:02Z</time>
      </trkpt>
      <trkpt lat="44.92924" lon="5.7508">
        <ele>1382.51</ele>
        <time>2013-04-25T13:24:08Z</time>
      </trkpt>
      <trkpt lat="44.92936" lon="5.75072">
        <ele>1384.92</ele>
        <time>2013-04-25T13:24:23Z</time>
      </trkpt>
      <trkpt lat="44.92948" lon="5.75067">
        <ele>1385.88</ele>
        <time>2013-04-25T13:24:37Z</time>
      </trkpt>
      <trkpt lat="44.92958" lon="5.75061">
        <ele>1386.36</ele>
        <time>2013-04-25T13:24:48Z</time>
      </trkpt>
      <trkpt lat="44.92962" lon="5.75058">
        <ele>1387.32</ele>
        <time>2013-04-25T13:24:53Z</time>
      </trkpt>
      <trkpt lat="44.92964" lon="5.75057">
        <ele>1387.8</ele>
        <time>2013-04-25T13:24:56Z</time>
      </trkpt>
      <trkpt lat="44.92971" lon="5.75053">
        <ele>1388.76</ele>
        <time>2013-04-25T13:25:04Z</time>
      </trkpt>
      <trkpt lat="44.92973" lon="5.75051">
        <ele>1389.72</ele>
        <time>2013-04-25T13:25:07Z</time>
      </trkpt>
      <trkpt lat="44.92976" lon="5.7505">
        <ele>1389.24</ele>
        <time>2013-04-25T13:25:10Z</time>
      </trkpt>
      <trkpt lat="44.92982" lon="5.75046">
        <ele>1390.68</ele>
        <time>2013-04-25T13:25:19Z</time>
      </trkpt>
      <trkpt lat="44.92995" lon="5.75033">
        <ele>1392.61</ele>
        <time>2013-04-25T13:25:36Z</time>
      </trkpt>
      <trkpt lat="44.93005" lon="5.75016">
        <ele>1395.01</ele>
        <time>2013-04-25T13:25:53Z</time>
      </trkpt>
      <trkpt lat="44.93015" lon="5.75">
        <ele>1396.45</ele>
        <time>2013-04-25T13:26:09Z</time>
      </trkpt>
      <trkpt lat="44.93017" lon="5.74993">
        <ele>1396.93</ele>
        <time>2013-04-25T13:26:14Z</time>
      </trkpt>
      <trkpt lat="44.93025" lon="5.74975">
        <ele>1398.37</ele>
        <time>2013-04-25T13:26:32Z</time>
      </trkpt>
      <trkpt lat="44.93027" lon="5.74971">
        <ele>1398.37</ele>
        <time>2013-04-25T13:26:35Z</time>
      </trkpt>
      <trkpt lat="44.93034" lon="5.74952">
        <ele>1399.82</ele>
        <time>2013-04-25T13:26:52Z</time>
      </trkpt>
      <trkpt lat="44.93044" lon="5.74936">
        <ele>1401.26</ele>
        <time>2013-04-25T13:27:08Z</time>
      </trkpt>
      <trkpt lat="44.93053" lon="5.74924">
        <ele>1403.18</ele>
        <time>2013-04-25T13:27:24Z</time>
      </trkpt>
      <trkpt lat="44.93058" lon="5.7492">
        <ele>1404.62</ele>
        <time>2013-04-25T13:27:31Z</time>
      </trkpt>
      <trkpt lat="44.93068" lon="5.74917">
        <ele>1407.51</ele>
        <time>2013-04-25T13:27:45Z</time>
      </trkpt>
      <trkpt lat="44.93075" lon="5.74909">
        <ele>1407.99</ele>
        <time>2013-04-25T13:27:57Z</time>
      </trkpt>
      <trkpt lat="44.9309" lon="5.74895">
        <ele>1408.95</ele>
        <time>2013-04-25T13:28:16Z</time>
      </trkpt>
      <trkpt lat="44.93101" lon="5.74884">
        <ele>1411.83</ele>
        <time>2013-04-25T13:28:34Z</time>
      </trkpt>
      <trkpt lat="44.93104" lon="5.74874">
        <ele>1412.31</ele>
        <time>2013-04-25T13:28:59Z</time>
      </trkpt>
      <trkpt lat="44.93108" lon="5.74877">
        <ele>1411.83</ele>
        <time>2013-04-25T13:29:26Z</time>
      </trkpt>
      <trkpt lat="44.93116" lon="5.74861">
        <ele>1409.91</ele>
        <time>2013-04-25T13:29:43Z</time>
      </trkpt>
      <trkpt lat="44.93124" lon="5.74845">
        <ele>1408.95</ele>
        <time>2013-04-25T13:29:57Z</time>
      </trkpt>
      <trkpt lat="44.93127" lon="5.74832">
        <ele>1408.47</ele>
        <time>2013-04-25T13:30:05Z</time>
      </trkpt>
      <trkpt lat="44.93129" lon="5.74827">
        <ele>1408.47</ele>
        <time>2013-04-25T13:30:08Z</time>
      </trkpt>
      <trkpt lat="44.9314" lon="5.74808">
        <ele>1408.95</ele>
        <time>2013-04-25T13:30:22Z</time>
      </trkpt>
      <trkpt lat="44.93144" lon="5.74799">
        <ele>1407.51</ele>
        <time>2013-04-25T13:30:30Z</time>
      </trkpt>
      <trkpt lat="44.9315" lon="5.74775">
        <ele>1407.99</ele>
        <time>2013-04-25T13:30:48Z</time>
      </trkpt>
      <trkpt lat="44.93157" lon="5.74759">
        <ele>1408.47</ele>
        <time>2013-04-25T13:30:59Z</time>
      </trkpt>
      <trkpt lat="44.9316" lon="5.74742">
        <ele>1407.51</ele>
        <time>2013-04-25T13:31:09Z</time>
      </trkpt>
      <trkpt lat="44.9316" lon="5.74727">
        <ele>1407.03</ele>
        <time>2013-04-25T13:31:18Z</time>
      </trkpt>
      <trkpt lat="44.9316" lon="5.74722">
        <ele>1407.03</ele>
        <time>2013-04-25T13:31:21Z</time>
      </trkpt>
      <trkpt lat="44.93162" lon="5.7471">
        <ele>1407.51</ele>
        <time>2013-04-25T13:31:30Z</time>
      </trkpt>
      <trkpt lat="44.93168" lon="5.7469">
        <ele>1407.51</ele>
        <time>2013-04-25T13:31:45Z</time>
      </trkpt>
      <trkpt lat="44.9317" lon="5.74683">
        <ele>1407.51</ele>
        <time>2013-04-25T13:31:52Z</time>
      </trkpt>
      <trkpt lat="44.93179" lon="5.74673">
        <ele>1407.03</ele>
        <time>2013-04-25T13:32:06Z</time>
      </trkpt>
      <trkpt lat="44.93186" lon="5.74665">
        <ele>1406.07</ele>
        <time>2013-04-25T13:32:12Z</time>
      </trkpt>
      <trkpt lat="44.93204" lon="5.74659">
        <ele>1406.07</ele>
        <time>2013-04-25T13:32:28Z</time>
      </trkpt>
      <trkpt lat="44.93232" lon="5.74671">
        <ele>1405.1</ele>
        <time>2013-04-25T13:32:45Z</time>
      </trkpt>
      <trkpt lat="44.93247" lon="5.74683">
        <ele>1404.14</ele>
        <time>2013-04-25T13:32:59Z</time>
      </trkpt>
      <trkpt lat="44.93259" lon="5.74692">
        <ele>1405.58</ele>
        <time>2013-04-25T13:33:17Z</time>
      </trkpt>
      <trkpt lat="44.93272" lon="5.747">
        <ele>1407.03</ele>
        <time>2013-04-25T13:33:33Z</time>
      </trkpt>
      <trkpt lat="44.93274" lon="5.747">
        <ele>1407.03</ele>
        <time>2013-04-25T13:33:35Z</time>
      </trkpt>
      <trkpt lat="44.93287" lon="5.74698">
        <ele>1409.91</ele>
        <time>2013-04-25T13:33:52Z</time>
      </trkpt>
      <trkpt lat="44.93291" lon="5.74698">
        <ele>1409.91</ele>
        <time>2013-04-25T13:33:56Z</time>
      </trkpt>
      <trkpt lat="44.93301" lon="5.74693">
        <ele>1412.31</ele>
        <time>2013-04-25T13:34:10Z</time>
      </trkpt>
      <trkpt lat="44.93319" lon="5.74678">
        <ele>1412.31</ele>
        <time>2013-04-25T13:34:30Z</time>
      </trkpt>
      <trkpt lat="44.93331" lon="5.74666">
        <ele>1411.83</ele>
        <time>2013-04-25T13:34:45Z</time>
      </trkpt>
      <trkpt lat="44.93333" lon="5.74664">
        <ele>1413.28</ele>
        <time>2013-04-25T13:34:48Z</time>
      </trkpt>
      <trkpt lat="44.93345" lon="5.74648">
        <ele>1413.76</ele>
        <time>2013-04-25T13:35:05Z</time>
      </trkpt>
      <trkpt lat="44.9335" lon="5.74643">
        <ele>1413.76</ele>
        <time>2013-04-25T13:35:10Z</time>
      </trkpt>
      <trkpt lat="44.93354" lon="5.74638">
        <ele>1413.76</ele>
        <time>2013-04-25T13:35:16Z</time>
      </trkpt>
      <trkpt lat="44.93364" lon="5.74627">
        <ele>1413.28</ele>
        <time>2013-04-25T13:35:28Z</time>
      </trkpt>
      <trkpt lat="44.93371" lon="5.74618">
        <ele>1413.28</ele>
        <time>2013-04-25T13:35:38Z</time>
      </trkpt>
      <trkpt lat="44.93372" lon="5.74614">
        <ele>1413.28</ele>
        <time>2013-04-25T13:35:41Z</time>
      </trkpt>
      <trkpt lat="44.93378" lon="5.74601">
        <ele>1412.79</ele>
        <time>2013-04-25T13:35:51Z</time>
      </trkpt>
      <trkpt lat="44.93384" lon="5.74585">
        <ele>1413.76</ele>
        <time>2013-04-25T13:36:06Z</time>
      </trkpt>
      <trkpt lat="44.93391" lon="5.74581">
        <ele>1413.28</ele>
        <time>2013-04-25T13:36:15Z</time>
      </trkpt>
      <trkpt lat="44.93401" lon="5.74572">
        <ele>1412.79</ele>
        <time>2013-04-25T13:36:28Z</time>
      </trkpt>
      <trkpt lat="44.93405" lon="5.74569">
        <ele>1412.79</ele>
        <time>2013-04-25T13:36:33Z</time>
      </trkpt>
      <trkpt lat="44.93407" lon="5.74568">
        <ele>1412.79</ele>
        <time>2013-04-25T13:36:35Z</time>
      </trkpt>
      <trkpt lat="44.9342" lon="5.74559">
        <ele>1412.31</ele>
        <time>2013-04-25T13:36:49Z</time>
      </trkpt>
      <trkpt lat="44.93446" lon="5.7455">
        <ele>1412.79</ele>
        <time>2013-04-25T13:37:11Z</time>
      </trkpt>
      <trkpt lat="44.93456" lon="5.74545">
        <ele>1413.28</ele>
        <time>2013-04-25T13:37:20Z</time>
      </trkpt>
      <trkpt lat="44.93476" lon="5.74534">
        <ele>1413.28</ele>
        <time>2013-04-25T13:37:38Z</time>
      </trkpt>
      <trkpt lat="44.93494" lon="5.74521">
        <ele>1413.76</ele>
        <time>2013-04-25T13:37:55Z</time>
      </trkpt>
      <trkpt lat="44.93514" lon="5.74507">
        <ele>1413.28</ele>
        <time>2013-04-25T13:38:13Z</time>
      </trkpt>
      <trkpt lat="44.93525" lon="5.74502">
        <ele>1413.76</ele>
        <time>2013-04-25T13:38:24Z</time>
      </trkpt>
      <trkpt lat="44.93549" lon="5.7449">
        <ele>1413.28</ele>
        <time>2013-04-25T13:38:43Z</time>
      </trkpt>
      <trkpt lat="44.93562" lon="5.74485">
        <ele>1413.28</ele>
        <time>2013-04-25T13:38:59Z</time>
      </trkpt>
      <trkpt lat="44.93581" lon="5.74482">
        <ele>1413.76</ele>
        <time>2013-04-25T13:39:14Z</time>
      </trkpt>
      <trkpt lat="44.93609" lon="5.7449">
        <ele>1414.24</ele>
        <time>2013-04-25T13:39:32Z</time>
      </trkpt>
      <trkpt lat="44.93632" lon="5.74505">
        <ele>1412.79</ele>
        <time>2013-04-25T13:39:51Z</time>
      </trkpt>
      <trkpt lat="44.93651" lon="5.74517">
        <ele>1411.35</ele>
        <time>2013-04-25T13:40:07Z</time>
      </trkpt>
      <trkpt lat="44.93657" lon="5.74525">
        <ele>1410.39</ele>
        <time>2013-04-25T13:40:14Z</time>
      </trkpt>
      <trkpt lat="44.93663" lon="5.74536">
        <ele>1409.43</ele>
        <time>2013-04-25T13:40:22Z</time>
      </trkpt>
      <trkpt lat="44.93676" lon="5.74552">
        <ele>1407.03</ele>
        <time>2013-04-25T13:40:36Z</time>
      </trkpt>
      <trkpt lat="44.93678" lon="5.74554">
        <ele>1406.55</ele>
        <time>2013-04-25T13:40:38Z</time>
      </trkpt>
      <trkpt lat="44.93693" lon="5.74574">
        <ele>1405.1</ele>
        <time>2013-04-25T13:40:55Z</time>
      </trkpt>
      <trkpt lat="44.93697" lon="5.7458">
        <ele>1404.62</ele>
        <time>2013-04-25T13:41:00Z</time>
      </trkpt>
      <trkpt lat="44.93715" lon="5.74602">
        <ele>1402.22</ele>
        <time>2013-04-25T13:41:19Z</time>
      </trkpt>
      <trkpt lat="44.93719" lon="5.74609">
        <ele>1401.26</ele>
        <time>2013-04-25T13:41:25Z</time>
      </trkpt>
      <trkpt lat="44.93736" lon="5.74628">
        <ele>1399.34</ele>
        <time>2013-04-25T13:41:42Z</time>
      </trkpt>
      <trkpt lat="44.93755" lon="5.74645">
        <ele>1398.37</ele>
        <time>2013-04-25T13:42:01Z</time>
      </trkpt>
      <trkpt lat="44.93775" lon="5.74652">
        <ele>1398.86</ele>
        <time>2013-04-25T13:42:22Z</time>
      </trkpt>
      <trkpt lat="44.93782" lon="5.74647">
        <ele>1398.86</ele>
        <time>2013-04-25T13:42:30Z</time>
      </trkpt>
      <trkpt lat="44.93795" lon="5.74626">
        <ele>1396.93</ele>
        <time>2013-04-25T13:42:51Z</time>
      </trkpt>
      <trkpt lat="44.938" lon="5.74612">
        <ele>1396.45</ele>
        <time>2013-04-25T13:43:01Z</time>
      </trkpt>
      <trkpt lat="44.93801" lon="5.746">
        <ele>1395.01</ele>
        <time>2013-04-25T13:43:09Z</time>
      </trkpt>
      <trkpt lat="44.938" lon="5.74591">
        <ele>1394.53</ele>
        <time>2013-04-25T13:43:15Z</time>
      </trkpt>
      <trkpt lat="44.93791" lon="5.74568">
        <ele>1393.57</ele>
        <time>2013-04-25T13:43:32Z</time>
      </trkpt>
      <trkpt lat="44.93782" lon="5.74549">
        <ele>1392.61</ele>
        <time>2013-04-25T13:43:50Z</time>
      </trkpt>
      <trkpt lat="44.93778" lon="5.74539">
        <ele>1391.65</ele>
        <time>2013-04-25T13:43:57Z</time>
      </trkpt>
      <trkpt lat="44.93763" lon="5.74515">
        <ele>1392.13</ele>
        <time>2013-04-25T13:44:16Z</time>
      </trkpt>
      <trkpt lat="44.93755" lon="5.745">
        <ele>1390.68</ele>
        <time>2013-04-25T13:44:29Z</time>
      </trkpt>
      <trkpt lat="44.93753" lon="5.74496">
        <ele>1390.68</ele>
        <time>2013-04-25T13:44:32Z</time>
      </trkpt>
      <trkpt lat="44.93738" lon="5.7448">
        <ele>1390.2</ele>
        <time>2013-04-25T13:44:49Z</time>
      </trkpt>
      <trkpt lat="44.93734" lon="5.74475">
        <ele>1389.72</ele>
        <time>2013-04-25T13:44:54Z</time>
      </trkpt>
      <trkpt lat="44.93718" lon="5.74459">
        <ele>1388.76</ele>
        <time>2013-04-25T13:45:08Z</time>
      </trkpt>
      <trkpt lat="44.93714" lon="5.74454">
        <ele>1387.8</ele>
        <time>2013-04-25T13:45:13Z</time>
      </trkpt>
      <trkpt lat="44.93699" lon="5.74426">
        <ele>1385.88</ele>
        <time>2013-04-25T13:45:34Z</time>
      </trkpt>
      <trkpt lat="44.93694" lon="5.744">
        <ele>1384.44</ele>
        <time>2013-04-25T13:45:52Z</time>
      </trkpt>
      <trkpt lat="44.9369" lon="5.74371">
        <ele>1382.51</ele>
        <time>2013-04-25T13:46:11Z</time>
      </trkpt>
      <trkpt lat="44.93686" lon="5.74362">
        <ele>1381.55</ele>
        <time>2013-04-25T13:46:36Z</time>
      </trkpt>
      <trkpt lat="44.93672" lon="5.74348">
        <ele>1381.07</ele>
        <time>2013-04-25T13:46:58Z</time>
      </trkpt>
      <trkpt lat="44.93651" lon="5.74336">
        <ele>1379.63</ele>
        <time>2013-04-25T13:47:22Z</time>
      </trkpt>
      <trkpt lat="44.93646" lon="5.74327">
        <ele>1376.75</ele>
        <time>2013-04-25T13:47:39Z</time>
      </trkpt>
      <trkpt lat="44.9364" lon="5.74316">
        <ele>1373.38</ele>
        <time>2013-04-25T13:47:56Z</time>
      </trkpt>
      <trkpt lat="44.93635" lon="5.74306">
        <ele>1370.5</ele>
        <time>2013-04-25T13:48:11Z</time>
      </trkpt>
      <trkpt lat="44.93635" lon="5.74305">
        <ele>1370.98</ele>
        <time>2013-04-25T13:48:12Z</time>
      </trkpt>
      <trkpt lat="44.93631" lon="5.74294">
        <ele>1367.61</ele>
        <time>2013-04-25T13:48:23Z</time>
      </trkpt>
      <trkpt lat="44.93629" lon="5.7429">
        <ele>1365.69</ele>
        <time>2013-04-25T13:48:26Z</time>
      </trkpt>
      <trkpt lat="44.93627" lon="5.74281">
        <ele>1362.81</ele>
        <time>2013-04-25T13:48:38Z</time>
      </trkpt>
      <trkpt lat="44.93623" lon="5.74268">
        <ele>1359.44</ele>
        <time>2013-04-25T13:48:50Z</time>
      </trkpt>
      <trkpt lat="44.93623" lon="5.74265">
        <ele>1358</ele>
        <time>2013-04-25T13:48:54Z</time>
      </trkpt>
      <trkpt lat="44.93624" lon="5.74253">
        <ele>1355.12</ele>
        <time>2013-04-25T13:49:07Z</time>
      </trkpt>
      <trkpt lat="44.9362" lon="5.74239">
        <ele>1351.75</ele>
        <time>2013-04-25T13:49:21Z</time>
      </trkpt>
      <trkpt lat="44.9362" lon="5.74229">
        <ele>1348.87</ele>
        <time>2013-04-25T13:49:31Z</time>
      </trkpt>
      <trkpt lat="44.93619" lon="5.74214">
        <ele>1345.5</ele>
        <time>2013-04-25T13:49:47Z</time>
      </trkpt>
      <trkpt lat="44.93616" lon="5.74196">
        <ele>1342.14</ele>
        <time>2013-04-25T13:50:02Z</time>
      </trkpt>
      <trkpt lat="44.93613" lon="5.74185">
        <ele>1339.73</ele>
        <time>2013-04-25T13:50:12Z</time>
      </trkpt>
      <trkpt lat="44.93612" lon="5.74182">
        <ele>1339.73</ele>
        <time>2013-04-25T13:50:14Z</time>
      </trkpt>
      <trkpt lat="44.93609" lon="5.74167">
        <ele>1336.85</ele>
        <time>2013-04-25T13:50:28Z</time>
      </trkpt>
      <trkpt lat="44.93608" lon="5.74163">
        <ele>1335.89</ele>
        <time>2013-04-25T13:50:32Z</time>
      </trkpt>
      <trkpt lat="44.93611" lon="5.74139">
        <ele>1334.93</ele>
        <time>2013-04-25T13:50:51Z</time>
      </trkpt>
      <trkpt lat="44.93622" lon="5.74115">
        <ele>1333.49</ele>
        <time>2013-04-25T13:51:11Z</time>
      </trkpt>
      <trkpt lat="44.93629" lon="5.7409">
        <ele>1332.52</ele>
        <time>2013-04-25T13:51:29Z</time>
      </trkpt>
      <trkpt lat="44.93635" lon="5.74079">
        <ele>1330.6</ele>
        <time>2013-04-25T13:51:45Z</time>
      </trkpt>
      <trkpt lat="44.93637" lon="5.74075">
        <ele>1330.12</ele>
        <time>2013-04-25T13:51:48Z</time>
      </trkpt>
      <trkpt lat="44.93638" lon="5.7407">
        <ele>1330.12</ele>
        <time>2013-04-25T13:51:52Z</time>
      </trkpt>
      <trkpt lat="44.93652" lon="5.74038">
        <ele>1327.24</ele>
        <time>2013-04-25T13:52:15Z</time>
      </trkpt>
      <trkpt lat="44.93657" lon="5.74026">
        <ele>1326.76</ele>
        <time>2013-04-25T13:52:24Z</time>
      </trkpt>
      <trkpt lat="44.93663" lon="5.74008">
        <ele>1324.35</ele>
        <time>2013-04-25T13:52:38Z</time>
      </trkpt>
      <trkpt lat="44.93667" lon="5.73994">
        <ele>1322.91</ele>
        <time>2013-04-25T13:52:56Z</time>
      </trkpt>
      <trkpt lat="44.93668" lon="5.73984">
        <ele>1322.91</ele>
        <time>2013-04-25T13:53:13Z</time>
      </trkpt>
      <trkpt lat="44.93667" lon="5.73983">
        <ele>1322.91</ele>
        <time>2013-04-25T13:53:57Z</time>
      </trkpt>
      <trkpt lat="44.93669" lon="5.73975">
        <ele>1321.95</ele>
        <time>2013-04-25T13:54:07Z</time>
      </trkpt>
      <trkpt lat="44.93672" lon="5.73956">
        <ele>1320.03</ele>
        <time>2013-04-25T13:54:25Z</time>
      </trkpt>
      <trkpt lat="44.93673" lon="5.73949">
        <ele>1319.55</ele>
        <time>2013-04-25T13:54:31Z</time>
      </trkpt>
      <trkpt lat="44.93672" lon="5.73939">
        <ele>1319.07</ele>
        <time>2013-04-25T13:54:39Z</time>
      </trkpt>
      <trkpt lat="44.93668" lon="5.7391">
        <ele>1316.18</ele>
        <time>2013-04-25T13:55:01Z</time>
      </trkpt>
      <trkpt lat="44.93665" lon="5.73882">
        <ele>1313.78</ele>
        <time>2013-04-25T13:55:23Z</time>
      </trkpt>
      <trkpt lat="44.93658" lon="5.73854">
        <ele>1311.86</ele>
        <time>2013-04-25T13:55:45Z</time>
      </trkpt>
      <trkpt lat="44.93654" lon="5.73843">
        <ele>1309.93</ele>
        <time>2013-04-25T13:56:05Z</time>
      </trkpt>
      <trkpt lat="44.93649" lon="5.73833">
        <ele>1308.97</ele>
        <time>2013-04-25T13:56:15Z</time>
      </trkpt>
      <trkpt lat="44.93648" lon="5.7383">
        <ele>1308.49</ele>
        <time>2013-04-25T13:56:18Z</time>
      </trkpt>
      <trkpt lat="44.93638" lon="5.73812">
        <ele>1305.61</ele>
        <time>2013-04-25T13:56:35Z</time>
      </trkpt>
      <trkpt lat="44.93632" lon="5.73792">
        <ele>1303.69</ele>
        <time>2013-04-25T13:56:56Z</time>
      </trkpt>
      <trkpt lat="44.93634" lon="5.7378">
        <ele>1300.8</ele>
        <time>2013-04-25T13:57:08Z</time>
      </trkpt>
      <trkpt lat="44.93635" lon="5.73779">
        <ele>1300.8</ele>
        <time>2013-04-25T13:57:09Z</time>
      </trkpt>
      <trkpt lat="44.93636" lon="5.73776">
        <ele>1299.36</ele>
        <time>2013-04-25T13:57:12Z</time>
      </trkpt>
      <trkpt lat="44.93648" lon="5.73762">
        <ele>1295.99</ele>
        <time>2013-04-25T13:57:30Z</time>
      </trkpt>
      <trkpt lat="44.93652" lon="5.73747">
        <ele>1293.11</ele>
        <time>2013-04-25T13:57:46Z</time>
      </trkpt>
      <trkpt lat="44.93654" lon="5.73734">
        <ele>1291.67</ele>
        <time>2013-04-25T13:57:56Z</time>
      </trkpt>
      <trkpt lat="44.93661" lon="5.73719">
        <ele>1287.34</ele>
        <time>2013-04-25T13:58:11Z</time>
      </trkpt>
      <trkpt lat="44.93663" lon="5.73716">
        <ele>1285.9</ele>
        <time>2013-04-25T13:58:31Z</time>
      </trkpt>
      <trkpt lat="44.93664" lon="5.73716">
        <ele>1285.42</ele>
        <time>2013-04-25T13:59:02Z</time>
      </trkpt>
      <trkpt lat="44.93667" lon="5.7371">
        <ele>1284.46</ele>
        <time>2013-04-25T13:59:32Z</time>
      </trkpt>
      <trkpt lat="44.93668" lon="5.73705">
        <ele>1282.06</ele>
        <time>2013-04-25T13:59:48Z</time>
      </trkpt>
      <trkpt lat="44.93667" lon="5.73708">
        <ele>1281.57</ele>
        <time>2013-04-25T14:00:18Z</time>
      </trkpt>
      <trkpt lat="44.93667" lon="5.73704">
        <ele>1282.54</ele>
        <time>2013-04-25T14:01:02Z</time>
      </trkpt>
      <trkpt lat="44.93666" lon="5.73704">
        <ele>1282.06</ele>
        <time>2013-04-25T14:01:45Z</time>
      </trkpt>
      <trkpt lat="44.93666" lon="5.73704">
        <ele>1281.57</ele>
        <time>2013-04-25T14:02:15Z</time>
      </trkpt>
      <trkpt lat="44.9367" lon="5.73699">
        <ele>1281.57</ele>
        <time>2013-04-25T14:02:49Z</time>
      </trkpt>
      <trkpt lat="44.93671" lon="5.73704">
        <ele>1281.57</ele>
        <time>2013-04-25T14:03:15Z</time>
      </trkpt>
      <trkpt lat="44.93672" lon="5.73706">
        <ele>1281.57</ele>
        <time>2013-04-25T14:03:45Z</time>
      </trkpt>
      <trkpt lat="44.93671" lon="5.73705">
        <ele>1280.61</ele>
        <time>2013-04-25T14:04:11Z</time>
      </trkpt>
      <trkpt lat="44.93672" lon="5.73707">
        <ele>1281.57</ele>
        <time>2013-04-25T14:04:43Z</time>
      </trkpt>
      <trkpt lat="44.9367" lon="5.73706">
        <ele>1281.57</ele>
        <time>2013-04-25T14:05:10Z</time>
      </trkpt>
      <trkpt lat="44.93669" lon="5.73709">
        <ele>1281.57</ele>
        <time>2013-04-25T14:05:47Z</time>
      </trkpt>
      <trkpt lat="44.93667" lon="5.73704">
        <ele>1281.09</ele>
        <time>2013-04-25T14:06:12Z</time>
      </trkpt>
      <trkpt lat="44.93668" lon="5.73705">
        <ele>1280.61</ele>
        <time>2013-04-25T14:06:57Z</time>
      </trkpt>
      <trkpt lat="44.9367" lon="5.73704">
        <ele>1280.61</ele>
        <time>2013-04-25T14:07:27Z</time>
      </trkpt>
      <trkpt lat="44.93668" lon="5.73701">
        <ele>1280.61</ele>
        <time>2013-04-25T14:07:55Z</time>
      </trkpt>
      <trkpt lat="44.9367" lon="5.73708">
        <ele>1281.09</ele>
        <time>2013-04-25T14:08:24Z</time>
      </trkpt>
      <trkpt lat="44.93669" lon="5.73704">
        <ele>1281.09</ele>
        <time>2013-04-25T14:09:11Z</time>
      </trkpt>
      <trkpt lat="44.93668" lon="5.73702">
        <ele>1280.61</ele>
        <time>2013-04-25T14:09:46Z</time>
      </trkpt>
      <trkpt lat="44.93669" lon="5.73706">
        <ele>1280.61</ele>
        <time>2013-04-25T14:10:21Z</time>
      </trkpt>
      <trkpt lat="44.93668" lon="5.73705">
        <ele>1281.09</ele>
        <time>2013-04-25T14:10:45Z</time>
      </trkpt>
      <trkpt lat="44.93668" lon="5.73706">
        <ele>1281.09</ele>
        <time>2013-04-25T14:11:28Z</time>
      </trkpt>
      <trkpt lat="44.93669" lon="5.73706">
        <ele>1281.57</ele>
        <time>2013-04-25T14:11:47Z</time>
      </trkpt>
      <trkpt lat="44.93668" lon="5.73705">
        <ele>1280.13</ele>
        <time>2013-04-25T14:12:31Z</time>
      </trkpt>
      <trkpt lat="44.93668" lon="5.73705">
        <ele>1280.13</ele>
        <time>2013-04-25T14:13:13Z</time>
      </trkpt>
      <trkpt lat="44.93672" lon="5.73704">
        <ele>1280.13</ele>
        <time>2013-04-25T14:13:40Z</time>
      </trkpt>
      <trkpt lat="44.93671" lon="5.73704">
        <ele>1280.13</ele>
        <time>2013-04-25T14:14:09Z</time>
      </trkpt>
      <trkpt lat="44.93673" lon="5.73701">
        <ele>1279.17</ele>
        <time>2013-04-25T14:14:31Z</time>
      </trkpt>
      <trkpt lat="44.93674" lon="5.73703">
        <ele>1279.65</ele>
        <time>2013-04-25T14:15:14Z</time>
      </trkpt>
      <trkpt lat="44.93674" lon="5.73703">
        <ele>1279.65</ele>
        <time>2013-04-25T14:15:47Z</time>
      </trkpt>
      <trkpt lat="44.93671" lon="5.73706">
        <ele>1279.65</ele>
        <time>2013-04-25T14:16:22Z</time>
      </trkpt>
      <trkpt lat="44.93674" lon="5.73703">
        <ele>1279.17</ele>
        <time>2013-04-25T14:16:45Z</time>
      </trkpt>
      <trkpt lat="44.93674" lon="5.73703">
        <ele>1279.17</ele>
        <time>2013-04-25T14:17:10Z</time>
      </trkpt>
      <trkpt lat="44.93677" lon="5.73704">
        <ele>1279.65</ele>
        <time>2013-04-25T14:17:53Z</time>
      </trkpt>
      <trkpt lat="44.93679" lon="5.73703">
        <ele>1279.17</ele>
        <time>2013-04-25T14:17:55Z</time>
      </trkpt>
      <trkpt lat="44.93682" lon="5.73699">
        <ele>1277.73</ele>
        <time>2013-04-25T14:17:59Z</time>
      </trkpt>
      <trkpt lat="44.93691" lon="5.73688">
        <ele>1274.36</ele>
        <time>2013-04-25T14:18:11Z</time>
      </trkpt>
      <trkpt lat="44.93696" lon="5.73681">
        <ele>1271.48</ele>
        <time>2013-04-25T14:18:22Z</time>
      </trkpt>
      <trkpt lat="44.93697" lon="5.73675">
        <ele>1270.04</ele>
        <time>2013-04-25T14:18:29Z</time>
      </trkpt>
      <trkpt lat="44.93698" lon="5.73655">
        <ele>1266.67</ele>
        <time>2013-04-25T14:18:48Z</time>
      </trkpt>
      <trkpt lat="44.93695" lon="5.73652">
        <ele>1266.67</ele>
        <time>2013-04-25T14:18:52Z</time>
      </trkpt>
      <trkpt lat="44.93688" lon="5.73649">
        <ele>1266.67</ele>
        <time>2013-04-25T14:19:12Z</time>
      </trkpt>
      <trkpt lat="44.9369" lon="5.73646">
        <ele>1266.19</ele>
        <time>2013-04-25T14:19:54Z</time>
      </trkpt>
      <trkpt lat="44.93694" lon="5.73634">
        <ele>1263.79</ele>
        <time>2013-04-25T14:20:01Z</time>
      </trkpt>
      <trkpt lat="44.93699" lon="5.73612">
        <ele>1260.91</ele>
        <time>2013-04-25T14:20:14Z</time>
      </trkpt>
      <trkpt lat="44.93707" lon="5.7358">
        <ele>1257.54</ele>
        <time>2013-04-25T14:20:32Z</time>
      </trkpt>
      <trkpt lat="44.93717" lon="5.73562">
        <ele>1254.66</ele>
        <time>2013-04-25T14:20:45Z</time>
      </trkpt>
      <trkpt lat="44.93729" lon="5.73542">
        <ele>1252.74</ele>
        <time>2013-04-25T14:21:00Z</time>
      </trkpt>
      <trkpt lat="44.93734" lon="5.73538">
        <ele>1252.25</ele>
        <time>2013-04-25T14:21:04Z</time>
      </trkpt>
      <trkpt lat="44.93754" lon="5.73514">
        <ele>1250.81</ele>
        <time>2013-04-25T14:21:23Z</time>
      </trkpt>
      <trkpt lat="44.93772" lon="5.73492">
        <ele>1249.85</ele>
        <time>2013-04-25T14:21:40Z</time>
      </trkpt>
    </trkseg>
  </trk>
</gpx>